Provisional Data: Bowman Creek near Noxen, PA


Please select a monitoring station.
Please select start date.
Please select start date.

Toggle Unit: C/F Toggle Unit: C/F
Sample Time Temperature (C) Temperature (F) Specific Conductivity (mS/cm) pH   Turbidity (NTU+) DO (mg/L)
5/4/2021 12:00:00 AM 11.55 52.79 0.04 6.35 2.71 10.13
5/4/2021 12:15:00 AM 11.53 52.754 0.04 6.36 2.85 10.15
5/4/2021 12:30:00 AM 11.5 52.7 0.041 6.36 2.77 10.15
5/4/2021 12:45:00 AM 11.48 52.664 0.041 6.35 2.69 10.16
5/4/2021 1:00:00 AM 11.46 52.628 0.041 6.36 2.63 10.16
5/4/2021 1:15:00 AM 11.44 52.592 0.041 6.36 2.71 10.17
5/4/2021 1:30:00 AM 11.42 52.556 0.041 6.36 2.77 10.17
5/4/2021 1:45:00 AM 11.4 52.52 0.041 6.38 2.59 10.18
5/4/2021 2:00:00 AM 11.38 52.484 0.041 6.37 2.52 10.18
5/4/2021 2:15:00 AM 11.36 52.448 0.041 6.37 2.63 10.19
5/4/2021 2:30:00 AM 11.34 52.412 0.041 6.38 2.61 10.2
5/4/2021 2:45:00 AM 11.31 52.358 0.041 6.37 2.58 10.2
5/4/2021 3:00:00 AM 11.3 52.34 0.041 6.37 2.7 10.22
5/4/2021 3:15:00 AM 11.27 52.286 0.041 6.37 2.51 10.21
5/4/2021 3:30:00 AM 11.25 52.25 0.041 6.38 2.54 10.22
5/4/2021 3:45:00 AM 11.24 52.232 0.041 6.38 2.56 10.23
5/4/2021 4:00:00 AM 11.22 52.196 0.041 6.38 2.83 10.23
5/4/2021 4:15:00 AM 11.2 52.16 0.041 6.38 2.68 10.24
5/4/2021 4:30:00 AM 11.18 52.124 0.041 6.38 2.81 10.25
5/4/2021 4:45:00 AM 11.16 52.088 0.041 6.37 2.75 10.25
5/4/2021 5:00:00 AM 11.15 52.07 0.041 6.38 2.73 10.25
5/4/2021 5:15:00 AM 11.13 52.034 0.041 6.38 2.64 10.25
5/4/2021 5:30:00 AM 11.11 51.998 0.041 6.39 2.76 10.26
5/4/2021 5:45:00 AM 11.1 51.98 0.041 6.38 2.71 10.26
5/4/2021 6:00:00 AM 11.08 51.944 0.041 6.36 2.73 10.26
5/4/2021 6:15:00 AM 11.07 51.926 0.041 6.37 2.75 10.28
5/4/2021 6:30:00 AM 11.06 51.908 0.041 6.37 2.71 10.28
5/4/2021 6:45:00 AM 11.05 51.89 0.041 6.37 2.67 10.31
5/4/2021 7:00:00 AM 11.04 51.872 0.041 6.39 2.61 10.33
5/4/2021 7:15:00 AM 11.03 51.854 0.041 6.4 2.76 10.34
5/4/2021 7:30:00 AM 11.05 51.89 0.041 6.4 2.65 10.4
5/4/2021 7:45:00 AM 11.06 51.908 0.041 6.42 2.66 10.43
5/4/2021 8:00:00 AM 11.06 51.908 0.041 6.43 2.59 10.45
5/4/2021 8:15:00 AM 11.07 51.926 0.041 6.43 2.71 10.46
5/4/2021 8:30:00 AM 11.09 51.962 0.041 6.44 2.62 10.49
5/4/2021 8:45:00 AM 11.11 51.998 0.041 6.46 2.59 10.51
5/4/2021 9:00:00 AM 11.19 52.142 0.041 6.47 2.59 10.55
5/4/2021 9:15:00 AM 11.25 52.25 0.041 6.49 2.57 10.56
5/4/2021 9:30:00 AM 11.33 52.394 0.041 6.5 2.67 10.57
5/4/2021 9:45:00 AM 11.44 52.592 0.041 6.5 2.72 10.56
5/4/2021 10:00:00 AM 11.48 52.664 0.04 6.5 2.6 10.54
5/4/2021 10:15:00 AM 11.55 52.79 0.04 6.51 2.68 10.54
5/4/2021 10:30:00 AM 11.77 53.186 0.04 6.53 2.56 10.56
5/4/2021 10:45:00 AM 11.97 53.546 0.04 6.54 2.61 10.53
5/4/2021 11:00:00 AM 12.12 53.816 0.04 6.53 2.54 10.49
5/4/2021 11:15:00 AM 12.32 54.176 0.04 6.55 2.54 10.46
5/4/2021 11:30:00 AM 12.6 54.68 0.04 6.55 2.49 10.43
5/4/2021 11:45:00 AM 12.82 55.076 0.04 6.55 2.58 10.36
5/4/2021 12:00:00 PM 12.96 55.328 0.04 6.55 2.54 10.31
5/4/2021 12:15:00 PM 13.16 55.688 0.04 6.56 2.62 10.29
5/4/2021 12:30:00 PM 13.43 56.174 0.04 6.57 2.56 10.24
5/4/2021 12:45:00 PM 13.81 56.858 0.04 6.59 2.54 10.2
5/4/2021 1:00:00 PM 14.08 57.344 0.04 6.57 2.59 10.11
5/4/2021 1:15:00 PM 14.12 57.416 0.04 6.57 2.86 10.06
5/4/2021 1:30:00 PM 14.05 57.29 0.04 6.56 2.68 10.07
5/4/2021 1:45:00 PM 14.01 57.218 0.04 6.56 2.63 10.09
5/4/2021 2:00:00 PM 14.02 57.236 0.04 6.56 2.6 10.08
5/4/2021 2:15:00 PM 14.06 57.308 0.04 6.57 2.64 10.06
5/4/2021 2:30:00 PM 14.14 57.452 0.04 6.58 2.61 10.01
5/4/2021 2:45:00 PM 14.21 57.578 0.04 6.57 2.59 9.98
5/4/2021 3:00:00 PM 14.35 57.83 0.04 6.59 2.53 9.98
5/4/2021 3:15:00 PM 14.44 57.992 0.04 6.59 3.06 9.96
5/4/2021 3:30:00 PM 14.56 58.208 0.04 6.57 2.51 9.91
5/4/2021 3:45:00 PM 14.57 58.226 0.04 6.56 2.56 9.87
5/4/2021 4:00:00 PM 14.55 58.19 0.04 6.53 2.7 9.83
5/4/2021 4:15:00 PM 14.55 58.19 0.04 6.53 2.68 9.82
5/4/2021 4:30:00 PM 14.57 58.226 0.04 6.54 2.66 9.79
5/4/2021 4:45:00 PM 14.68 58.424 0.04 6.56 2.62 9.79
5/4/2021 5:00:00 PM 14.72 58.496 0.04 6.56 2.67 9.78
5/4/2021 5:15:00 PM 14.8 58.64 0.04 6.55 2.5 9.75
5/4/2021 5:30:00 PM 14.84 58.712 0.04 6.54 2.52 9.73
5/4/2021 5:45:00 PM 14.83 58.694 0.04 6.54 2.61 9.71
5/4/2021 6:00:00 PM 14.87 58.766 0.04 6.53 2.62 9.68
5/4/2021 6:15:00 PM 14.85 58.73 0.04 6.52 2.49 9.65
5/4/2021 6:30:00 PM 14.81 58.658 0.04 6.49 2.59 9.6
5/4/2021 6:45:00 PM 14.78 58.604 0.04 6.48 2.87 9.55
5/4/2021 7:00:00 PM 14.75 58.55 0.04 6.45 2.88 9.51
5/4/2021 7:15:00 PM 14.74 58.532 0.04 6.43 3.62 9.49
5/4/2021 7:30:00 PM 14.7 58.46 0.04 6.41 3.38 9.47
5/4/2021 7:45:00 PM 14.71 58.478 0.04 6.4 4.79 9.45
5/4/2021 8:00:00 PM 14.67 58.406 0.04 6.4 6.43 9.44
5/4/2021 8:15:00 PM 14.72 58.496 0.04 6.43 8.71 9.43
5/4/2021 8:30:00 PM 14.99 58.982 0.042 6.46 117.05 9.36
5/4/2021 8:45:00 PM 14.82 58.676 0.044 6.44 34.61 9.38
5/4/2021 9:00:00 PM 14.78 58.604 0.044 6.45 100.54 9.39
5/4/2021 9:15:00 PM 14.83 58.694 0.047 6.5 119.96 9.41
5/4/2021 9:30:00 PM 14.9 58.82 0.051 6.57 164.22 9.43
5/4/2021 9:45:00 PM 14.88 58.784 0.05 6.58 183.57 9.46
5/4/2021 10:00:00 PM 14.67 58.406 0.045 6.52 202.99 9.52
5/4/2021 10:15:00 PM 14.46 58.028 0.041 6.45 170.17 9.59
5/4/2021 10:30:00 PM 14.31 57.758 0.04 6.43 145.29 9.63
5/4/2021 10:45:00 PM 14.19 57.542 0.04 6.41 132.09 9.66
5/4/2021 11:00:00 PM 14.07 57.326 0.039 6.38 174.13 9.69
5/4/2021 11:15:00 PM 13.94 57.092 0.038 6.35 130.06 9.72
5/4/2021 11:30:00 PM 13.84 56.912 0.038 6.34 78.68 9.73
5/4/2021 11:45:00 PM 13.75 56.75 0.038 6.34 69.24 9.75
5/5/2021 12:00:00 AM 13.68 56.624 0.039 6.34 59.34 9.76
5/5/2021 12:15:00 AM 13.6 56.48 0.039 6.33 54.87 9.78
5/5/2021 12:30:00 AM 13.56 56.408 0.039 6.34 56.74 9.78
5/5/2021 12:45:00 AM 13.51 56.318 0.04 6.35 42.81 9.79
5/5/2021 1:00:00 AM 13.45 56.21 0.04 6.35 32.89 9.81
5/5/2021 1:15:00 AM 13.39 56.102 0.04 6.35 34.97 9.82
5/5/2021 1:30:00 AM 13.35 56.03 0.04 6.35 37.45 9.83
5/5/2021 1:45:00 AM 13.3 55.94 0.04 6.34 30.29 9.84
5/5/2021 2:00:00 AM 13.26 55.868 0.04 6.34 24.46 9.85
5/5/2021 2:15:00 AM 13.22 55.796 0.04 6.34 16.69 9.86
5/5/2021 2:30:00 AM 13.19 55.742 0.041 6.34 21.52 9.86
5/5/2021 2:45:00 AM 13.17 55.706 0.041 6.34 17.31 9.87
5/5/2021 3:00:00 AM 13.15 55.67 0.041 6.34 18.13 9.87
5/5/2021 3:15:00 AM 13.12 55.616 0.041 6.34 17.43 9.88
5/5/2021 3:30:00 AM 13.1 55.58 0.041 6.35 18.39 9.88
5/5/2021 3:45:00 AM 13.07 55.526 0.041 6.35 16.48 9.89
5/5/2021 4:00:00 AM 13.03 55.454 0.041 6.36 15.71 9.89
5/5/2021 4:15:00 AM 12.99 55.382 0.041 6.37 15.74 9.9
5/5/2021 4:30:00 AM 12.95 55.31 0.041 6.37 14.04 9.9
5/5/2021 4:45:00 AM 12.92 55.256 0.041 6.38 13.81 9.91
5/5/2021 5:00:00 AM 12.89 55.202 0.041 6.37 13.51 9.91
5/5/2021 5:15:00 AM 12.86 55.148 0.041 6.38 12.58 9.92
5/5/2021 5:30:00 AM 12.82 55.076 0.041 6.38 12.4 9.93
5/5/2021 5:45:00 AM 12.79 55.022 0.041 6.38 12.11 9.93
5/5/2021 6:00:00 AM 12.75 54.95 0.041 6.38 11.71 9.95
5/5/2021 6:15:00 AM 12.72 54.896 0.041 6.39 11.25 9.96
5/5/2021 6:30:00 AM 12.69 54.842 0.041 6.38 10.86 9.97
5/5/2021 6:45:00 AM 12.65 54.77 0.041 6.38 10.52 9.99
5/5/2021 7:00:00 AM 12.62 54.716 0.041 6.38 10.34 10
5/5/2021 7:15:00 AM 12.59 54.662 0.041 6.37 10.2 10.01
5/5/2021 7:30:00 AM 12.57 54.626 0.041 6.37 9.15 10.02
5/5/2021 7:45:00 AM 12.54 54.572 0.041 6.37 9.07 10.03
5/5/2021 8:00:00 AM 12.52 54.536 0.041 6.37 8.78 10.05
5/5/2021 8:15:00 AM 12.5 54.5 0.041 6.38 8.55 10.07
5/5/2021 8:30:00 AM 12.49 54.482 0.04 6.39 8.18 10.08
5/5/2021 8:45:00 AM 12.47 54.446 0.04 6.38 8.01 10.08
5/5/2021 9:00:00 AM 12.45 54.41 0.04 6.38 7.87 10.09
5/5/2021 9:15:00 AM 12.43 54.374 0.04 6.38 7.43 10.1
5/5/2021 9:30:00 AM 12.42 54.356 0.04 6.38 7.64 10.11
5/5/2021 9:45:00 AM 12.41 54.338 0.04 6.39 7.3 10.12
5/5/2021 10:00:00 AM 12.42 54.356 0.04 6.39 7.05 10.13
5/5/2021 10:15:00 AM 12.42 54.356 0.04 6.4 7.4 10.13
5/5/2021 10:30:00 AM 12.43 54.374 0.039 6.4 7.24 10.14
5/5/2021 10:45:00 AM 12.43 54.374 0.039 6.41 7.16 10.13
5/5/2021 11:00:00 AM 12.43 54.374 0.04 6.42 7.82 10.13
5/5/2021 11:15:00 AM 12.44 54.392 0.04 6.43 8.13 10.12
5/5/2021 11:30:00 AM 12.45 54.41 0.042 6.45 8.98 10.11
5/5/2021 11:45:00 AM 12.47 54.446 0.043 6.47 10.76 10.1
5/5/2021 12:00:00 PM 12.51 54.518 0.043 6.49 12.21 10.09
5/5/2021 12:15:00 PM 12.53 54.554 0.044 6.51 13.89 10.1
5/5/2021 12:30:00 PM 12.59 54.662 0.044 6.53 18.48 10.1
5/5/2021 12:45:00 PM 12.66 54.788 0.044 6.55 21.75 10.1
5/5/2021 1:00:00 PM 12.74 54.932 0.044 6.56 26.65 10.1
5/5/2021 1:15:00 PM 12.85 55.13 0.045 6.58 25.94 10.08
5/5/2021 1:30:00 PM 12.89 55.202 0.044 6.57 25.31 10.08
5/5/2021 1:45:00 PM 12.91 55.238 0.043 6.56 22.93 10.08
5/5/2021 2:00:00 PM 12.94 55.292 0.042 6.55 21.47 10.09
5/5/2021 2:15:00 PM 12.94 55.292 0.041 6.54 18.73 10.09
5/5/2021 2:30:00 PM 12.91 55.238 0.041 6.53 17.33 10.07
5/5/2021 2:45:00 PM 12.87 55.166 0.04 6.51 17.33 10.07
5/5/2021 3:00:00 PM 12.82 55.076 0.04 6.49 15.77 10.07
5/5/2021 3:15:00 PM 12.76 54.968 0.039 6.49 16.84 10.08
5/5/2021 3:30:00 PM 12.72 54.896 0.039 6.48 16.64 10.1
5/5/2021 3:45:00 PM 12.67 54.806 0.038 6.47 16.54 10.11
5/5/2021 4:00:00 PM 12.62 54.716 0.038 6.46 16.16 10.12
5/5/2021 4:15:00 PM 12.57 54.626 0.038 6.45 14.93 10.13
5/5/2021 4:30:00 PM 12.51 54.518 0.038 6.44 14.9 10.13
5/5/2021 4:45:00 PM 12.47 54.446 0.038 6.44 14.93 10.14
5/5/2021 5:00:00 PM 12.42 54.356 0.038 6.43 15.24 10.14
5/5/2021 5:15:00 PM 12.37 54.266 0.037 6.42 14.64 10.15
5/5/2021 5:30:00 PM 12.31 54.158 0.037 6.42 14.24 10.16
5/5/2021 5:45:00 PM 12.26 54.068 0.037 6.41 13.59 10.18
5/5/2021 6:00:00 PM 12.22 53.996 0.037 6.41 13.71 10.19
5/5/2021 6:15:00 PM 12.18 53.924 0.037 6.41 12.91 10.19
5/5/2021 6:30:00 PM 12.14 53.852 0.037 6.41 13.09 10.2
5/5/2021 6:45:00 PM 12.11 53.798 0.037 6.41 12.64 10.21
5/5/2021 7:00:00 PM 12.07 53.726 0.037 6.4 12.43 10.22
5/5/2021 7:15:00 PM 12.03 53.654 0.037 6.4 12.55 10.23
5/5/2021 7:30:00 PM 11.98 53.564 0.037 6.4 12 10.24
5/5/2021 7:45:00 PM 11.93 53.474 0.037 6.39 16.84 10.25
5/5/2021 8:00:00 PM 11.87 53.366 0.037 6.39 18.86 10.25
5/5/2021 8:15:00 PM 11.81 53.258 0.037 6.39 14.78 10.27
5/5/2021 8:30:00 PM 11.75 53.15 0.037 6.38 12.34 10.28
5/5/2021 8:45:00 PM 11.69 53.042 0.037 6.39 12.01 10.28
5/5/2021 9:00:00 PM 11.62 52.916 0.037 6.38 11.16 10.29
5/5/2021 9:15:00 PM 11.56 52.808 0.037 6.37 10.4 10.31
5/5/2021 9:30:00 PM 11.49 52.682 0.037 6.37 10.53 10.33
5/5/2021 9:45:00 PM 11.42 52.556 0.037 6.37 10.19 10.35
5/5/2021 10:00:00 PM 11.36 52.448 0.037 6.37 9.83 10.37
5/5/2021 10:15:00 PM 11.3 52.34 0.037 6.37 9.47 10.4
5/5/2021 10:30:00 PM 11.24 52.232 0.037 6.36 9.39 10.41
5/5/2021 10:45:00 PM 11.19 52.142 0.037 6.36 9.5 10.42
5/5/2021 11:00:00 PM 11.13 52.034 0.037 6.36 9.31 10.43
5/5/2021 11:15:00 PM 11.08 51.944 0.037 6.35 9.11 10.45
5/5/2021 11:30:00 PM 11.03 51.854 0.037 6.35 9.02 10.45
5/5/2021 11:45:00 PM 10.98 51.764 0.036 6.34 8.64 10.47
5/6/2021 12:00:00 AM 10.93 51.674 0.036 6.34 8.46 10.47
5/6/2021 12:15:00 AM 10.87 51.566 0.036 6.34 8.38 10.49
5/6/2021 12:30:00 AM 10.82 51.476 0.036 6.34 9 10.51
5/6/2021 12:45:00 AM 10.77 51.386 0.036 6.34 8.42 10.52
5/6/2021 1:00:00 AM 10.72 51.296 0.036 6.34 8.36 10.53
5/6/2021 1:15:00 AM 10.67 51.206 0.036 6.33 8.19 10.55
5/6/2021 1:30:00 AM 10.63 51.134 0.036 6.33 8.03 10.56
5/6/2021 1:45:00 AM 10.59 51.062 0.036 6.34 8 10.56
5/6/2021 2:00:00 AM 10.54 50.972 0.036 6.33 7.51 10.58
5/6/2021 2:15:00 AM 10.49 50.882 0.036 6.33 7.37 10.59
5/6/2021 2:30:00 AM 10.44 50.792 0.036 6.33 7.56 10.6
5/6/2021 2:45:00 AM 10.38 50.684 0.036 6.33 7.43 10.6
5/6/2021 3:00:00 AM 10.34 50.612 0.036 6.33 7.61 10.61
5/6/2021 3:15:00 AM 10.29 50.522 0.036 6.33 7.12 10.62
5/6/2021 3:30:00 AM 10.24 50.432 0.036 6.33 7.43 10.64
5/6/2021 3:45:00 AM 10.2 50.36 0.036 6.33 7.03 10.65
5/6/2021 4:00:00 AM 10.16 50.288 0.036 6.32 6.69 10.66
5/6/2021 4:15:00 AM 10.13 50.234 0.036 6.32 6.85 10.67
5/6/2021 4:30:00 AM 10.1 50.18 0.036 6.32 6.93 10.68
5/6/2021 4:45:00 AM 10.06 50.108 0.036 6.32 6.6 10.7
5/6/2021 5:00:00 AM 10.03 50.054 0.036 6.33 6.99 10.71
5/6/2021 5:15:00 AM 10 50 0.036 6.33 6.52 10.72
5/6/2021 5:30:00 AM 9.96 49.928 0.036 6.32 6.59 10.73
5/6/2021 5:45:00 AM 9.92 49.856 0.036 6.32 6.35 10.74
5/6/2021 6:00:00 AM 9.89 49.802 0.036 6.32 6.47 10.75
5/6/2021 6:15:00 AM 9.86 49.748 0.036 6.32 6.44 10.77
5/6/2021 6:30:00 AM 9.82 49.676 0.036 6.32 6 10.78
5/6/2021 6:45:00 AM 9.79 49.622 0.036 6.32 6.19 10.8
5/6/2021 7:00:00 AM 9.76 49.568 0.036 6.32 6.06 10.81
5/6/2021 7:15:00 AM 9.74 49.532 0.036 6.33 6.14 10.83
5/6/2021 7:30:00 AM 9.73 49.514 0.036 6.33 5.74 10.86
5/6/2021 7:45:00 AM 9.71 49.478 0.036 6.34 5.67 10.87
5/6/2021 8:00:00 AM 9.7 49.46 0.036 6.34 5.6 10.89
5/6/2021 8:15:00 AM 9.72 49.496 0.036 6.35 5.82 10.92
5/6/2021 8:30:00 AM 9.76 49.568 0.036 6.36 5.45 10.94
5/6/2021 8:45:00 AM 9.79 49.622 0.036 6.36 5.4 10.95
5/6/2021 9:00:00 AM 9.79 49.622 0.036 6.36 5.39 10.95
5/6/2021 9:15:00 AM 9.77 49.586 0.036 6.35 5.52 10.94
5/6/2021 9:30:00 AM 9.79 49.622 0.036 6.36 5.39 10.95
5/6/2021 9:45:00 AM 9.88 49.784 0.036 6.37 5.49 10.96
5/6/2021 10:00:00 AM 9.99 49.982 0.036 6.37 5.36 10.95
5/6/2021 10:15:00 AM 10.12 50.216 0.036 6.38 5.24 10.93
5/6/2021 10:30:00 AM 10.24 50.432 0.036 6.37 5.27 10.9
5/6/2021 10:45:00 AM 10.39 50.702 0.036 6.38 5.08 10.87
5/6/2021 11:00:00 AM 10.59 51.062 0.036 6.39 5.04 10.87
5/6/2021 11:15:00 AM 10.72 51.296 0.036 6.39 5.1 10.83
5/6/2021 11:30:00 AM 10.89 51.602 0.036 6.39 5.12 10.8
5/6/2021 11:45:00 AM 11.06 51.908 0.036 6.4 4.94 10.77
5/6/2021 12:00:00 PM 11.16 52.088 0.036 6.4 4.86 10.75
5/6/2021 12:15:00 PM 11.24 52.232 0.036 6.4 4.91 10.74
5/6/2021 12:30:00 PM 11.33 52.394 0.036 6.4 4.95 10.72
5/6/2021 12:45:00 PM 11.5 52.7 0.036 6.41 5.09 10.67
5/6/2021 1:00:00 PM 11.71 53.078 0.036 6.41 5.01 10.63
5/6/2021 1:15:00 PM 11.84 53.312 0.036 6.41 4.98 10.6
5/6/2021 1:30:00 PM 11.97 53.546 0.036 6.41 5.18 10.57
5/6/2021 1:45:00 PM 12.08 53.744 0.036 6.42 4.67 10.53
5/6/2021 2:00:00 PM 12.16 53.888 0.036 6.42 5.13 10.49
5/6/2021 2:15:00 PM 12.26 54.068 0.036 6.42 5.38 10.45
5/6/2021 2:30:00 PM 12.35 54.23 0.036 6.42 5.29 10.43
5/6/2021 2:45:00 PM 12.46 54.428 0.036 6.42 4.96 10.41
5/6/2021 3:00:00 PM 12.52 54.536 0.036 6.42 5.72 10.38
5/6/2021 3:15:00 PM 12.58 54.644 0.036 6.41 5.55 10.36
5/6/2021 3:30:00 PM 12.64 54.752 0.036 6.41 4.96 10.33
5/6/2021 3:45:00 PM 12.68 54.824 0.036 6.4 4.82 10.3
5/6/2021 4:00:00 PM 12.69 54.842 0.036 6.4 4.88 10.3
5/6/2021 4:15:00 PM 12.69 54.842 0.036 6.39 5.95 10.28
5/6/2021 4:30:00 PM 12.71 54.878 0.036 6.39 5.52 10.27
5/6/2021 4:45:00 PM 12.69 54.842 0.036 6.39 5.02 10.26
5/6/2021 5:00:00 PM 12.65 54.77 0.036 6.39 4.83 10.26
5/6/2021 5:15:00 PM 12.62 54.716 0.036 6.38 4.73 10.27
5/6/2021 5:30:00 PM 12.58 54.644 0.036 6.38 4.8 10.26
5/6/2021 5:45:00 PM 12.5 54.5 0.036 6.37 4.78 10.26
5/6/2021 6:00:00 PM 12.44 54.392 0.036 6.37 5 10.26
5/6/2021 6:15:00 PM 12.37 54.266 0.036 6.36 4.79 10.26
5/6/2021 6:30:00 PM 12.29 54.122 0.036 6.36 5.55 10.26
5/6/2021 6:45:00 PM 12.21 53.978 0.036 6.35 5.08 10.27
5/6/2021 7:00:00 PM 12.11 53.798 0.036 6.35 4.76 10.28
5/6/2021 7:15:00 PM 12.01 53.618 0.036 6.34 4.7 10.29
5/6/2021 7:30:00 PM 11.91 53.438 0.036 6.34 4.66 10.3
5/6/2021 7:45:00 PM 11.81 53.258 0.036 6.33 4.83 10.3
5/6/2021 8:00:00 PM 11.72 53.096 0.036 6.33 5.23 10.3
5/6/2021 8:15:00 PM 11.63 52.934 0.036 6.31 4.69 10.3
5/6/2021 8:30:00 PM 11.54 52.772 0.036 6.31 5 10.31
5/6/2021 8:45:00 PM 11.46 52.628 0.036 6.3 4.64 10.33
5/6/2021 9:00:00 PM 11.37 52.466 0.036 6.3 4.63 10.35
5/6/2021 9:15:00 PM 11.29 52.322 0.036 6.3 4.44 10.37
5/6/2021 9:30:00 PM 11.21 52.178 0.036 6.3 4.69 10.39
5/6/2021 9:45:00 PM 11.12 52.016 0.036 6.29 4.58 10.41
5/6/2021 10:00:00 PM 11.04 51.872 0.036 6.29 4.56 10.42
5/6/2021 10:15:00 PM 10.95 51.71 0.036 6.29 4.69 10.44
5/6/2021 10:30:00 PM 10.86 51.548 0.036 6.28 4.69 10.46
5/6/2021 10:45:00 PM 10.76 51.368 0.036 6.29 4.48 10.49
5/6/2021 11:00:00 PM 10.67 51.206 0.036 6.29 4.47 10.52
5/6/2021 11:15:00 PM 10.58 51.044 0.036 6.29 4.33 10.54
5/6/2021 11:30:00 PM 10.49 50.882 0.036 6.28 4.5 10.56
5/6/2021 11:45:00 PM 10.4 50.72 0.036 6.28 4.41 10.57
5/7/2021 12:00:00 AM 10.31 50.558 0.036 6.28 4.17 10.59
5/7/2021 12:15:00 AM 10.22 50.396 0.036 6.28 4.36 10.62
5/7/2021 12:30:00 AM 10.13 50.234 0.036 6.28 4.16 10.64
5/7/2021 12:45:00 AM 10.05 50.09 0.036 6.28 4.39 10.67
5/7/2021 1:00:00 AM 9.96 49.928 0.036 6.28 4.32 10.69
5/7/2021 1:15:00 AM 9.88 49.784 0.036 6.28 4.41 10.71
5/7/2021 1:30:00 AM 9.79 49.622 0.036 6.28 4.34 10.73
5/7/2021 1:45:00 AM 9.72 49.496 0.036 6.28 4.28 10.74
5/7/2021 2:00:00 AM 9.64 49.352 0.036 6.28 4.2 10.76
5/7/2021 2:15:00 AM 9.56 49.208 0.036 6.28 3.99 10.78
5/7/2021 2:30:00 AM 9.48 49.064 0.036 6.28 4.22 10.81
5/7/2021 2:45:00 AM 9.41 48.938 0.036 6.29 4.35 10.83
5/7/2021 3:00:00 AM 9.33 48.794 0.036 6.28 4.29 10.85
5/7/2021 3:15:00 AM 9.26 48.668 0.036 6.28 4.22 10.86
5/7/2021 3:30:00 AM 9.19 48.542 0.036 6.28 4.13 10.88
5/7/2021 3:45:00 AM 9.12 48.416 0.036 6.29 4.08 10.89
5/7/2021 4:00:00 AM 9.05 48.29 0.036 6.29 4.09 10.91
5/7/2021 4:15:00 AM 8.98 48.164 0.037 6.29 4.19 10.93
5/7/2021 4:30:00 AM 8.91 48.038 0.037 6.28 4.13 10.95
5/7/2021 4:45:00 AM 8.84 47.912 0.037 6.29 4.18 10.97
5/7/2021 5:00:00 AM 8.78 47.804 0.037 6.29 3.97 10.99
5/7/2021 5:15:00 AM 8.72 47.696 0.037 6.29 4.07 11.01
5/7/2021 5:30:00 AM 8.65 47.57 0.037 6.29 3.85 11.02
5/7/2021 5:45:00 AM 8.59 47.462 0.037 6.29 4.22 11.04
5/7/2021 6:00:00 AM 8.53 47.354 0.037 6.28 4 11.06
5/7/2021 6:15:00 AM 8.48 47.264 0.037 6.29 3.98 11.08
5/7/2021 6:30:00 AM 8.45 47.21 0.037 6.3 4.01 11.11
5/7/2021 6:45:00 AM 8.42 47.156 0.037 6.31 3.9 11.14
5/7/2021 7:00:00 AM 8.39 47.102 0.037 6.31 3.88 11.16
5/7/2021 7:15:00 AM 8.38 47.084 0.037 6.31 3.74 11.2
5/7/2021 7:30:00 AM 8.4 47.12 0.037 6.33 3.78 11.23
5/7/2021 7:45:00 AM 8.42 47.156 0.037 6.34 3.88 11.24
5/7/2021 8:00:00 AM 8.44 47.192 0.037 6.34 3.79 11.25
5/7/2021 8:15:00 AM 8.47 47.246 0.037 6.35 3.68 11.25
5/7/2021 8:30:00 AM 8.52 47.336 0.037 6.35 3.82 11.25
5/7/2021 8:45:00 AM 8.6 47.48 0.036 6.36 3.73 11.26
5/7/2021 9:00:00 AM 8.69 47.642 0.037 6.36 3.75 11.26
5/7/2021 9:15:00 AM 8.75 47.75 0.037 6.37 3.71 11.25
5/7/2021 9:30:00 AM 8.88 47.984 0.036 6.37 3.7 11.23
5/7/2021 9:45:00 AM 9.01 48.218 0.036 6.38 3.53 11.2
5/7/2021 10:00:00 AM 9.15 48.47 0.036 6.39 3.59 11.17
5/7/2021 10:15:00 AM 9.25 48.65 0.036 6.39 3.63 11.15
5/7/2021 10:30:00 AM 9.32 48.776 0.036 6.39 3.57 11.13
5/7/2021 10:45:00 AM 9.45 49.01 0.036 6.39 3.61 11.1
5/7/2021 11:00:00 AM 9.59 49.262 0.036 6.41 3.56 11.06
5/7/2021 11:15:00 AM 9.66 49.388 0.036 6.4 3.51 11.02
5/7/2021 11:30:00 AM 9.74 49.532 0.036 6.4 3.49 11.01
5/7/2021 11:45:00 AM 9.82 49.676 0.036 6.39 3.58 10.99
5/7/2021 12:00:00 PM 9.87 49.766 0.036 6.39 3.65 10.97
5/7/2021 12:15:00 PM 9.94 49.892 0.036 6.39 3.54 10.95
5/7/2021 12:30:00 PM 9.96 49.928 0.037 6.38 3.66 10.92
5/7/2021 12:45:00 PM 10.01 50.018 0.037 6.39 3.58 10.91
5/7/2021 1:00:00 PM 10.13 50.234 0.037 6.4 3.44 10.9
5/7/2021 1:15:00 PM 10.18 50.324 0.037 6.4 3.88 10.87
5/7/2021 1:30:00 PM 10.19 50.342 0.037 6.39 3.74 10.85
5/7/2021 1:45:00 PM 10.25 50.45 0.037 6.39 3.56 10.83
5/7/2021 2:00:00 PM 10.29 50.522 0.037 6.38 3.59 10.8
5/7/2021 2:15:00 PM 10.31 50.558 0.037 6.38 3.53 10.78
5/7/2021 2:30:00 PM 10.34 50.612 0.037 6.39 3.55 10.78
5/7/2021 2:45:00 PM 10.38 50.684 0.037 6.39 3.48 10.77
5/7/2021 3:00:00 PM 10.41 50.738 0.037 6.38 3.42 10.78
5/7/2021 3:15:00 PM 10.43 50.774 0.037 6.38 3.43 10.76
5/7/2021 3:30:00 PM 10.46 50.828 0.037 6.38 3.48 10.74
5/7/2021 3:45:00 PM 10.49 50.882 0.037 6.38 3.49 10.74
5/7/2021 4:00:00 PM 10.5 50.9 0.037 6.37 3.47 10.71
5/7/2021 4:15:00 PM 10.5 50.9 0.037 6.37 3.29 10.7
5/7/2021 4:30:00 PM 10.51 50.918 0.037 6.37 3.5 10.7
5/7/2021 4:45:00 PM 10.51 50.918 0.037 6.37 3.49 10.71
5/7/2021 5:00:00 PM 10.5 50.9 0.037 6.38 3.43 10.71
5/7/2021 5:15:00 PM 10.49 50.882 0.037 6.37 3.56 10.71
5/7/2021 5:30:00 PM 10.48 50.864 0.037 6.37 3.44 10.71
5/7/2021 5:45:00 PM 10.46 50.828 0.037 6.37 3.55 10.7
5/7/2021 6:00:00 PM 10.44 50.792 0.037 6.36 3.53 10.69
5/7/2021 6:15:00 PM 10.42 50.756 0.037 6.36 3.53 10.68
5/7/2021 6:30:00 PM 10.39 50.702 0.037 6.36 3.43 10.67
5/7/2021 6:45:00 PM 10.35 50.63 0.037 6.35 3.77 10.65
5/7/2021 7:00:00 PM 10.32 50.576 0.037 6.34 3.31 10.65
5/7/2021 7:15:00 PM 10.28 50.504 0.037 6.34 3.44 10.65
5/7/2021 7:30:00 PM 10.24 50.432 0.037 6.33 3.6 10.64
5/7/2021 7:45:00 PM 10.2 50.36 0.037 6.33 3.8 10.63
5/7/2021 8:00:00 PM 10.16 50.288 0.037 6.32 3.5 10.63
5/7/2021 8:15:00 PM 10.12 50.216 0.037 6.31 3.5 10.63
5/7/2021 8:30:00 PM 10.08 50.144 0.037 6.31 3.64 10.64
5/7/2021 8:45:00 PM 10.04 50.072 0.037 6.31 3.8 10.65
5/7/2021 9:00:00 PM 10.01 50.018 0.037 6.31 3.65 10.65
5/7/2021 9:15:00 PM 9.97 49.946 0.037 6.31 3.6 10.66
5/7/2021 9:30:00 PM 9.94 49.892 0.037 6.31 3.59 10.67
5/7/2021 9:45:00 PM 9.91 49.838 0.037 6.3 3.56 10.68
5/7/2021 10:00:00 PM 9.89 49.802 0.037 6.31 3.7 10.68
5/7/2021 10:15:00 PM 9.85 49.73 0.037 6.31 3.83 10.69
5/7/2021 10:30:00 PM 9.83 49.694 0.037 6.31 3.83 10.69
5/7/2021 10:45:00 PM 9.8 49.64 0.038 6.31 4.43 10.7
5/7/2021 11:00:00 PM 9.77 49.586 0.038 6.31 4.47 10.71
5/7/2021 11:15:00 PM 9.74 49.532 0.038 6.32 4.39 10.7
5/7/2021 11:30:00 PM 9.71 49.478 0.038 6.32 4.16 10.71
5/7/2021 11:45:00 PM 9.69 49.442 0.038 6.32 4.29 10.72
5/8/2021 12:00:00 AM 9.66 49.388 0.038 6.32 3.95 10.73
5/8/2021 12:15:00 AM 9.64 49.352 0.038 6.32 4.05 10.73
5/8/2021 12:30:00 AM 9.62 49.316 0.038 6.32 3.97 10.73
5/8/2021 12:45:00 AM 9.59 49.262 0.038 6.33 3.97 10.74
5/8/2021 1:00:00 AM 9.57 49.226 0.038 6.33 4.04 10.76
5/8/2021 1:15:00 AM 9.54 49.172 0.038 6.33 4.02 10.77
5/8/2021 1:30:00 AM 9.51 49.118 0.038 6.34 3.94 10.77
5/8/2021 1:45:00 AM 9.48 49.064 0.038 6.33 4.07 10.78
5/8/2021 2:00:00 AM 9.46 49.028 0.038 6.34 3.82 10.78
5/8/2021 2:15:00 AM 9.43 48.974 0.038 6.33 4.01 10.8
5/8/2021 2:30:00 AM 9.4 48.92 0.038 6.32 3.8 10.79
5/8/2021 2:45:00 AM 9.38 48.884 0.038 6.33 3.7 10.81
5/8/2021 3:00:00 AM 9.35 48.83 0.038 6.34 3.77 10.81
5/8/2021 3:15:00 AM 9.32 48.776 0.038 6.33 4.02 10.82
5/8/2021 3:30:00 AM 9.29 48.722 0.038 6.33 3.83 10.82
5/8/2021 3:45:00 AM 9.26 48.668 0.038 6.33 3.92 10.83
5/8/2021 4:00:00 AM 9.23 48.614 0.038 6.33 3.85 10.84
5/8/2021 4:15:00 AM 9.21 48.578 0.038 6.33 4.04 10.85
5/8/2021 4:30:00 AM 9.19 48.542 0.038 6.33 4.2 10.86
5/8/2021 4:45:00 AM 9.18 48.524 0.038 6.34 4.3 10.85
5/8/2021 5:00:00 AM 9.16 48.488 0.038 6.34 4.49 10.86
5/8/2021 5:15:00 AM 9.15 48.47 0.039 6.35 5.24 10.87
5/8/2021 5:30:00 AM 9.13 48.434 0.039 6.36 5.81 10.87
5/8/2021 5:45:00 AM 9.11 48.398 0.039 6.36 6.59 10.87
5/8/2021 6:00:00 AM 9.09 48.362 0.039 6.36 6.5 10.88
5/8/2021 6:15:00 AM 9.07 48.326 0.039 6.37 6.19 10.89
5/8/2021 6:30:00 AM 9.06 48.308 0.039 6.36 5.75 10.9
5/8/2021 6:45:00 AM 9.04 48.272 0.039 6.37 5.46 10.91
5/8/2021 7:00:00 AM 9.02 48.236 0.039 6.37 5.21 10.93
5/8/2021 7:15:00 AM 9 48.2 0.038 6.37 5.04 10.95
5/8/2021 7:30:00 AM 8.98 48.164 0.038 6.37 5.07 10.97
5/8/2021 7:45:00 AM 8.97 48.146 0.038 6.38 5.07 10.99
5/8/2021 8:00:00 AM 8.96 48.128 0.038 6.38 4.94 11.01
5/8/2021 8:15:00 AM 8.94 48.092 0.038 6.38 5.1 11.04
5/8/2021 8:30:00 AM 8.94 48.092 0.037 6.39 4.94 11.05
5/8/2021 8:45:00 AM 8.93 48.074 0.037 6.38 5.07 11.06
5/8/2021 9:00:00 AM 8.94 48.092 0.037 6.39 4.55 11.08
5/8/2021 9:15:00 AM 8.95 48.11 0.037 6.39 4.46 11.09
5/8/2021 9:30:00 AM 8.97 48.146 0.037 6.39 4.37 11.1
5/8/2021 9:45:00 AM 9 48.2 0.037 6.4 4.43 11.12
5/8/2021 10:00:00 AM 9.09 48.362 0.036 6.41 4.5 11.12
5/8/2021 10:15:00 AM 9.17 48.506 0.036 6.41 4.61 11.13
5/8/2021 10:30:00 AM 9.24 48.632 0.036 6.41 4.39 11.11
5/8/2021 10:45:00 AM 9.31 48.758 0.036 6.41 4.32 11.09
5/8/2021 11:00:00 AM 9.32 48.776 0.036 6.4 4.15 11.08
5/8/2021 11:15:00 AM 9.32 48.776 0.036 6.4 4.25 11.08
5/8/2021 11:30:00 AM 9.38 48.884 0.036 6.4 4.48 11.06
5/8/2021 11:45:00 AM 9.52 49.136 0.036 6.41 4.28 11.04
5/8/2021 12:00:00 PM 9.68 49.424 0.036 6.41 4.31 10.99
5/8/2021 12:15:00 PM 9.71 49.478 0.036 6.4 4.51 10.97
5/8/2021 12:30:00 PM 9.75 49.55 0.036 6.42 4.37 10.99
5/8/2021 12:45:00 PM 9.82 49.676 0.036 6.42 4.23 10.99
5/8/2021 1:00:00 PM 9.86 49.748 0.036 6.41 4.31 10.97
5/8/2021 1:15:00 PM 9.93 49.874 0.036 6.41 4.29 10.95
5/8/2021 1:30:00 PM 10.04 50.072 0.036 6.42 4.38 10.93
5/8/2021 1:45:00 PM 10.11 50.198 0.036 6.41 4.59 10.91
5/8/2021 2:00:00 PM 10.13 50.234 0.036 6.41 4.23 10.9
5/8/2021 2:15:00 PM 10.18 50.324 0.036 6.41 4.03 10.89
5/8/2021 2:30:00 PM 10.23 50.414 0.036 6.42 4.13 10.88
5/8/2021 2:45:00 PM 10.29 50.522 0.036 6.42 4.26 10.87
5/8/2021 3:00:00 PM 10.29 50.522 0.036 6.42 4.18 10.86
5/8/2021 3:15:00 PM 10.28 50.504 0.036 6.41 4.14 10.87
5/8/2021 3:30:00 PM 10.29 50.522 0.036 6.41 3.9 10.86
5/8/2021 3:45:00 PM 10.32 50.576 0.036 6.42 3.86 10.87
5/8/2021 4:00:00 PM 10.3 50.54 0.036 6.4 4.19 10.84
5/8/2021 4:15:00 PM 10.39 50.702 0.035 6.42 3.99 10.85
5/8/2021 4:30:00 PM 10.49 50.882 0.036 6.41 4.06 10.84
5/8/2021 4:45:00 PM 10.56 51.008 0.035 6.41 4.08 10.81
5/8/2021 5:00:00 PM 10.58 51.044 0.036 6.4 3.94 10.79
5/8/2021 5:15:00 PM 10.55 50.99 0.036 6.4 3.78 10.79
5/8/2021 5:30:00 PM 10.5 50.9 0.036 6.38 3.89 10.8
5/8/2021 5:45:00 PM 10.4 50.72 0.036 6.38 3.87 10.8
5/8/2021 6:00:00 PM 10.32 50.576 0.036 6.37 4.01 10.8
5/8/2021 6:15:00 PM 10.25 50.45 0.036 6.37 3.86 10.81
5/8/2021 6:30:00 PM 10.19 50.342 0.035 6.36 3.82 10.81
5/8/2021 6:45:00 PM 10.13 50.234 0.036 6.35 3.86 10.8
5/8/2021 7:00:00 PM 10.04 50.072 0.036 6.35 3.71 10.8
5/8/2021 7:15:00 PM 9.97 49.946 0.036 6.32 3.78 10.8
5/8/2021 7:30:00 PM 9.92 49.856 0.036 6.32 3.78 10.79
5/8/2021 7:45:00 PM 9.87 49.766 0.036 6.33 3.71 10.8
5/8/2021 8:00:00 PM 9.81 49.658 0.036 6.32 4.14 10.8
5/8/2021 8:15:00 PM 9.75 49.55 0.036 6.31 3.91 10.79
5/8/2021 8:30:00 PM 9.7 49.46 0.036 6.31 3.89 10.78
5/8/2021 8:45:00 PM 9.64 49.352 0.036 6.3 3.79 10.79
5/8/2021 9:00:00 PM 9.58 49.244 0.036 6.3 3.69 10.81
5/8/2021 9:15:00 PM 9.52 49.136 0.036 6.29 3.95 10.82
5/8/2021 9:30:00 PM 9.47 49.046 0.036 6.29 3.85 10.84
5/8/2021 9:45:00 PM 9.41 48.938 0.036 6.29 3.81 10.86
5/8/2021 10:00:00 PM 9.34 48.812 0.036 6.29 3.84 10.88
5/8/2021 10:15:00 PM 9.28 48.704 0.036 6.29 3.77 10.9
5/8/2021 10:30:00 PM 9.22 48.596 0.036 6.29 3.69 10.92
5/8/2021 10:45:00 PM 9.16 48.488 0.036 6.28 3.76 10.92
5/8/2021 11:00:00 PM 9.1 48.38 0.036 6.28 3.84 10.94
5/8/2021 11:15:00 PM 9.04 48.272 0.036 6.29 3.66 10.95
5/8/2021 11:30:00 PM 8.98 48.164 0.036 6.28 3.79 10.98
5/8/2021 11:45:00 PM 8.91 48.038 0.036 6.28 3.83 10.99
5/9/2021 12:00:00 AM 8.85 47.93 0.036 6.28 3.75 11.02
5/9/2021 12:15:00 AM 8.78 47.804 0.036 6.28 3.84 11.04
5/9/2021 12:30:00 AM 8.72 47.696 0.036 6.27 3.68 11.06
5/9/2021 12:45:00 AM 8.65 47.57 0.036 6.28 3.67 11.07
5/9/2021 1:00:00 AM 8.59 47.462 0.036 6.27 3.55 11.09
5/9/2021 1:15:00 AM 8.53 47.354 0.036 6.28 3.61 11.11
5/9/2021 1:30:00 AM 8.47 47.246 0.036 6.28 3.56 11.11
5/9/2021 1:45:00 AM 8.4 47.12 0.036 6.28 3.59 11.13
5/9/2021 2:00:00 AM 8.35 47.03 0.036 6.28 3.57 11.15
5/9/2021 2:15:00 AM 8.29 46.922 0.036 6.28 3.54 11.16
5/9/2021 2:30:00 AM 8.24 46.832 0.036 6.28 3.58 11.18
5/9/2021 2:45:00 AM 8.19 46.742 0.036 6.27 3.61 11.2
5/9/2021 3:00:00 AM 8.14 46.652 0.036 6.28 3.45 11.21
5/9/2021 3:15:00 AM 8.09 46.562 0.036 6.28 3.52 11.23
5/9/2021 3:30:00 AM 8.04 46.472 0.036 6.27 3.47 11.25
5/9/2021 3:45:00 AM 7.99 46.382 0.036 6.27 3.46 11.25
5/9/2021 4:00:00 AM 7.94 46.292 0.036 6.27 3.4 11.27
5/9/2021 4:15:00 AM 7.89 46.202 0.036 6.28 3.52 11.28
5/9/2021 4:30:00 AM 7.85 46.13 0.036 6.28 3.5 11.29
5/9/2021 4:45:00 AM 7.8 46.04 0.036 6.28 3.68 11.3
5/9/2021 5:00:00 AM 7.76 45.968 0.036 6.28 3.43 11.31
5/9/2021 5:15:00 AM 7.71 45.878 0.036 6.28 3.53 11.33
5/9/2021 5:30:00 AM 7.67 45.806 0.036 6.28 3.59 11.34
5/9/2021 5:45:00 AM 7.63 45.734 0.036 6.28 3.5 11.36
5/9/2021 6:00:00 AM 7.6 45.68 0.036 6.28 3.42 11.38
5/9/2021 6:15:00 AM 7.57 45.626 0.036 6.28 3.43 11.4
5/9/2021 6:30:00 AM 7.54 45.572 0.036 6.28 3.38 11.43
5/9/2021 6:45:00 AM 7.52 45.536 0.036 6.3 3.43 11.46
5/9/2021 7:00:00 AM 7.51 45.518 0.036 6.31 3.3 11.49
5/9/2021 7:15:00 AM 7.5 45.5 0.036 6.31 3.5 11.51
5/9/2021 7:30:00 AM 7.51 45.518 0.036 6.31 3.27 11.53
5/9/2021 7:45:00 AM 7.52 45.536 0.036 6.32 3.35 11.55
5/9/2021 8:00:00 AM 7.54 45.572 0.036 6.33 3.39 11.56
5/9/2021 8:15:00 AM 7.57 45.626 0.036 6.33 3.31 11.56
5/9/2021 8:30:00 AM 7.64 45.752 0.036 6.34 3.32 11.56
5/9/2021 8:45:00 AM 7.71 45.878 0.036 6.34 3.21 11.55
5/9/2021 9:00:00 AM 7.79 46.022 0.036 6.35 3.27 11.55
5/9/2021 9:15:00 AM 7.89 46.202 0.036 6.35 3.37 11.54
5/9/2021 9:30:00 AM 8 46.4 0.036 6.37 3.24 11.54
5/9/2021 9:45:00 AM 8.14 46.652 0.036 6.37 3.06 11.51
5/9/2021 10:00:00 AM 8.25 46.85 0.036 6.38 3.23 11.49
5/9/2021 10:15:00 AM 8.38 47.084 0.036 6.38 3.14 11.45
5/9/2021 10:30:00 AM 8.63 47.534 0.036 6.39 3.2 11.42
5/9/2021 10:45:00 AM 8.8 47.84 0.036 6.4 3.21 11.38
5/9/2021 11:00:00 AM 8.94 48.092 0.036 6.4 3.2 11.33
5/9/2021 11:15:00 AM 9.02 48.236 0.036 6.4 3.12 11.29
5/9/2021 11:30:00 AM 9.11 48.398 0.036 6.39 3.08 11.25
5/9/2021 11:45:00 AM 9.19 48.542 0.036 6.4 3.17 11.23
5/9/2021 12:00:00 PM 9.26 48.668 0.036 6.4 3.25 11.21
5/9/2021 12:15:00 PM 9.33 48.794 0.036 6.41 3.16 11.21
5/9/2021 12:30:00 PM 9.4 48.92 0.036 6.42 3.19 11.18
5/9/2021 12:45:00 PM 9.46 49.028 0.036 6.41 3.02 11.16
5/9/2021 1:00:00 PM 9.48 49.064 0.036 6.4 3.21 11.14
5/9/2021 1:15:00 PM 9.47 49.046 0.036 6.38 3.09 11.12
5/9/2021 1:30:00 PM 9.47 49.046 0.036 6.38 3.25 11.1
5/9/2021 1:45:00 PM 9.49 49.082 0.036 6.39 3.17 11.09
5/9/2021 2:00:00 PM 9.47 49.046 0.036 6.38 3.06 11.07
5/9/2021 2:15:00 PM 9.44 48.992 0.036 6.37 3.07 11.05
5/9/2021 2:30:00 PM 9.4 48.92 0.036 6.37 3.16 11.05
5/9/2021 2:45:00 PM 9.39 48.902 0.036 6.36 3.06 11.05
5/9/2021 3:00:00 PM 9.38 48.884 0.036 6.37 3.11 11.06
5/9/2021 3:15:00 PM 9.37 48.866 0.036 6.37 3.1 11.07
5/9/2021 3:30:00 PM 9.37 48.866 0.036 6.37 3.18 11.07
5/9/2021 3:45:00 PM 9.35 48.83 0.036 6.35 3.04 11.05
5/9/2021 4:00:00 PM 9.33 48.794 0.036 6.36 3.15 11.05
5/9/2021 4:15:00 PM 9.3 48.74 0.036 6.36 3.17 11.03
5/9/2021 4:30:00 PM 9.27 48.686 0.036 6.36 3.2 11.04
5/9/2021 4:45:00 PM 9.24 48.632 0.036 6.36 3.22 11.04
5/9/2021 5:00:00 PM 9.19 48.542 0.037 6.36 3.13 11.04
5/9/2021 5:15:00 PM 9.14 48.452 0.037 6.35 3.47 11.03
5/9/2021 5:30:00 PM 9.1 48.38 0.037 6.36 3.39 11.04
5/9/2021 5:45:00 PM 9.05 48.29 0.037 6.35 3.52 11.03
5/9/2021 6:00:00 PM 9.01 48.218 0.037 6.35 3.45 11.04
5/9/2021 6:15:00 PM 8.97 48.146 0.037 6.35 3.26 11.05
5/9/2021 6:30:00 PM 8.92 48.056 0.037 6.35 3.6 11.05
5/9/2021 6:45:00 PM 8.88 47.984 0.037 6.35 3.62 11.06
5/9/2021 7:00:00 PM 8.85 47.93 0.038 6.35 3.62 11.05
5/9/2021 7:15:00 PM 8.81 47.858 0.038 6.35 3.92 11.05
5/9/2021 7:30:00 PM 8.77 47.786 0.038 6.36 4.14 11.05
5/9/2021 7:45:00 PM 8.73 47.714 0.039 6.36 4.86 11.05
5/9/2021 8:00:00 PM 8.69 47.642 0.039 6.36 4.86 11.05
5/9/2021 8:15:00 PM 8.66 47.588 0.039 6.36 5.06 11.06
5/9/2021 8:30:00 PM 8.63 47.534 0.039 6.37 5.35 11.06
5/9/2021 8:45:00 PM 8.6 47.48 0.04 6.38 5.85 11.06
5/9/2021 9:00:00 PM 8.58 47.444 0.04 6.39 6.05 11.07
5/9/2021 9:15:00 PM 8.56 47.408 0.041 6.41 6.65 11.07
5/9/2021 9:30:00 PM 8.54 47.372 0.041 6.42 7.66 11.08
5/9/2021 9:45:00 PM 8.52 47.336 0.041 6.43 8.58 11.09
5/9/2021 10:00:00 PM 8.5 47.3 0.041 6.44 9.28 11.09
5/9/2021 10:15:00 PM 8.48 47.264 0.041 6.44 9.9 11.1
5/9/2021 10:30:00 PM 8.46 47.228 0.041 6.45 10.17 11.1
5/9/2021 10:45:00 PM 8.44 47.192 0.041 6.44 10.48 11.1
5/9/2021 11:00:00 PM 8.42 47.156 0.041 6.44 10.19 11.11
5/9/2021 11:15:00 PM 8.4 47.12 0.04 6.44 10.64 11.11
5/9/2021 11:30:00 PM 8.38 47.084 0.04 6.43 10.5 11.12
5/9/2021 11:45:00 PM 8.35 47.03 0.04 6.43 10.49 11.13
5/10/2021 12:00:00 AM 8.33 46.994 0.039 6.42 10.85 11.14
5/10/2021 12:15:00 AM 8.32 46.976 0.039 6.42 10.57 11.14
5/10/2021 12:30:00 AM 8.3 46.94 0.039 6.41 10.49 11.15
5/10/2021 12:45:00 AM 8.29 46.922 0.038 6.41 10.98 11.16
5/10/2021 1:00:00 AM 8.27 46.886 0.038 6.41 11.4 11.16
5/10/2021 1:15:00 AM 8.26 46.868 0.038 6.4 11.12 11.17
5/10/2021 1:30:00 AM 8.25 46.85 0.038 6.4 11.95 11.17
5/10/2021 1:45:00 AM 8.25 46.85 0.038 6.4 12.73 11.18
5/10/2021 2:00:00 AM 8.24 46.832 0.038 6.4 13.21 11.18
5/10/2021 2:15:00 AM 8.24 46.832 0.038 6.41 14.18 11.18
5/10/2021 2:30:00 AM 8.25 46.85 0.038 6.41 15.11 11.18
5/10/2021 2:45:00 AM 8.25 46.85 0.038 6.42 16.65 11.19
5/10/2021 3:00:00 AM 8.26 46.868 0.038 6.41 16.29 11.19
5/10/2021 3:15:00 AM 8.25 46.85 0.038 6.41 17.98 11.19
5/10/2021 3:30:00 AM 8.24 46.832 0.038 6.4 15.88 11.2
5/10/2021 3:45:00 AM 8.23 46.814 0.037 6.39 16.92 11.21
5/10/2021 4:00:00 AM 8.22 46.796 0.037 6.38 16.5 11.21
5/10/2021 4:15:00 AM 8.2 46.76 0.036 6.37 17.58 11.22
5/10/2021 4:30:00 AM 8.19 46.742 0.036 6.36 18.24 11.22
5/10/2021 4:45:00 AM 8.18 46.724 0.036 6.36 17.69 11.23
5/10/2021 5:00:00 AM 8.17 46.706 0.035 6.35 17.26 11.24
5/10/2021 5:15:00 AM 8.16 46.688 0.035 6.34 17.94 11.24
5/10/2021 5:30:00 AM 8.15 46.67 0.035 6.33 16.85 11.25
5/10/2021 5:45:00 AM 8.14 46.652 0.035 6.32 16.89 11.26
5/10/2021 6:00:00 AM 8.13 46.634 0.034 6.32 16.15 11.26
5/10/2021 6:15:00 AM 8.12 46.616 0.034 6.32 16.63 11.27
5/10/2021 6:30:00 AM 8.11 46.598 0.034 6.32 15.09 11.27
5/10/2021 6:45:00 AM 8.1 46.58 0.034 6.31 15.34 11.28
5/10/2021 7:00:00 AM 8.09 46.562 0.034 6.31 15.09 11.29
5/10/2021 7:15:00 AM 8.09 46.562 0.034 6.31 15.31 11.31
5/10/2021 7:30:00 AM 8.09 46.562 0.034 6.31 14.15 11.32
5/10/2021 7:45:00 AM 8.1 46.58 0.034 6.31 13.51 11.33
5/10/2021 8:00:00 AM 8.1 46.58 0.034 6.31 13.67 11.34
5/10/2021 8:15:00 AM 8.12 46.616 0.034 6.32 12.29 11.35
5/10/2021 8:30:00 AM 8.12 46.616 0.034 6.31 12.55 11.36
5/10/2021 8:45:00 AM 8.14 46.652 0.034 6.32 12.58 11.36
5/10/2021 9:00:00 AM 8.15 46.67 0.033 6.32 11.82 11.36
5/10/2021 9:15:00 AM 8.16 46.688 0.033 6.32 11.7 11.36
5/10/2021 9:30:00 AM 8.17 46.706 0.033 6.32 11.33 11.36
5/10/2021 9:45:00 AM 8.18 46.724 0.033 6.31 11.29 11.35
5/10/2021 10:00:00 AM 8.19 46.742 0.033 6.31 11.1 11.35
5/10/2021 10:15:00 AM 8.2 46.76 0.033 6.31 11.01 11.35
5/10/2021 10:30:00 AM 8.2 46.76 0.033 6.31 10.24 11.36
5/10/2021 10:45:00 AM 8.22 46.796 0.033 6.32 10.47 11.36
5/10/2021 11:00:00 AM 8.25 46.85 0.033 6.32 10.52 11.37
5/10/2021 11:15:00 AM 8.32 46.976 0.033 6.32 9.98 11.37
5/10/2021 11:30:00 AM 8.41 47.138 0.033 6.32 9.89 11.36
5/10/2021 11:45:00 AM 8.47 47.246 0.033 6.32 9.91 11.35
5/10/2021 12:00:00 PM 8.6 47.48 0.033 6.34 9.7 11.36
5/10/2021 12:15:00 PM 8.69 47.642 0.033 6.33 9.86 11.34
5/10/2021 12:30:00 PM 8.78 47.804 0.033 6.33 9.7 11.32
5/10/2021 12:45:00 PM 8.85 47.93 0.033 6.34 9.2 11.3
5/10/2021 1:00:00 PM 8.95 48.11 0.033 6.34 9.45 11.27
5/10/2021 1:15:00 PM 9.03 48.254 0.033 6.34 9.37 11.25
5/10/2021 1:30:00 PM 9.18 48.524 0.033 6.33 9.19 11.21
5/10/2021 1:45:00 PM 9.25 48.65 0.033 6.32 8.83 11.19
5/10/2021 2:00:00 PM 9.4 48.92 0.033 6.33 8.96 11.14
5/10/2021 2:15:00 PM 9.37 48.866 0.033 6.31 8.3 11.14
5/10/2021 2:30:00 PM 9.49 49.082 0.033 6.31 8.96 11.1
5/10/2021 2:45:00 PM 9.66 49.388 0.033 6.32 8.32 11.04
5/10/2021 3:00:00 PM 9.86 49.748 0.032 6.34 8.15 11.03
5/10/2021 3:15:00 PM 9.84 49.712 0.032 6.31 8.39 11.01
5/10/2021 3:30:00 PM 9.79 49.622 0.032 6.32 8.3 11.01
5/10/2021 3:45:00 PM 9.82 49.676 0.033 6.32 8.03 11
5/10/2021 4:00:00 PM 9.86 49.748 0.033 6.31 7.87 10.98
5/10/2021 4:15:00 PM 9.92 49.856 0.033 6.32 7.66 10.95
5/10/2021 4:30:00 PM 10 50 0.033 6.32 7.54 10.95
5/10/2021 4:45:00 PM 10.01 50.018 0.033 6.31 7.54 10.93
5/10/2021 5:00:00 PM 10.07 50.126 0.033 6.31 7.59 10.9
5/10/2021 5:15:00 PM 10.14 50.252 0.033 6.32 7.63 10.88
5/10/2021 5:30:00 PM 10.15 50.27 0.032 6.31 7.78 10.87
5/10/2021 5:45:00 PM 10.15 50.27 0.032 6.3 7.03 10.87
5/10/2021 6:00:00 PM 10.14 50.252 0.032 6.3 7.51 10.87
5/10/2021 6:15:00 PM 10.11 50.198 0.032 6.29 7.3 10.87
5/10/2021 6:30:00 PM 10.05 50.09 0.032 6.28 7.28 10.87
5/10/2021 6:45:00 PM 9.98 49.964 0.032 6.27 7.18 10.87
5/10/2021 7:00:00 PM 9.91 49.838 0.032 6.27 7.35 10.87
5/10/2021 7:15:00 PM 9.85 49.73 0.032 6.27 6.91 10.87
5/10/2021 7:30:00 PM 9.8 49.64 0.032 6.25 6.74 10.88
5/10/2021 7:45:00 PM 9.74 49.532 0.032 6.25 7.26 10.87
5/10/2021 8:00:00 PM 9.68 49.424 0.032 6.25 6.81 10.86
5/10/2021 8:15:00 PM 9.62 49.316 0.032 6.24 6.87 10.87
5/10/2021 8:30:00 PM 9.56 49.208 0.032 6.23 6.85 10.87
5/10/2021 8:45:00 PM 9.51 49.118 0.032 6.22 6.44 10.89
5/10/2021 9:00:00 PM 9.45 49.01 0.032 6.22 6.66 10.9
5/10/2021 9:15:00 PM 9.4 48.92 0.032 6.21 6.79 10.91
5/10/2021 9:30:00 PM 9.36 48.848 0.032 6.22 6.66 10.93
5/10/2021 9:45:00 PM 9.31 48.758 0.032 6.21 6.62 10.94
5/10/2021 10:00:00 PM 9.26 48.668 0.032 6.22 6.44 10.95
5/10/2021 10:15:00 PM 9.21 48.578 0.032 6.21 6.33 10.97
5/10/2021 10:30:00 PM 9.16 48.488 0.032 6.21 6.3 10.98
5/10/2021 10:45:00 PM 9.11 48.398 0.032 6.21 6.43 10.98
5/10/2021 11:00:00 PM 9.06 48.308 0.032 6.21 6.28 10.99
5/10/2021 11:15:00 PM 9.01 48.218 0.032 6.21 6.71 11.01
5/10/2021 11:30:00 PM 8.95 48.11 0.032 6.2 6.6 11.03
5/10/2021 11:45:00 PM 8.9 48.02 0.032 6.21 6.08 11.05
5/11/2021 12:00:00 AM 8.85 47.93 0.032 6.21 6.28 11.06
5/11/2021 12:15:00 AM 8.8 47.84 0.032 6.21 6.17 11.07
5/11/2021 12:30:00 AM 8.75 47.75 0.032 6.2 6.22 11.09
5/11/2021 12:45:00 AM 8.71 47.678 0.032 6.21 5.99 11.11
5/11/2021 1:00:00 AM 8.67 47.606 0.032 6.2 5.95 11.12
5/11/2021 1:15:00 AM 8.63 47.534 0.032 6.2 6.05 11.13
5/11/2021 1:30:00 AM 8.58 47.444 0.032 6.21 6.04 11.14
5/11/2021 1:45:00 AM 8.54 47.372 0.032 6.2 5.83 11.15
5/11/2021 2:00:00 AM 8.5 47.3 0.032 6.21 5.79 11.16
5/11/2021 2:15:00 AM 8.46 47.228 0.032 6.2 5.76 11.16
5/11/2021 2:30:00 AM 8.42 47.156 0.033 6.21 6.11 11.18
5/11/2021 2:45:00 AM 8.38 47.084 0.033 6.21 5.82 11.19
5/11/2021 3:00:00 AM 8.33 46.994 0.033 6.2 5.83 11.2
5/11/2021 3:15:00 AM 8.29 46.922 0.033 6.2 5.99 11.22
5/11/2021 3:30:00 AM 8.24 46.832 0.033 6.2 5.98 11.23
5/11/2021 3:45:00 AM 8.2 46.76 0.032 6.2 5.71 11.25
5/11/2021 4:00:00 AM 8.16 46.688 0.033 6.2 5.73 11.26
5/11/2021 4:15:00 AM 8.12 46.616 0.033 6.2 5.75 11.27
5/11/2021 4:30:00 AM 8.07 46.526 0.033 6.2 5.76 11.29
5/11/2021 4:45:00 AM 8.02 46.436 0.033 6.2 5.35 11.3
5/11/2021 5:00:00 AM 7.98 46.364 0.033 6.2 5.34 11.31
5/11/2021 5:15:00 AM 7.93 46.274 0.033 6.2 5.45 11.32
5/11/2021 5:30:00 AM 7.87 46.166 0.033 6.2 5.43 11.33
5/11/2021 5:45:00 AM 7.83 46.094 0.033 6.2 5.34 11.34
5/11/2021 6:00:00 AM 7.78 46.004 0.033 6.21 5.44 11.36
5/11/2021 6:15:00 AM 7.73 45.914 0.033 6.21 5.42 11.38
5/11/2021 6:30:00 AM 7.69 45.842 0.033 6.2 5.43 11.41
5/11/2021 6:45:00 AM 7.65 45.77 0.033 6.21 5.53 11.44
5/11/2021 7:00:00 AM 7.61 45.698 0.033 6.22 5.38 11.46
5/11/2021 7:15:00 AM 7.59 45.662 0.033 6.23 5.2 11.49
5/11/2021 7:30:00 AM 7.58 45.644 0.033 6.23 5.09 11.51
5/11/2021 7:45:00 AM 7.57 45.626 0.033 6.24 5.4 11.53
5/11/2021 8:00:00 AM 7.58 45.644 0.033 6.24 5.33 11.54
5/11/2021 8:15:00 AM 7.61 45.698 0.033 6.25 5.25 11.55
5/11/2021 8:30:00 AM 7.65 45.77 0.033 6.26 4.88 11.56
5/11/2021 8:45:00 AM 7.71 45.878 0.033 6.26 4.98 11.55
5/11/2021 9:00:00 AM 7.78 46.004 0.033 6.27 4.78 11.55
5/11/2021 9:15:00 AM 7.86 46.148 0.033 6.28 4.86 11.54
5/11/2021 9:30:00 AM 7.96 46.328 0.033 6.28 4.8 11.54
5/11/2021 9:45:00 AM 8.07 46.526 0.033 6.29 4.82 11.53
5/11/2021 10:00:00 AM 8.19 46.742 0.033 6.29 4.82 11.51
5/11/2021 10:15:00 AM 8.34 47.012 0.033 6.3 5.04 11.47
5/11/2021 10:30:00 AM 8.49 47.282 0.033 6.3 4.62 11.43
5/11/2021 10:45:00 AM 8.68 47.624 0.033 6.31 4.54 11.42
5/11/2021 11:00:00 AM 8.87 47.966 0.033 6.33 4.8 11.37
5/11/2021 11:15:00 AM 8.95 48.11 0.033 6.32 4.73 11.32
5/11/2021 11:30:00 AM 9.02 48.236 0.033 6.31 4.52 11.29
5/11/2021 11:45:00 AM 9.08 48.344 0.033 6.3 4.49 11.26
5/11/2021 12:00:00 PM 9.15 48.47 0.033 6.31 4.51 11.24
5/11/2021 12:15:00 PM 9.08 48.344 0.033 6.29 4.61 11.21
5/11/2021 12:30:00 PM 9.07 48.326 0.033 6.3 4.51 11.23
5/11/2021 12:45:00 PM 9.12 48.416 0.033 6.31 4.47 11.21
5/11/2021 1:00:00 PM 9.11 48.398 0.033 6.3 4.48 11.2
5/11/2021 1:15:00 PM 9.08 48.344 0.033 6.29 4.4 11.19
5/11/2021 1:30:00 PM 9.13 48.434 0.033 6.31 4.43 11.19
5/11/2021 1:45:00 PM 9.2 48.56 0.033 6.33 4.46 11.18
5/11/2021 2:00:00 PM 9.22 48.596 0.033 6.31 4.55 11.17
5/11/2021 2:15:00 PM 9.26 48.668 0.033 6.31 4.39 11.17
5/11/2021 2:30:00 PM 9.31 48.758 0.033 6.32 4.35 11.16
5/11/2021 2:45:00 PM 9.46 49.028 0.033 6.34 4.59 11.15
5/11/2021 3:00:00 PM 9.53 49.154 0.033 6.34 4.6 11.12
5/11/2021 3:15:00 PM 9.56 49.208 0.033 6.32 4.45 11.11
5/11/2021 3:30:00 PM 9.68 49.424 0.033 6.35 4.31 11.09
5/11/2021 3:45:00 PM 9.75 49.55 0.033 6.33 4.4 11.05
5/11/2021 4:00:00 PM 9.73 49.514 0.033 6.3 4.46 11.02
5/11/2021 4:15:00 PM 9.69 49.442 0.033 6.3 4.47 11.01
5/11/2021 4:30:00 PM 9.69 49.442 0.033 6.3 4.37 11.01
5/11/2021 4:45:00 PM 9.67 49.406 0.033 6.3 4.35 11.01
5/11/2021 5:00:00 PM 9.61 49.298 0.033 6.29 4.39 11.01
5/11/2021 5:15:00 PM 9.6 49.28 0.033 6.29 4.25 11.01
5/11/2021 5:30:00 PM 9.59 49.262 0.033 6.3 4.41 11.01
5/11/2021 5:45:00 PM 9.57 49.226 0.033 6.29 4.51 11.02
5/11/2021 6:00:00 PM 9.55 49.19 0.033 6.3 4.38 11.02
5/11/2021 6:15:00 PM 9.52 49.136 0.033 6.29 4.36 11.02
5/11/2021 6:30:00 PM 9.5 49.1 0.033 6.28 4.22 11.02
5/11/2021 6:45:00 PM 9.48 49.064 0.033 6.28 4.39 11.01
5/11/2021 7:00:00 PM 9.45 49.01 0.033 6.27 4.25 11
5/11/2021 7:15:00 PM 9.41 48.938 0.033 6.27 4.52 11
5/11/2021 7:30:00 PM 9.37 48.866 0.033 6.26 4.47 11
5/11/2021 7:45:00 PM 9.33 48.794 0.033 6.26 4.53 11
5/11/2021 8:00:00 PM 9.3 48.74 0.033 6.25 4.42 10.99
5/11/2021 8:15:00 PM 9.25 48.65 0.034 6.25 4.35 10.99
5/11/2021 8:30:00 PM 9.18 48.524 0.033 6.25 4.6 10.99
5/11/2021 8:45:00 PM 9.1 48.38 0.034 6.24 4.36 10.99
5/11/2021 9:00:00 PM 9.04 48.272 0.034 6.24 4.23 11.01
5/11/2021 9:15:00 PM 8.98 48.164 0.034 6.23 4.18 11.03
5/11/2021 9:30:00 PM 8.92 48.056 0.034 6.23 4.42 11.05
5/11/2021 9:45:00 PM 8.86 47.948 0.034 6.23 4.18 11.07
5/11/2021 10:00:00 PM 8.79 47.822 0.034 6.23 4.45 11.09
5/11/2021 10:15:00 PM 8.73 47.714 0.034 6.23 4.28 11.1
5/11/2021 10:30:00 PM 8.67 47.606 0.034 6.23 4.52 11.13
5/11/2021 10:45:00 PM 8.61 47.498 0.034 6.23 4.35 11.15
5/11/2021 11:00:00 PM 8.55 47.39 0.034 6.23 4.39 11.16
5/11/2021 11:15:00 PM 8.48 47.264 0.034 6.23 4.27 11.18
5/11/2021 11:30:00 PM 8.42 47.156 0.034 6.23 4.46 11.18
5/11/2021 11:45:00 PM 8.35 47.03 0.034 6.22 4.25 11.21
5/12/2021 12:00:00 AM 8.28 46.904 0.034 6.22 4.43 11.23
5/12/2021 12:15:00 AM 8.22 46.796 0.034 6.22 4.26 11.26
5/12/2021 12:30:00 AM 8.15 46.67 0.034 6.22 4.36 11.28
5/12/2021 12:45:00 AM 8.09 46.562 0.034 6.21 4.2 11.3
5/12/2021 1:00:00 AM 8.02 46.436 0.034 6.22 4.33 11.32
5/12/2021 1:15:00 AM 7.96 46.328 0.034 6.22 4.3 11.33
5/12/2021 1:30:00 AM 7.9 46.22 0.034 6.22 4.16 11.35
5/12/2021 1:45:00 AM 7.84 46.112 0.034 6.22 4.04 11.36
5/12/2021 2:00:00 AM 7.78 46.004 0.034 6.23 4.08 11.37
5/12/2021 2:15:00 AM 7.73 45.914 0.034 6.22 4.17 11.39
5/12/2021 2:30:00 AM 7.67 45.806 0.034 6.23 4.01 11.41
5/12/2021 2:45:00 AM 7.61 45.698 0.034 6.22 4.28 11.43
5/12/2021 3:00:00 AM 7.56 45.608 0.034 6.22 4.25 11.44
5/12/2021 3:15:00 AM 7.5 45.5 0.034 6.22 4.03 11.46
5/12/2021 3:30:00 AM 7.45 45.41 0.034 6.22 4.21 11.48
5/12/2021 3:45:00 AM 7.39 45.302 0.034 6.23 4.11 11.49
5/12/2021 4:00:00 AM 7.34 45.212 0.034 6.23 4.01 11.5
5/12/2021 4:15:00 AM 7.3 45.14 0.034 6.22 4.25 11.52
5/12/2021 4:30:00 AM 7.25 45.05 0.034 6.22 4.07 11.53
5/12/2021 4:45:00 AM 7.2 44.96 0.034 6.22 3.94 11.54
5/12/2021 5:00:00 AM 7.15 44.87 0.034 6.23 4.02 11.55
5/12/2021 5:15:00 AM 7.12 44.816 0.034 6.22 4.02 11.57
5/12/2021 5:30:00 AM 7.09 44.762 0.034 6.22 3.84 11.57
5/12/2021 5:45:00 AM 7.07 44.726 0.034 6.22 4 11.58
5/12/2021 6:00:00 AM 7.05 44.69 0.034 6.22 3.95 11.6
5/12/2021 6:15:00 AM 7.03 44.654 0.034 6.23 3.99 11.61
5/12/2021 6:30:00 AM 7.02 44.636 0.034 6.23 3.84 11.63
5/12/2021 6:45:00 AM 7.02 44.636 0.034 6.24 3.85 11.66
5/12/2021 7:00:00 AM 7.02 44.636 0.034 6.24 3.98 11.68
5/12/2021 7:15:00 AM 7.03 44.654 0.034 6.25 3.69 11.69
5/12/2021 7:30:00 AM 7.03 44.654 0.034 6.26 3.74 11.72
5/12/2021 7:45:00 AM 7.06 44.708 0.034 6.27 3.7 11.73
5/12/2021 8:00:00 AM 7.09 44.762 0.034 6.28 3.67 11.74
5/12/2021 8:15:00 AM 7.14 44.852 0.034 6.28 4 11.75
5/12/2021 8:30:00 AM 7.2 44.96 0.034 6.28 3.67 11.77
5/12/2021 8:45:00 AM 7.33 45.194 0.034 6.3 3.75 11.77
5/12/2021 9:00:00 AM 7.44 45.392 0.034 6.31 3.68 11.77
5/12/2021 9:15:00 AM 7.52 45.536 0.034 6.31 3.76 11.75
5/12/2021 9:30:00 AM 7.62 45.716 0.034 6.31 3.68 11.72
5/12/2021 9:45:00 AM 7.72 45.896 0.034 6.31 3.58 11.7
5/12/2021 10:00:00 AM 7.83 46.094 0.034 6.32 3.73 11.67
5/12/2021 10:15:00 AM 7.97 46.346 0.034 6.32 3.74 11.66
5/12/2021 10:30:00 AM 8.13 46.634 0.034 6.33 3.46 11.63
5/12/2021 10:45:00 AM 8.31 46.958 0.034 6.33 3.62 11.58
5/12/2021 11:00:00 AM 8.51 47.318 0.034 6.33 3.64 11.53
5/12/2021 11:15:00 AM 8.75 47.75 0.034 6.34 3.66 11.49
5/12/2021 11:30:00 AM 9.01 48.218 0.034 6.34 3.53 11.42
5/12/2021 11:45:00 AM 9.25 48.65 0.034 6.35 3.45 11.37
5/12/2021 12:00:00 PM 9.47 49.046 0.034 6.36 3.57 11.32
5/12/2021 12:15:00 PM 9.7 49.46 0.034 6.36 3.53 11.25
5/12/2021 12:30:00 PM 9.9 49.82 0.034 6.36 3.58 11.22
5/12/2021 12:45:00 PM 10.07 50.126 0.034 6.36 3.6 11.16
5/12/2021 1:00:00 PM 10.13 50.234 0.034 6.36 3.65 11.13
5/12/2021 1:15:00 PM 10.18 50.324 0.034 6.35 3.61 11.08
5/12/2021 1:30:00 PM 10.42 50.756 0.034 6.37 3.53 11.04
5/12/2021 1:45:00 PM 10.69 51.242 0.034 6.39 3.49 10.99
5/12/2021 2:00:00 PM 10.84 51.512 0.034 6.35 3.62 10.92
5/12/2021 2:15:00 PM 10.92 51.656 0.034 6.37 3.38 10.89
5/12/2021 2:30:00 PM 10.83 51.494 0.034 6.35 3.55 10.89
5/12/2021 2:45:00 PM 10.76 51.368 0.034 6.34 3.48 10.88
5/12/2021 3:00:00 PM 10.83 51.494 0.034 6.37 3.6 10.89
5/12/2021 3:15:00 PM 10.97 51.746 0.034 6.38 3.54 10.86
5/12/2021 3:30:00 PM 11.07 51.926 0.034 6.36 3.38 10.83
5/12/2021 3:45:00 PM 11.08 51.944 0.034 6.36 3.49 10.8
5/12/2021 4:00:00 PM 11.07 51.926 0.034 6.35 3.39 10.77
5/12/2021 4:15:00 PM 11.14 52.052 0.035 6.35 3.66 10.75
5/12/2021 4:30:00 PM 11.3 52.34 0.034 6.36 3.75 10.72
5/12/2021 4:45:00 PM 11.38 52.484 0.035 6.36 3.66 10.7
5/12/2021 5:00:00 PM 11.38 52.484 0.035 6.35 3.62 10.68
5/12/2021 5:15:00 PM 11.39 52.502 0.034 6.35 3.63 10.68
5/12/2021 5:30:00 PM 11.4 52.52 0.035 6.35 3.38 10.66
5/12/2021 5:45:00 PM 11.36 52.448 0.035 6.33 3.56 10.64
5/12/2021 6:00:00 PM 11.29 52.322 0.035 6.32 3.63 10.64
5/12/2021 6:15:00 PM 11.22 52.196 0.035 6.31 3.5 10.64
5/12/2021 6:30:00 PM 11.15 52.07 0.035 6.31 3.77 10.63
5/12/2021 6:45:00 PM 11.1 51.98 0.035 6.3 3.65 10.63
5/12/2021 7:00:00 PM 11.02 51.836 0.035 6.3 3.64 10.62
5/12/2021 7:15:00 PM 10.93 51.674 0.035 6.29 3.77 10.62
5/12/2021 7:30:00 PM 10.83 51.494 0.035 6.28 3.67 10.64
5/12/2021 7:45:00 PM 10.74 51.332 0.035 6.28 3.61 10.66
5/12/2021 8:00:00 PM 10.65 51.17 0.035 6.27 3.66 10.67
5/12/2021 8:15:00 PM 10.55 50.99 0.035 6.27 3.7 10.68
5/12/2021 8:30:00 PM 10.43 50.774 0.035 6.26 3.58 10.69
5/12/2021 8:45:00 PM 10.32 50.576 0.035 6.26 3.75 10.7
5/12/2021 9:00:00 PM 10.21 50.378 0.035 6.25 3.83 10.73
5/12/2021 9:15:00 PM 10.11 50.198 0.035 6.25 3.68 10.76
5/12/2021 9:30:00 PM 10 50 0.035 6.24 3.99 10.79
5/12/2021 9:45:00 PM 9.91 49.838 0.035 6.24 3.81 10.82
5/12/2021 10:00:00 PM 9.81 49.658 0.035 6.24 3.92 10.83
5/12/2021 10:15:00 PM 9.71 49.478 0.035 6.24 3.71 10.84
5/12/2021 10:30:00 PM 9.62 49.316 0.035 6.24 3.71 10.88
5/12/2021 10:45:00 PM 9.53 49.154 0.035 6.23 3.74 10.9
5/12/2021 11:00:00 PM 9.45 49.01 0.035 6.25 3.75 10.93
5/12/2021 11:15:00 PM 9.36 48.848 0.035 6.24 3.63 10.96
5/12/2021 11:30:00 PM 9.27 48.686 0.035 6.24 3.71 10.98
5/12/2021 11:45:00 PM 9.18 48.524 0.035 6.24 3.56 11
5/13/2021 12:00:00 AM 9.08 48.344 0.035 6.23 3.79 11.02
5/13/2021 12:15:00 AM 9 48.2 0.035 6.24 3.71 11.04
5/13/2021 12:30:00 AM 8.92 48.056 0.035 6.24 3.7 11.07
5/13/2021 12:45:00 AM 8.83 47.894 0.035 6.24 3.68 11.1
5/13/2021 1:00:00 AM 8.75 47.75 0.035 6.23 3.58 11.12
5/13/2021 1:15:00 AM 8.67 47.606 0.035 6.24 3.77 11.15
5/13/2021 1:30:00 AM 8.6 47.48 0.035 6.24 3.85 11.17
5/13/2021 1:45:00 AM 8.52 47.336 0.035 6.24 3.68 11.18
5/13/2021 2:00:00 AM 8.45 47.21 0.035 6.23 3.74 11.19
5/13/2021 2:15:00 AM 8.38 47.084 0.035 6.24 3.65 11.21
5/13/2021 2:30:00 AM 8.31 46.958 0.035 6.23 3.65 11.23
5/13/2021 2:45:00 AM 8.25 46.85 0.035 6.23 3.59 11.26
5/13/2021 3:00:00 AM 8.18 46.724 0.035 6.24 3.76 11.28
5/13/2021 3:15:00 AM 8.12 46.616 0.035 6.24 3.62 11.3
5/13/2021 3:30:00 AM 8.05 46.49 0.035 6.24 3.56 11.32
5/13/2021 3:45:00 AM 7.99 46.382 0.035 6.23 3.55 11.33
5/13/2021 4:00:00 AM 7.93 46.274 0.035 6.24 3.59 11.35
5/13/2021 4:15:00 AM 7.87 46.166 0.035 6.24 3.61 11.36
5/13/2021 4:30:00 AM 7.81 46.058 0.035 6.24 3.53 11.37
5/13/2021 4:45:00 AM 7.76 45.968 0.035 6.24 3.62 11.38
5/13/2021 5:00:00 AM 7.71 45.878 0.035 6.24 3.63 11.4
5/13/2021 5:15:00 AM 7.65 45.77 0.036 6.24 3.58 11.42
5/13/2021 5:30:00 AM 7.6 45.68 0.036 6.23 3.6 11.44
5/13/2021 5:45:00 AM 7.55 45.59 0.036 6.24 3.6 11.46
5/13/2021 6:00:00 AM 7.5 45.5 0.036 6.24 3.49 11.48
5/13/2021 6:15:00 AM 7.46 45.428 0.036 6.24 3.73 11.5
5/13/2021 6:30:00 AM 7.42 45.356 0.036 6.26 3.51 11.54
5/13/2021 6:45:00 AM 7.39 45.302 0.036 6.26 3.56 11.56
5/13/2021 7:00:00 AM 7.36 45.248 0.036 6.26 3.3 11.59
5/13/2021 7:15:00 AM 7.34 45.212 0.036 6.26 3.33 11.61
5/13/2021 7:30:00 AM 7.34 45.212 0.036 6.27 3.32 11.64
5/13/2021 7:45:00 AM 7.36 45.248 0.036 6.28 3.43 11.65
5/13/2021 8:00:00 AM 7.39 45.302 0.036 6.29 3.25 11.68
5/13/2021 8:15:00 AM 7.44 45.392 0.036 6.29 3.48 11.68
5/13/2021 8:30:00 AM 7.51 45.518 0.036 6.3 3.4 11.68
5/13/2021 8:45:00 AM 7.59 45.662 0.036 6.31 3.38 11.68
5/13/2021 9:00:00 AM 7.7 45.86 0.036 6.32 3.31 11.66
5/13/2021 9:15:00 AM 7.82 46.076 0.036 6.32 3.25 11.64
5/13/2021 9:30:00 AM 7.96 46.328 0.036 6.33 3.26 11.63
5/13/2021 9:45:00 AM 8.13 46.634 0.036 6.34 3.25 11.61
5/13/2021 10:00:00 AM 8.3 46.94 0.036 6.35 3.16 11.57
5/13/2021 10:15:00 AM 8.49 47.282 0.036 6.35 3.18 11.52
5/13/2021 10:30:00 AM 8.69 47.642 0.036 6.36 3.35 11.5
5/13/2021 10:45:00 AM 8.92 48.056 0.036 6.37 3.18 11.45
5/13/2021 11:00:00 AM 9.15 48.47 0.036 6.37 3.27 11.39
5/13/2021 11:15:00 AM 9.41 48.938 0.036 6.38 3.12 11.34
5/13/2021 11:30:00 AM 9.66 49.388 0.036 6.39 3.19 11.29
5/13/2021 11:45:00 AM 9.78 49.604 0.036 6.38 3.36 11.22
5/13/2021 12:00:00 PM 9.9 49.82 0.036 6.38 3.25 11.19
5/13/2021 12:15:00 PM 10.17 50.306 0.036 6.39 3.11 11.14
5/13/2021 12:30:00 PM 10.37 50.666 0.036 6.39 3.22 11.08
5/13/2021 12:45:00 PM 10.6 51.08 0.036 6.4 3.14 11.06
5/13/2021 1:00:00 PM 10.73 51.314 0.036 6.41 3.14 11.02
5/13/2021 1:15:00 PM 10.86 51.548 0.036 6.41 3.27 10.97
5/13/2021 1:30:00 PM 10.76 51.368 0.036 6.38 3.08 10.93
5/13/2021 1:45:00 PM 10.75 51.35 0.036 6.37 3.11 10.92
5/13/2021 2:00:00 PM 10.61 51.098 0.036 6.36 3.12 10.93
5/13/2021 2:15:00 PM 10.67 51.206 0.036 6.39 3.21 10.93
5/13/2021 2:30:00 PM 10.76 51.368 0.036 6.39 3.1 10.92
5/13/2021 2:45:00 PM 10.91 51.638 0.036 6.42 3.12 10.9
5/13/2021 3:00:00 PM 11.12 52.016 0.036 6.42 3.19 10.87
5/13/2021 3:15:00 PM 11.24 52.232 0.036 6.4 3.09 10.81
5/13/2021 3:30:00 PM 11.35 52.43 0.036 6.41 3.14 10.76
5/13/2021 3:45:00 PM 11.36 52.448 0.036 6.41 3.24 10.75
5/13/2021 4:00:00 PM 11.41 52.538 0.036 6.41 3.03 10.71
5/13/2021 4:15:00 PM 11.52 52.736 0.036 6.42 3.08 10.69
5/13/2021 4:30:00 PM 11.59 52.862 0.036 6.39 3.08 10.65
5/13/2021 4:45:00 PM 11.56 52.808 0.036 6.39 3.2 10.65
5/13/2021 5:00:00 PM 11.49 52.682 0.036 6.38 3.16 10.64
5/13/2021 5:15:00 PM 11.44 52.592 0.036 6.37 3.12 10.64
5/13/2021 5:30:00 PM 11.43 52.574 0.036 6.36 3.24 10.63
5/13/2021 5:45:00 PM 11.37 52.466 0.036 6.35 3.28 10.63
5/13/2021 6:00:00 PM 11.28 52.304 0.036 6.34 3.14 10.63
5/13/2021 6:15:00 PM 11.22 52.196 0.036 6.33 3.23 10.63
5/13/2021 6:30:00 PM 11.21 52.178 0.036 6.34 3.21 10.62
5/13/2021 6:45:00 PM 11.19 52.142 0.036 6.34 3.18 10.61
5/13/2021 7:00:00 PM 11.14 52.052 0.036 6.34 3.14 10.61
5/13/2021 7:15:00 PM 11.08 51.944 0.036 6.33 3.27 10.6
5/13/2021 7:30:00 PM 11.01 51.818 0.036 6.32 3.16 10.6
5/13/2021 7:45:00 PM 10.93 51.674 0.036 6.32 3.22 10.6
5/13/2021 8:00:00 PM 10.86 51.548 0.036 6.31 3.18 10.6
5/13/2021 8:15:00 PM 10.79 51.422 0.036 6.3 3.36 10.61
5/13/2021 8:30:00 PM 10.7 51.26 0.036 6.28 3.3 10.61
5/13/2021 8:45:00 PM 10.59 51.062 0.036 6.28 3.35 10.63
5/13/2021 9:00:00 PM 10.49 50.882 0.036 6.27 3.29 10.65
5/13/2021 9:15:00 PM 10.39 50.702 0.036 6.27 3.29 10.66
5/13/2021 9:30:00 PM 10.3 50.54 0.037 6.27 3.27 10.67
5/13/2021 9:45:00 PM 10.22 50.396 0.037 6.27 3.5 10.7
5/13/2021 10:00:00 PM 10.14 50.252 0.037 6.27 3.4 10.73
5/13/2021 10:15:00 PM 10.07 50.126 0.037 6.27 3.37 10.75
5/13/2021 10:30:00 PM 9.99 49.982 0.037 6.27 3.2 10.77
5/13/2021 10:45:00 PM 9.92 49.856 0.037 6.27 3.2 10.79
5/13/2021 11:00:00 PM 9.84 49.712 0.037 6.27 3.35 10.81
5/13/2021 11:15:00 PM 9.77 49.586 0.037 6.27 3.32 10.82
5/13/2021 11:30:00 PM 9.69 49.442 0.037 6.26 3.38 10.84
5/13/2021 11:45:00 PM 9.62 49.316 0.037 6.27 3.33 10.85
5/14/2021 12:00:00 AM 9.53 49.154 0.037 6.27 3.32 10.88
5/14/2021 12:15:00 AM 9.45 49.01 0.037 6.27 3.24 10.91
5/14/2021 12:30:00 AM 9.37 48.866 0.037 6.27 3.26 10.92
5/14/2021 12:45:00 AM 9.29 48.722 0.037 6.26 3.22 10.95
5/14/2021 1:00:00 AM 9.21 48.578 0.037 6.27 3.35 10.97
5/14/2021 1:15:00 AM 9.14 48.452 0.037 6.26 3.28 10.98
5/14/2021 1:30:00 AM 9.06 48.308 0.037 6.26 3.36 11
5/14/2021 1:45:00 AM 8.99 48.182 0.037 6.26 3.29 11.03
5/14/2021 2:00:00 AM 8.91 48.038 0.037 6.27 3.21 11.04
5/14/2021 2:15:00 AM 8.84 47.912 0.037 6.26 3.26 11.07
5/14/2021 2:30:00 AM 8.78 47.804 0.037 6.27 3.29 11.09
5/14/2021 2:45:00 AM 8.71 47.678 0.037 6.27 3.35 11.11
5/14/2021 3:00:00 AM 8.64 47.552 0.037 6.26 3.28 11.13
5/14/2021 3:15:00 AM 8.58 47.444 0.037 6.26 3.29 11.15
5/14/2021 3:30:00 AM 8.52 47.336 0.037 6.27 3.31 11.16
5/14/2021 3:45:00 AM 8.45 47.21 0.037 6.27 3.13 11.18
5/14/2021 4:00:00 AM 8.39 47.102 0.037 6.27 3.2 11.19
5/14/2021 4:15:00 AM 8.34 47.012 0.037 6.27 3.32 11.2
5/14/2021 4:30:00 AM 8.28 46.904 0.037 6.26 3.23 11.23
5/14/2021 4:45:00 AM 8.22 46.796 0.037 6.26 3.17 11.25
5/14/2021 5:00:00 AM 8.17 46.706 0.037 6.26 3.36 11.26
5/14/2021 5:15:00 AM 8.11 46.598 0.037 6.26 3.22 11.28
5/14/2021 5:30:00 AM 8.06 46.508 0.037 6.27 3.17 11.3
5/14/2021 5:45:00 AM 8 46.4 0.037 6.27 3.33 11.32
5/14/2021 6:00:00 AM 7.96 46.328 0.037 6.27 3.19 11.34
5/14/2021 6:15:00 AM 7.91 46.238 0.037 6.26 3.29 11.36
5/14/2021 6:30:00 AM 7.87 46.166 0.037 6.27 3.1 11.39
5/14/2021 6:45:00 AM 7.84 46.112 0.037 6.28 3.13 11.42
5/14/2021 7:00:00 AM 7.81 46.058 0.037 6.28 3.38 11.45
5/14/2021 7:15:00 AM 7.78 46.004 0.037 6.29 3.18 11.47
5/14/2021 7:30:00 AM 7.77 45.986 0.037 6.3 3.08 11.5
5/14/2021 7:45:00 AM 7.79 46.022 0.037 6.31 3.02 11.52
5/14/2021 8:00:00 AM 7.82 46.076 0.037 6.31 3.45 11.53
5/14/2021 8:15:00 AM 7.86 46.148 0.037 6.33 3.16 11.55
5/14/2021 8:30:00 AM 7.92 46.256 0.037 6.33 3.05 11.57
5/14/2021 8:45:00 AM 7.99 46.382 0.037 6.33 2.95 11.57
5/14/2021 9:00:00 AM 8.09 46.562 0.037 6.35 3.01 11.57
5/14/2021 9:15:00 AM 8.2 46.76 0.037 6.36 3.04 11.55
5/14/2021 9:30:00 AM 8.34 47.012 0.037 6.37 2.94 11.53
5/14/2021 9:45:00 AM 8.5 47.3 0.037 6.37 3.05 11.51
5/14/2021 10:00:00 AM 8.68 47.624 0.037 6.38 3.03 11.49
5/14/2021 10:15:00 AM 8.88 47.984 0.037 6.39 2.92 11.45
5/14/2021 10:30:00 AM 9.1 48.38 0.037 6.39 3.04 11.39
5/14/2021 10:45:00 AM 9.34 48.812 0.037 6.4 2.93 11.35
5/14/2021 11:00:00 AM 9.6 49.28 0.037 6.4 2.92 11.3
5/14/2021 11:15:00 AM 9.86 49.748 0.037 6.42 2.88 11.24
5/14/2021 11:30:00 AM 10.14 50.252 0.037 6.43 3.05 11.18
5/14/2021 11:45:00 AM 10.41 50.738 0.037 6.43 2.81 11.12
5/14/2021 12:00:00 PM 10.68 51.224 0.037 6.44 2.88 11.08
5/14/2021 12:15:00 PM 10.94 51.692 0.037 6.44 2.94 11.01
5/14/2021 12:30:00 PM 11.21 52.178 0.037 6.45 2.97 10.95
5/14/2021 12:45:00 PM 11.36 52.448 0.037 6.45 3.01 10.89
5/14/2021 1:00:00 PM 11.46 52.628 0.037 6.46 2.99 10.85
5/14/2021 1:15:00 PM 11.51 52.718 0.037 6.44 2.94 10.81
5/14/2021 1:30:00 PM 11.71 53.078 0.037 6.46 2.97 10.79
5/14/2021 1:45:00 PM 12.02 53.636 0.037 6.46 2.91 10.74
5/14/2021 2:00:00 PM 12.02 53.636 0.037 6.45 2.85 10.67
5/14/2021 2:15:00 PM 12.1 53.78 0.037 6.44 2.84 10.6
5/14/2021 2:30:00 PM 12.15 53.87 0.037 6.43 2.89 10.56
5/14/2021 2:45:00 PM 12.15 53.87 0.037 6.43 2.98 10.54
5/14/2021 3:00:00 PM 12.14 53.852 0.037 6.42 2.9 10.53
5/14/2021 3:15:00 PM 12.33 54.194 0.037 6.45 3.06 10.52
5/14/2021 3:30:00 PM 12.36 54.248 0.037 6.45 2.92 10.52
5/14/2021 3:45:00 PM 12.42 54.356 0.037 6.44 2.87 10.51
5/14/2021 4:00:00 PM 12.37 54.266 0.037 6.43 2.93 10.49
5/14/2021 4:15:00 PM 12.31 54.158 0.037 6.41 2.95 10.47
5/14/2021 4:30:00 PM 12.33 54.194 0.037 6.42 3.02 10.44
5/14/2021 4:45:00 PM 12.45 54.41 0.037 6.43 2.99 10.43
5/14/2021 5:00:00 PM 12.57 54.626 0.037 6.43 2.95 10.41
5/14/2021 5:15:00 PM 12.64 54.752 0.037 6.43 2.9 10.39
5/14/2021 5:30:00 PM 12.57 54.626 0.037 6.43 2.87 10.4
5/14/2021 5:45:00 PM 12.46 54.428 0.037 6.41 2.87 10.4
5/14/2021 6:00:00 PM 12.4 54.32 0.037 6.41 3.12 10.4
5/14/2021 6:15:00 PM 12.34 54.212 0.037 6.39 2.96 10.37
5/14/2021 6:30:00 PM 12.27 54.086 0.037 6.38 3.03 10.35
5/14/2021 6:45:00 PM 12.17 53.906 0.037 6.37 3.15 10.36
5/14/2021 7:00:00 PM 12.04 53.672 0.037 6.36 2.97 10.39
5/14/2021 7:15:00 PM 11.9 53.42 0.037 6.34 3.06 10.41
5/14/2021 7:30:00 PM 11.76 53.168 0.037 6.34 3.08 10.42
5/14/2021 7:45:00 PM 11.63 52.934 0.037 6.33 2.89 10.41
5/14/2021 8:00:00 PM 11.53 52.754 0.037 6.33 3.06 10.42
5/14/2021 8:15:00 PM 11.43 52.574 0.038 6.32 3.1 10.43
5/14/2021 8:30:00 PM 11.33 52.394 0.038 6.32 3.08 10.44
5/14/2021 8:45:00 PM 11.23 52.214 0.038 6.31 3.11 10.46
5/14/2021 9:00:00 PM 11.13 52.034 0.038 6.31 3.17 10.46
5/14/2021 9:15:00 PM 11.02 51.836 0.038 6.3 3.07 10.48
5/14/2021 9:30:00 PM 10.92 51.656 0.038 6.3 3.14 10.5
5/14/2021 9:45:00 PM 10.81 51.458 0.038 6.3 3.21 10.53
5/14/2021 10:00:00 PM 10.7 51.26 0.038 6.3 3.17 10.57
5/14/2021 10:15:00 PM 10.6 51.08 0.038 6.3 3.19 10.59
5/14/2021 10:30:00 PM 10.5 50.9 0.038 6.29 3.1 10.62
5/14/2021 10:45:00 PM 10.4 50.72 0.038 6.29 3.25 10.64
5/14/2021 11:00:00 PM 10.31 50.558 0.038 6.3 3.2 10.65
5/14/2021 11:15:00 PM 10.22 50.396 0.038 6.3 3.15 10.68
5/14/2021 11:30:00 PM 10.13 50.234 0.038 6.29 3.15 10.71
5/14/2021 11:45:00 PM 10.05 50.09 0.038 6.29 3.31 10.74
5/15/2021 12:00:00 AM 9.96 49.928 0.038 6.29 3.2 10.76
5/15/2021 12:15:00 AM 9.88 49.784 0.038 6.3 3.03 10.77
5/15/2021 12:30:00 AM 9.81 49.658 0.038 6.3 3.19 10.78
5/15/2021 12:45:00 AM 9.74 49.532 0.038 6.29 3.09 10.79
5/15/2021 1:00:00 AM 9.66 49.388 0.038 6.29 3.34 10.81
5/15/2021 1:15:00 AM 9.59 49.262 0.038 6.29 3.2 10.84
5/15/2021 1:30:00 AM 9.52 49.136 0.038 6.29 3.21 10.86
5/15/2021 1:45:00 AM 9.45 49.01 0.038 6.29 3.3 10.88
5/15/2021 2:00:00 AM 9.39 48.902 0.038 6.29 3.16 10.9
5/15/2021 2:15:00 AM 9.32 48.776 0.038 6.29 3.04 10.92
5/15/2021 2:30:00 AM 9.26 48.668 0.038 6.3 3.2 10.93
5/15/2021 2:45:00 AM 9.2 48.56 0.038 6.29 3.18 10.95
5/15/2021 3:00:00 AM 9.13 48.434 0.038 6.29 3.12 10.96
5/15/2021 3:15:00 AM 9.08 48.344 0.038 6.29 3.07 10.97
5/15/2021 3:30:00 AM 9.02 48.236 0.038 6.29 3.19 10.99
5/15/2021 3:45:00 AM 8.97 48.146 0.038 6.29 3.09 11.01
5/15/2021 4:00:00 AM 8.92 48.056 0.038 6.29 3.1 11.03
5/15/2021 4:15:00 AM 8.86 47.948 0.038 6.29 3.08 11.05
5/15/2021 4:30:00 AM 8.81 47.858 0.038 6.3 3.1 11.06
5/15/2021 4:45:00 AM 8.76 47.768 0.038 6.29 3.05 11.08
5/15/2021 5:00:00 AM 8.71 47.678 0.038 6.29 3.12 11.1
5/15/2021 5:15:00 AM 8.66 47.588 0.038 6.29 3.13 11.11
5/15/2021 5:30:00 AM 8.61 47.498 0.038 6.29 3.17 11.12
5/15/2021 5:45:00 AM 8.57 47.426 0.038 6.3 3 11.14
5/15/2021 6:00:00 AM 8.52 47.336 0.038 6.29 3.04 11.16
5/15/2021 6:15:00 AM 8.48 47.264 0.038 6.3 3.1 11.18
5/15/2021 6:30:00 AM 8.44 47.192 0.038 6.3 3.12 11.21
5/15/2021 6:45:00 AM 8.41 47.138 0.038 6.31 3.13 11.24
5/15/2021 7:00:00 AM 8.38 47.084 0.038 6.32 3.05 11.28
5/15/2021 7:15:00 AM 8.36 47.048 0.038 6.33 3.03 11.31
5/15/2021 7:30:00 AM 8.35 47.03 0.038 6.33 3.04 11.34
5/15/2021 7:45:00 AM 8.36 47.048 0.038 6.34 2.98 11.36
5/15/2021 8:00:00 AM 8.4 47.12 0.038 6.35 3.05 11.38
5/15/2021 8:15:00 AM 8.45 47.21 0.038 6.36 3.13 11.39
5/15/2021 8:30:00 AM 8.51 47.318 0.038 6.36 3.1 11.4
5/15/2021 8:45:00 AM 8.58 47.444 0.038 6.37 3.16 11.41
5/15/2021 9:00:00 AM 8.68 47.624 0.038 6.38 3.08 11.41
5/15/2021 9:15:00 AM 8.79 47.822 0.038 6.39 3.22 11.39
5/15/2021 9:30:00 AM 8.94 48.092 0.038 6.4 3.07 11.37
5/15/2021 9:45:00 AM 9.09 48.362 0.038 6.41 3 11.34
5/15/2021 10:00:00 AM 9.28 48.704 0.038 6.41 3.02 11.33
5/15/2021 10:15:00 AM 9.48 49.064 0.038 6.43 3.02 11.29
5/15/2021 10:30:00 AM 9.69 49.442 0.038 6.43 3.08 11.24
5/15/2021 10:45:00 AM 9.92 49.856 0.038 6.44 2.99 11.21
5/15/2021 11:00:00 AM 10.17 50.306 0.038 6.45 2.95 11.16
5/15/2021 11:15:00 AM 10.44 50.792 0.038 6.46 3.03 11.1
5/15/2021 11:30:00 AM 10.72 51.296 0.038 6.47 3 11.06
5/15/2021 11:45:00 AM 11 51.8 0.038 6.47 2.9 10.98
5/15/2021 12:00:00 PM 11.3 52.34 0.038 6.49 2.98 10.94
5/15/2021 12:15:00 PM 11.38 52.484 0.038 6.47 3 10.86
5/15/2021 12:30:00 PM 11.34 52.412 0.038 6.45 2.96 10.81
5/15/2021 12:45:00 PM 11.28 52.304 0.038 6.44 2.87 10.78
5/15/2021 1:00:00 PM 11.25 52.25 0.038 6.42 3.06 10.74
5/15/2021 1:15:00 PM 11.46 52.628 0.038 6.47 2.98 10.76
5/15/2021 1:30:00 PM 11.37 52.466 0.038 6.46 2.89 10.77
5/15/2021 1:45:00 PM 11.35 52.43 0.038 6.47 2.91 10.8
5/15/2021 2:00:00 PM 11.26 52.268 0.038 6.46 3.03 10.8
5/15/2021 2:15:00 PM 11.27 52.286 0.038 6.48 2.99 10.82
5/15/2021 2:30:00 PM 11.53 52.754 0.038 6.51 2.95 10.82
5/15/2021 2:45:00 PM 11.77 53.186 0.038 6.52 2.93 10.78
5/15/2021 3:00:00 PM 11.95 53.51 0.038 6.52 2.99 10.73
5/15/2021 3:15:00 PM 12.02 53.636 0.038 6.52 2.86 10.71
5/15/2021 3:30:00 PM 12.15 53.87 0.038 6.52 2.99 10.67
5/15/2021 3:45:00 PM 12.29 54.122 0.038 6.51 2.94 10.6
5/15/2021 4:00:00 PM 12.32 54.176 0.038 6.49 2.88 10.54
5/15/2021 4:15:00 PM 12.32 54.176 0.038 6.47 2.89 10.52
5/15/2021 4:30:00 PM 12.2 53.96 0.038 6.46 3.02 10.52
5/15/2021 4:45:00 PM 12.07 53.726 0.038 6.44 2.97 10.52
5/15/2021 5:00:00 PM 12 53.6 0.038 6.44 2.91 10.53
5/15/2021 5:15:00 PM 11.97 53.546 0.039 6.45 3.02 10.55
5/15/2021 5:30:00 PM 11.92 53.456 0.039 6.45 3.05 10.54
5/15/2021 5:45:00 PM 11.88 53.384 0.039 6.44 3.05 10.55
5/15/2021 6:00:00 PM 11.84 53.312 0.039 6.44 3.04 10.54
5/15/2021 6:15:00 PM 11.86 53.348 0.039 6.44 3.14 10.53
5/15/2021 6:30:00 PM 11.87 53.366 0.039 6.43 3.01 10.52
5/15/2021 6:45:00 PM 11.87 53.366 0.039 6.42 2.98 10.5
5/15/2021 7:00:00 PM 11.85 53.33 0.039 6.41 3.1 10.49
5/15/2021 7:15:00 PM 11.82 53.276 0.039 6.41 3.08 10.47
5/15/2021 7:30:00 PM 11.77 53.186 0.039 6.4 3.21 10.43
5/15/2021 7:45:00 PM 11.73 53.114 0.04 6.38 2.97 10.41
5/15/2021 8:00:00 PM 11.68 53.024 0.04 6.36 2.96 10.39
5/15/2021 8:15:00 PM 11.64 52.952 0.04 6.36 3.19 10.36
5/15/2021 8:30:00 PM 11.59 52.862 0.04 6.35 2.99 10.36
5/15/2021 8:45:00 PM 11.53 52.754 0.04 6.34 2.96 10.36
5/15/2021 9:00:00 PM 11.48 52.664 0.04 6.33 3.03 10.36
5/15/2021 9:15:00 PM 11.42 52.556 0.04 6.33 2.96 10.38
5/15/2021 9:30:00 PM 11.37 52.466 0.04 6.32 3.13 10.38
5/15/2021 9:45:00 PM 11.32 52.376 0.04 6.32 3.25 10.4
5/15/2021 10:00:00 PM 11.26 52.268 0.04 6.33 3.02 10.41
5/15/2021 10:15:00 PM 11.2 52.16 0.04 6.33 3 10.42
5/15/2021 10:30:00 PM 11.13 52.034 0.04 6.32 3.14 10.44
5/15/2021 10:45:00 PM 11.07 51.926 0.04 6.32 2.98 10.45
5/15/2021 11:00:00 PM 11.01 51.818 0.04 6.31 3.04 10.45
5/15/2021 11:15:00 PM 10.96 51.728 0.04 6.32 3.04 10.47
5/15/2021 11:30:00 PM 10.9 51.62 0.04 6.32 2.91 10.49
5/15/2021 11:45:00 PM 10.85 51.53 0.04 6.32 3.08 10.5
5/16/2021 12:00:00 AM 10.8 51.44 0.04 6.32 3.13 10.52
5/16/2021 12:15:00 AM 10.74 51.332 0.04 6.33 2.98 10.54
5/16/2021 12:30:00 AM 10.69 51.242 0.04 6.32 3.11 10.56
5/16/2021 12:45:00 AM 10.64 51.152 0.04 6.32 3.06 10.57
5/16/2021 1:00:00 AM 10.59 51.062 0.04 6.32 3.04 10.58
5/16/2021 1:15:00 AM 10.55 50.99 0.04 6.32 3.08 10.59
5/16/2021 1:30:00 AM 10.5 50.9 0.04 6.32 3.1 10.61
5/16/2021 1:45:00 AM 10.45 50.81 0.04 6.32 3.1 10.61
5/16/2021 2:00:00 AM 10.41 50.738 0.04 6.32 3.08 10.62
5/16/2021 2:15:00 AM 10.36 50.648 0.04 6.33 3 10.63
5/16/2021 2:30:00 AM 10.33 50.594 0.04 6.32 2.99 10.64
5/16/2021 2:45:00 AM 10.29 50.522 0.04 6.31 3.12 10.65
5/16/2021 3:00:00 AM 10.25 50.45 0.04 6.32 3.21 10.67
5/16/2021 3:15:00 AM 10.21 50.378 0.04 6.32 3.12 10.68
5/16/2021 3:30:00 AM 10.18 50.324 0.04 6.32 3.15 10.69
5/16/2021 3:45:00 AM 10.14 50.252 0.04 6.32 3.12 10.7
5/16/2021 4:00:00 AM 10.11 50.198 0.04 6.32 3.05 10.71
5/16/2021 4:15:00 AM 10.08 50.144 0.04 6.32 2.98 10.72
5/16/2021 4:30:00 AM 10.04 50.072 0.04 6.32 3.21 10.73
5/16/2021 4:45:00 AM 10 50 0.04 6.32 3.11 10.74
5/16/2021 5:00:00 AM 9.96 49.928 0.04 6.31 3.08 10.74
5/16/2021 5:15:00 AM 9.91 49.838 0.04 6.31 3.06 10.75
5/16/2021 5:30:00 AM 9.87 49.766 0.04 6.31 2.91 10.76
5/16/2021 5:45:00 AM 9.83 49.694 0.04 6.31 3.03 10.77
5/16/2021 6:00:00 AM 9.79 49.622 0.04 6.32 2.94 10.79
5/16/2021 6:15:00 AM 9.76 49.568 0.039 6.33 2.99 10.83
5/16/2021 6:30:00 AM 9.73 49.514 0.04 6.33 2.96 10.86
5/16/2021 6:45:00 AM 9.71 49.478 0.04 6.34 2.8 10.9
5/16/2021 7:00:00 AM 9.69 49.442 0.039 6.35 2.97 10.94
5/16/2021 7:15:00 AM 9.68 49.424 0.039 6.36 2.95 10.98
5/16/2021 7:30:00 AM 9.68 49.424 0.039 6.37 2.92 11.01
5/16/2021 7:45:00 AM 9.71 49.478 0.039 6.39 2.89 11.04
5/16/2021 8:00:00 AM 9.73 49.514 0.039 6.4 2.9 11.05
5/16/2021 8:15:00 AM 9.77 49.586 0.039 6.41 3.01 11.07
5/16/2021 8:30:00 AM 9.82 49.676 0.039 6.42 2.99 11.09
5/16/2021 8:45:00 AM 9.89 49.802 0.039 6.44 2.95 11.1
5/16/2021 9:00:00 AM 9.98 49.964 0.039 6.45 2.89 11.11
5/16/2021 9:15:00 AM 10.07 50.126 0.039 6.46 2.91 11.1
5/16/2021 9:30:00 AM 10.16 50.288 0.039 6.46 3.01 11.08
5/16/2021 9:45:00 AM 10.24 50.432 0.039 6.47 2.94 11.07
5/16/2021 10:00:00 AM 10.34 50.612 0.039 6.48 2.84 11.05
5/16/2021 10:15:00 AM 10.44 50.792 0.039 6.49 2.86 11.04
5/16/2021 10:30:00 AM 10.56 51.008 0.039 6.49 2.89 11.03
5/16/2021 10:45:00 AM 10.68 51.224 0.039 6.5 2.79 11
5/16/2021 11:00:00 AM 10.74 51.332 0.039 6.48 2.85 10.96
5/16/2021 11:15:00 AM 10.75 51.35 0.039 6.46 2.75 10.9
5/16/2021 11:30:00 AM 10.75 51.35 0.039 6.46 2.89 10.88
5/16/2021 11:45:00 AM 10.83 51.494 0.039 6.49 2.99 10.89
5/16/2021 12:00:00 PM 10.94 51.692 0.039 6.49 2.76 10.87
5/16/2021 12:15:00 PM 11.09 51.962 0.039 6.52 2.92 10.88
5/16/2021 12:30:00 PM 11.24 52.232 0.039 6.55 2.85 10.88
5/16/2021 12:45:00 PM 11.43 52.574 0.039 6.55 2.88 10.86
5/16/2021 1:00:00 PM 11.68 53.024 0.039 6.56 2.82 10.82
5/16/2021 1:15:00 PM 11.81 53.258 0.039 6.57 2.89 10.78
5/16/2021 1:30:00 PM 11.89 53.402 0.039 6.58 2.88 10.75
5/16/2021 1:45:00 PM 11.97 53.546 0.039 6.56 2.85 10.72
5/16/2021 2:00:00 PM 11.98 53.564 0.039 6.54 2.89 10.69
5/16/2021 2:15:00 PM 11.99 53.582 0.039 6.51 3.04 10.65
5/16/2021 2:30:00 PM 11.93 53.474 0.039 6.48 2.87 10.6
5/16/2021 2:45:00 PM 11.88 53.384 0.039 6.46 2.88 10.54
5/16/2021 3:00:00 PM 11.82 53.276 0.039 6.44 2.92 10.51
5/16/2021 3:15:00 PM 11.76 53.168 0.039 6.43 2.87 10.48
5/16/2021 3:30:00 PM 11.71 53.078 0.039 6.42 2.93 10.46
5/16/2021 3:45:00 PM 11.66 52.988 0.039 6.41 2.96 10.46
5/16/2021 4:00:00 PM 11.64 52.952 0.039 6.43 2.95 10.51
5/16/2021 4:15:00 PM 11.63 52.934 0.039 6.44 3.03 10.54
5/16/2021 4:30:00 PM 11.61 52.898 0.039 6.43 3.07 10.54
5/16/2021 4:45:00 PM 11.58 52.844 0.04 6.42 2.95 10.53
5/16/2021 5:00:00 PM 11.55 52.79 0.04 6.42 2.89 10.53
5/16/2021 5:15:00 PM 11.52 52.736 0.04 6.42 2.99 10.51
5/16/2021 5:30:00 PM 11.5 52.7 0.04 6.42 3.2 10.51
5/16/2021 5:45:00 PM 11.47 52.646 0.04 6.41 3.09 10.51
5/16/2021 6:00:00 PM 11.44 52.592 0.04 6.41 3.05 10.53
5/16/2021 6:15:00 PM 11.4 52.52 0.04 6.41 3.03 10.53
5/16/2021 6:30:00 PM 11.37 52.466 0.04 6.41 2.94 10.54
5/16/2021 6:45:00 PM 11.33 52.394 0.04 6.41 3.04 10.53
5/16/2021 7:00:00 PM 11.31 52.358 0.04 6.42 3.11 10.53
5/16/2021 7:15:00 PM 11.28 52.304 0.04 6.41 2.99 10.54
5/16/2021 7:30:00 PM 11.25 52.25 0.04 6.41 2.98 10.54
5/16/2021 7:45:00 PM 11.22 52.196 0.04 6.41 3.01 10.53
5/16/2021 8:00:00 PM 11.18 52.124 0.04 6.4 2.95 10.53
5/16/2021 8:15:00 PM 11.14 52.052 0.04 6.4 3.05 10.52
5/16/2021 8:30:00 PM 11.1 51.98 0.04 6.38 3.11 10.5
5/16/2021 8:45:00 PM 11.05 51.89 0.041 6.38 3.17 10.49
5/16/2021 9:00:00 PM 11.01 51.818 0.041 6.38 3.13 10.48
5/16/2021 9:15:00 PM 10.97 51.746 0.041 6.37 3.21 10.49
5/16/2021 9:30:00 PM 10.93 51.674 0.041 6.37 3.36 10.49
5/16/2021 9:45:00 PM 10.88 51.584 0.041 6.37 3.25 10.5
5/16/2021 10:00:00 PM 10.83 51.494 0.041 6.38 3.35 10.52
5/16/2021 10:15:00 PM 10.77 51.386 0.041 6.37 3.4 10.53
5/16/2021 10:30:00 PM 10.72 51.296 0.041 6.38 3.53 10.55
5/16/2021 10:45:00 PM 10.67 51.206 0.041 6.37 3.8 10.56
5/16/2021 11:00:00 PM 10.61 51.098 0.041 6.37 3.68 10.57
5/16/2021 11:15:00 PM 10.55 50.99 0.041 6.36 3.78 10.59
5/16/2021 11:30:00 PM 10.49 50.882 0.041 6.36 3.92 10.6
5/16/2021 11:45:00 PM 10.43 50.774 0.041 6.36 3.85 10.61
5/17/2021 12:00:00 AM 10.38 50.684 0.041 6.36 3.72 10.62
5/17/2021 12:15:00 AM 10.32 50.576 0.041 6.36 3.4 10.63
5/17/2021 12:30:00 AM 10.26 50.468 0.041 6.36 3.52 10.65
5/17/2021 12:45:00 AM 10.2 50.36 0.041 6.36 3.5 10.67
5/17/2021 1:00:00 AM 10.14 50.252 0.041 6.36 3.39 10.69
5/17/2021 1:15:00 AM 10.08 50.144 0.041 6.36 3.23 10.7
5/17/2021 1:30:00 AM 10.02 50.036 0.041 6.36 3.22 10.73
5/17/2021 1:45:00 AM 9.96 49.928 0.041 6.35 3.24 10.74
5/17/2021 2:00:00 AM 9.91 49.838 0.041 6.34 3.22 10.76
5/17/2021 2:15:00 AM 9.85 49.73 0.041 6.35 3.27 10.76
5/17/2021 2:30:00 AM 9.79 49.622 0.041 6.36 3.12 10.78
5/17/2021 2:45:00 AM 9.73 49.514 0.041 6.36 3.08 10.78
5/17/2021 3:00:00 AM 9.69 49.442 0.041 6.36 3.09 10.79
5/17/2021 3:15:00 AM 9.63 49.334 0.041 6.35 3.06 10.81
5/17/2021 3:30:00 AM 9.58 49.244 0.041 6.35 3.06 10.83
5/17/2021 3:45:00 AM 9.53 49.154 0.041 6.36 2.97 10.85
5/17/2021 4:00:00 AM 9.47 49.046 0.041 6.36 3.11 10.86
5/17/2021 4:15:00 AM 9.43 48.974 0.041 6.36 3.08 10.88
5/17/2021 4:30:00 AM 9.38 48.884 0.041 6.36 2.97 10.89
5/17/2021 4:45:00 AM 9.32 48.776 0.041 6.36 3.05 10.9
5/17/2021 5:00:00 AM 9.27 48.686 0.041 6.36 2.99 10.92
5/17/2021 5:15:00 AM 9.22 48.596 0.041 6.37 3.07 10.93
5/17/2021 5:30:00 AM 9.17 48.506 0.041 6.36 3.02 10.94
5/17/2021 5:45:00 AM 9.12 48.416 0.041 6.37 3.14 10.96
5/17/2021 6:00:00 AM 9.06 48.308 0.041 6.36 3.03 10.97
5/17/2021 6:15:00 AM 9.02 48.236 0.041 6.37 2.91 11.01
5/17/2021 6:30:00 AM 8.99 48.182 0.041 6.38 3.02 11.05
5/17/2021 6:45:00 AM 8.95 48.11 0.041 6.38 3.05 11.09
5/17/2021 7:00:00 AM 8.92 48.056 0.041 6.39 3.08 11.13
5/17/2021 7:15:00 AM 8.9 48.02 0.041 6.4 2.81 11.17
5/17/2021 7:30:00 AM 8.89 48.002 0.041 6.41 2.89 11.2
5/17/2021 7:45:00 AM 8.9 48.02 0.041 6.41 3.02 11.23
5/17/2021 8:00:00 AM 8.93 48.074 0.041 6.43 2.76 11.25
5/17/2021 8:15:00 AM 8.98 48.164 0.041 6.43 2.86 11.26
5/17/2021 8:30:00 AM 9.05 48.29 0.041 6.45 3.09 11.27
5/17/2021 8:45:00 AM 9.13 48.434 0.041 6.46 2.76 11.28
5/17/2021 9:00:00 AM 9.22 48.596 0.041 6.47 2.89 11.28
5/17/2021 9:15:00 AM 9.33 48.794 0.041 6.48 2.85 11.28
5/17/2021 9:30:00 AM 9.47 49.046 0.041 6.49 2.8 11.26
5/17/2021 9:45:00 AM 9.63 49.334 0.041 6.49 2.86 11.23
5/17/2021 10:00:00 AM 9.81 49.658 0.041 6.5 2.86 11.21
5/17/2021 10:15:00 AM 10.01 50.018 0.041 6.51 2.8 11.2
5/17/2021 10:30:00 AM 10.22 50.396 0.041 6.51 2.69 11.15
5/17/2021 10:45:00 AM 10.46 50.828 0.041 6.53 2.88 11.11
5/17/2021 11:00:00 AM 10.73 51.314 0.041 6.54 2.86 11.06
5/17/2021 11:15:00 AM 11 51.8 0.041 6.55 2.67 11
5/17/2021 11:30:00 AM 11.3 52.34 0.041 6.55 2.77 10.95
5/17/2021 11:45:00 AM 11.59 52.862 0.041 6.57 2.73 10.88
5/17/2021 12:00:00 PM 11.9 53.42 0.041 6.58 2.74 10.83
5/17/2021 12:15:00 PM 12.04 53.672 0.041 6.56 2.77 10.73
5/17/2021 12:30:00 PM 11.97 53.546 0.041 6.55 2.83 10.7
5/17/2021 12:45:00 PM 12.39 54.302 0.041 6.59 2.82 10.67
5/17/2021 1:00:00 PM 12.78 55.004 0.041 6.63 2.77 10.61
5/17/2021 1:15:00 PM 13.08 55.544 0.041 6.62 2.8 10.55
5/17/2021 1:30:00 PM 13.23 55.814 0.041 6.62 2.65 10.51
5/17/2021 1:45:00 PM 13.4 56.12 0.041 6.62 2.74 10.46
5/17/2021 2:00:00 PM 13.61 56.498 0.041 6.62 2.69 10.41
5/17/2021 2:15:00 PM 13.8 56.84 0.041 6.63 2.65 10.38
5/17/2021 2:30:00 PM 13.94 57.092 0.041 6.63 2.65 10.34
5/17/2021 2:45:00 PM 14.02 57.236 0.041 6.61 2.71 10.29
5/17/2021 3:00:00 PM 14.08 57.344 0.041 6.62 2.74 10.27
5/17/2021 3:15:00 PM 14.2 57.56 0.041 6.61 2.62 10.23
5/17/2021 3:30:00 PM 14.3 57.74 0.041 6.61 2.61 10.19
5/17/2021 3:45:00 PM 14.33 57.794 0.041 6.58 2.63 10.14
5/17/2021 4:00:00 PM 14.22 57.596 0.041 6.54 2.58 10.06
5/17/2021 4:15:00 PM 14.26 57.668 0.041 6.57 2.81 10.08
5/17/2021 4:30:00 PM 14.2 57.56 0.041 6.56 2.56 10.09
5/17/2021 4:45:00 PM 14.28 57.704 0.041 6.56 2.67 10.08
5/17/2021 5:00:00 PM 14.23 57.614 0.041 6.55 2.74 10.06
5/17/2021 5:15:00 PM 14.13 57.434 0.041 6.53 2.65 10.02
5/17/2021 5:30:00 PM 14.05 57.29 0.041 6.51 2.66 10.01
5/17/2021 5:45:00 PM 14 57.2 0.041 6.51 2.77 10.01
5/17/2021 6:00:00 PM 14.01 57.218 0.041 6.5 2.87 10
5/17/2021 6:15:00 PM 13.99 57.182 0.041 6.51 2.63 9.99
5/17/2021 6:30:00 PM 13.94 57.092 0.041 6.51 2.7 9.99
5/17/2021 6:45:00 PM 13.88 56.984 0.041 6.5 2.63 10
5/17/2021 7:00:00 PM 13.83 56.894 0.041 6.5 2.75 9.98
5/17/2021 7:15:00 PM 13.79 56.822 0.041 6.49 2.76 9.97
5/17/2021 7:30:00 PM 13.75 56.75 0.041 6.48 2.75 9.95
5/17/2021 7:45:00 PM 13.66 56.588 0.041 6.47 2.82 9.95
5/17/2021 8:00:00 PM 13.55 56.39 0.041 6.46 2.76 9.94
5/17/2021 8:15:00 PM 13.43 56.174 0.041 6.45 2.71 9.94
5/17/2021 8:30:00 PM 13.31 55.958 0.041 6.43 2.86 9.95
5/17/2021 8:45:00 PM 13.2 55.76 0.041 6.42 2.8 9.96
5/17/2021 9:00:00 PM 13.09 55.562 0.041 6.41 2.79 9.96
5/17/2021 9:15:00 PM 12.98 55.364 0.041 6.41 2.98 9.98
5/17/2021 9:30:00 PM 12.87 55.166 0.041 6.4 2.85 9.99
5/17/2021 9:45:00 PM 12.77 54.986 0.042 6.39 2.9 10.01
5/17/2021 10:00:00 PM 12.67 54.806 0.042 6.39 2.93 10.04
5/17/2021 10:15:00 PM 12.58 54.644 0.042 6.4 3.15 10.07
5/17/2021 10:30:00 PM 12.48 54.464 0.042 6.4 2.81 10.09
5/17/2021 10:45:00 PM 12.39 54.302 0.042 6.39 2.91 10.1
5/17/2021 11:00:00 PM 12.3 54.14 0.042 6.39 2.83 10.12
5/17/2021 11:15:00 PM 12.2 53.96 0.042 6.39 2.83 10.14
5/17/2021 11:30:00 PM 12.11 53.798 0.042 6.4 2.93 10.17
5/17/2021 11:45:00 PM 12.03 53.654 0.042 6.4 3.03 10.19
5/18/2021 12:00:00 AM 11.94 53.492 0.042 6.39 3.08 10.21
5/18/2021 12:15:00 AM 11.85 53.33 0.042 6.39 2.96 10.24
5/18/2021 12:30:00 AM 11.77 53.186 0.042 6.4 3 10.25
5/18/2021 12:45:00 AM 11.68 53.024 0.042 6.39 3.29 10.27
5/18/2021 1:00:00 AM 11.6 52.88 0.042 6.39 3.43 10.28
5/18/2021 1:15:00 AM 11.51 52.718 0.042 6.39 3.53 10.31
5/18/2021 1:30:00 AM 11.42 52.556 0.042 6.39 4.07 10.34
5/18/2021 1:45:00 AM 11.33 52.394 0.042 6.39 3.71 10.36
5/18/2021 2:00:00 AM 11.24 52.232 0.042 6.39 4.08 10.39
5/18/2021 2:15:00 AM 11.15 52.07 0.042 6.39 3.89 10.41
5/18/2021 2:30:00 AM 11.07 51.926 0.042 6.38 3.65 10.43
5/18/2021 2:45:00 AM 10.99 51.782 0.042 6.38 3.21 10.43
5/18/2021 3:00:00 AM 10.9 51.62 0.042 6.39 3.19 10.47
5/18/2021 3:15:00 AM 10.82 51.476 0.042 6.39 3.22 10.49
5/18/2021 3:30:00 AM 10.74 51.332 0.042 6.39 3.07 10.51
5/18/2021 3:45:00 AM 10.67 51.206 0.042 6.39 3.01 10.53
5/18/2021 4:00:00 AM 10.59 51.062 0.042 6.39 3.14 10.55
5/18/2021 4:15:00 AM 10.52 50.936 0.042 6.39 3.04 10.57
5/18/2021 4:30:00 AM 10.45 50.81 0.042 6.39 3.06 10.59
5/18/2021 4:45:00 AM 10.39 50.702 0.042 6.39 2.94 10.6
5/18/2021 5:00:00 AM 10.32 50.576 0.042 6.39 3.03 10.62
5/18/2021 5:15:00 AM 10.26 50.468 0.042 6.38 2.89 10.64
5/18/2021 5:30:00 AM 10.19 50.342 0.042 6.38 3.1 10.66
5/18/2021 5:45:00 AM 10.13 50.234 0.042 6.39 3.01 10.68
5/18/2021 6:00:00 AM 10.07 50.126 0.042 6.39 2.95 10.71
5/18/2021 6:15:00 AM 10.02 50.036 0.042 6.4 2.97 10.75
5/18/2021 6:30:00 AM 9.97 49.946 0.042 6.4 2.92 10.79
5/18/2021 6:45:00 AM 9.93 49.874 0.042 6.41 2.82 10.83
5/18/2021 7:00:00 AM 9.89 49.802 0.042 6.42 2.88 10.87
5/18/2021 7:15:00 AM 9.87 49.766 0.042 6.43 2.88 10.9
5/18/2021 7:30:00 AM 9.85 49.73 0.042 6.43 2.96 10.93
5/18/2021 7:45:00 AM 9.86 49.748 0.042 6.44 2.89 10.96
5/18/2021 8:00:00 AM 9.89 49.802 0.042 6.45 2.69 10.99
5/18/2021 8:15:00 AM 9.95 49.91 0.042 6.47 2.83 11.02
5/18/2021 8:30:00 AM 10.02 50.036 0.042 6.48 2.78 11.03
5/18/2021 8:45:00 AM 10.11 50.198 0.042 6.5 2.81 11.03
5/18/2021 9:00:00 AM 10.2 50.36 0.042 6.5 2.82 11.03
5/18/2021 9:15:00 AM 10.32 50.576 0.042 6.51 2.71 11.03
5/18/2021 9:30:00 AM 10.46 50.828 0.042 6.52 2.86 11.03
5/18/2021 9:45:00 AM 10.62 51.116 0.042 6.53 2.76 11.02
5/18/2021 10:00:00 AM 10.8 51.44 0.042 6.54 2.78 11
5/18/2021 10:15:00 AM 10.99 51.782 0.042 6.55 2.72 10.95
5/18/2021 10:30:00 AM 11.21 52.178 0.042 6.56 2.75 10.94
5/18/2021 10:45:00 AM 11.46 52.628 0.042 6.57 2.73 10.88
5/18/2021 11:00:00 AM 11.73 53.114 0.042 6.57 2.67 10.83
5/18/2021 11:15:00 AM 12.02 53.636 0.041 6.59 2.63 10.78
5/18/2021 11:30:00 AM 12.21 53.978 0.041 6.59 2.71 10.69
5/18/2021 11:45:00 AM 12.35 54.23 0.042 6.59 2.77 10.64
5/18/2021 12:00:00 PM 12.59 54.662 0.041 6.59 2.74 10.61
5/18/2021 12:15:00 PM 13.02 55.436 0.042 6.63 2.64 10.56
5/18/2021 12:30:00 PM 13.42 56.156 0.041 6.64 2.65 10.5
5/18/2021 12:45:00 PM 13.59 56.462 0.042 6.65 2.69 10.43
5/18/2021 1:00:00 PM 13.61 56.498 0.042 6.63 2.67 10.38
5/18/2021 1:15:00 PM 13.58 56.444 0.042 6.63 2.55 10.36
5/18/2021 1:30:00 PM 13.66 56.588 0.042 6.64 2.75 10.36
5/18/2021 1:45:00 PM 13.72 56.696 0.042 6.63 2.74 10.33
5/18/2021 2:00:00 PM 13.69 56.642 0.042 6.63 2.61 10.32
5/18/2021 2:15:00 PM 13.75 56.75 0.042 6.64 2.87 10.32
5/18/2021 2:30:00 PM 13.76 56.768 0.042 6.62 2.57 10.3
5/18/2021 2:45:00 PM 13.86 56.948 0.042 6.62 2.63 10.29
5/18/2021 3:00:00 PM 13.84 56.912 0.042 6.61 2.53 10.28
5/18/2021 3:15:00 PM 13.97 57.146 0.042 6.62 2.62 10.27
5/18/2021 3:30:00 PM 13.99 57.182 0.042 6.63 2.68 10.25
5/18/2021 3:45:00 PM 14.2 57.56 0.042 6.63 2.72 10.19
5/18/2021 4:00:00 PM 14.23 57.614 0.042 6.61 2.68 10.15
5/18/2021 4:15:00 PM 14.29 57.722 0.042 6.61 2.68 10.13
5/18/2021 4:30:00 PM 14.35 57.83 0.042 6.59 2.56 10.1
5/18/2021 4:45:00 PM 14.42 57.956 0.042 6.6 2.66 10.08
5/18/2021 5:00:00 PM 14.55 58.19 0.042 6.6 2.67 10.05
5/18/2021 5:15:00 PM 14.55 58.19 0.042 6.58 2.69 10
5/18/2021 5:30:00 PM 14.48 58.064 0.042 6.57 2.6 9.98
5/18/2021 5:45:00 PM 14.37 57.866 0.042 6.55 2.68 9.96
5/18/2021 6:00:00 PM 14.35 57.83 0.042 6.53 2.66 9.95
5/18/2021 6:15:00 PM 14.35 57.83 0.042 6.53 2.7 9.93
5/18/2021 6:30:00 PM 14.31 57.758 0.042 6.52 2.72 9.91
5/18/2021 6:45:00 PM 14.26 57.668 0.042 6.51 2.91 9.89
5/18/2021 7:00:00 PM 14.17 57.506 0.042 6.5 3.09 9.88
5/18/2021 7:15:00 PM 14.08 57.344 0.042 6.5 3.42 9.89
5/18/2021 7:30:00 PM 14 57.2 0.042 6.49 3.32 9.87
5/18/2021 7:45:00 PM 13.92 57.056 0.042 6.48 3.41 9.87
5/18/2021 8:00:00 PM 13.84 56.912 0.042 6.47 3.22 9.87
5/18/2021 8:15:00 PM 13.74 56.732 0.042 6.45 3.05 9.85
5/18/2021 8:30:00 PM 13.64 56.552 0.042 6.44 3.06 9.84
5/18/2021 8:45:00 PM 13.54 56.372 0.042 6.44 3.01 9.84
5/18/2021 9:00:00 PM 13.44 56.192 0.043 6.43 3.16 9.85
5/18/2021 9:15:00 PM 13.34 56.012 0.043 6.43 3.19 9.88
5/18/2021 9:30:00 PM 13.24 55.832 0.043 6.42 3.09 9.89
5/18/2021 9:45:00 PM 13.14 55.652 0.043 6.42 3.04 9.92
5/18/2021 10:00:00 PM 13.03 55.454 0.043 6.42 2.92 9.93
5/18/2021 10:15:00 PM 12.93 55.274 0.043 6.42 2.92 9.95
5/18/2021 10:30:00 PM 12.83 55.094 0.043 6.42 2.87 9.97
5/18/2021 10:45:00 PM 12.74 54.932 0.043 6.42 2.86 10
5/18/2021 11:00:00 PM 12.65 54.77 0.043 6.42 2.92 10.02
5/18/2021 11:15:00 PM 12.57 54.626 0.043 6.42 2.99 10.04
5/18/2021 11:30:00 PM 12.48 54.464 0.043 6.42 3 10.06
5/18/2021 11:45:00 PM 12.39 54.302 0.043 6.42 2.99 10.08
5/19/2021 12:00:00 AM 12.3 54.14 0.043 6.42 2.83 10.1
5/19/2021 12:15:00 AM 12.22 53.996 0.043 6.42 2.98 10.11
5/19/2021 12:30:00 AM 12.13 53.834 0.043 6.42 3.34 10.14
5/19/2021 12:45:00 AM 12.05 53.69 0.043 6.42 2.98 10.17
5/19/2021 1:00:00 AM 11.97 53.546 0.043 6.42 2.96 10.19
5/19/2021 1:15:00 AM 11.89 53.402 0.043 6.42 2.85 10.21
5/19/2021 1:30:00 AM 11.81 53.258 0.043 6.42 2.93 10.22
5/19/2021 1:45:00 AM 11.74 53.132 0.043 6.43 3.05 10.24
5/19/2021 2:00:00 AM 11.67 53.006 0.043 6.42 2.86 10.25
5/19/2021 2:15:00 AM 11.6 52.88 0.043 6.41 3.08 10.26
5/19/2021 2:30:00 AM 11.53 52.754 0.043 6.42 2.89 10.28
5/19/2021 2:45:00 AM 11.46 52.628 0.043 6.42 2.85 10.31
5/19/2021 3:00:00 AM 11.39 52.502 0.043 6.42 2.86 10.33
5/19/2021 3:15:00 AM 11.32 52.376 0.043 6.42 2.87 10.35
5/19/2021 3:30:00 AM 11.25 52.25 0.043 6.42 3.03 10.37
5/19/2021 3:45:00 AM 11.19 52.142 0.043 6.41 2.86 10.38
5/19/2021 4:00:00 AM 11.13 52.034 0.043 6.42 2.86 10.4
5/19/2021 4:15:00 AM 11.06 51.908 0.043 6.41 2.79 10.41
5/19/2021 4:30:00 AM 11 51.8 0.043 6.41 2.83 10.41
5/19/2021 4:45:00 AM 10.94 51.692 0.043 6.41 2.99 10.43
5/19/2021 5:00:00 AM 10.89 51.602 0.043 6.41 2.77 10.44
5/19/2021 5:15:00 AM 10.83 51.494 0.043 6.41 2.78 10.47
5/19/2021 5:30:00 AM 10.77 51.386 0.043 6.42 2.92 10.49
5/19/2021 5:45:00 AM 10.72 51.296 0.043 6.42 2.75 10.51
5/19/2021 6:00:00 AM 10.67 51.206 0.043 6.42 2.74 10.54
5/19/2021 6:15:00 AM 10.62 51.116 0.043 6.42 2.99 10.58
5/19/2021 6:30:00 AM 10.58 51.044 0.043 6.43 2.85 10.62
5/19/2021 6:45:00 AM 10.55 50.99 0.043 6.44 2.8 10.67
5/19/2021 7:00:00 AM 10.53 50.954 0.043 6.45 2.82 10.71
5/19/2021 7:15:00 AM 10.5 50.9 0.043 6.46 2.79 10.75
5/19/2021 7:30:00 AM 10.49 50.882 0.043 6.47 2.84 10.78
5/19/2021 7:45:00 AM 10.5 50.9 0.043 6.48 2.8 10.81
5/19/2021 8:00:00 AM 10.53 50.954 0.043 6.49 2.75 10.84
5/19/2021 8:15:00 AM 10.59 51.062 0.043 6.5 2.68 10.87
5/19/2021 8:30:00 AM 10.66 51.188 0.043 6.52 2.72 10.88
5/19/2021 8:45:00 AM 10.75 51.35 0.043 6.53 2.7 10.89
5/19/2021 9:00:00 AM 10.84 51.512 0.043 6.54 2.57 10.89
5/19/2021 9:15:00 AM 10.95 51.71 0.043 6.55 2.71 10.89
5/19/2021 9:30:00 AM 11.09 51.962 0.043 6.55 2.66 10.89
5/19/2021 9:45:00 AM 11.24 52.232 0.043 6.57 2.71 10.88
5/19/2021 10:00:00 AM 11.41 52.538 0.043 6.57 2.7 10.86
5/19/2021 10:15:00 AM 11.6 52.88 0.043 6.59 2.69 10.83
5/19/2021 10:30:00 AM 11.82 53.276 0.043 6.59 2.67 10.8
5/19/2021 10:45:00 AM 12.06 53.708 0.043 6.6 2.74 10.76
5/19/2021 11:00:00 AM 12.33 54.194 0.043 6.62 2.69 10.71
5/19/2021 11:15:00 AM 12.62 54.716 0.043 6.63 2.65 10.67
5/19/2021 11:30:00 AM 12.92 55.256 0.043 6.64 2.8 10.6
5/19/2021 11:45:00 AM 13.24 55.832 0.043 6.65 2.54 10.56
5/19/2021 12:00:00 PM 13.56 56.408 0.043 6.67 2.55 10.48
5/19/2021 12:15:00 PM 13.89 57.002 0.043 6.67 2.62 10.43
5/19/2021 12:30:00 PM 14.2 57.56 0.043 6.69 2.62 10.35
5/19/2021 12:45:00 PM 14.5 58.1 0.043 6.7 2.55 10.3
5/19/2021 1:00:00 PM 14.78 58.604 0.043 6.72 2.57 10.23
5/19/2021 1:15:00 PM 15.05 59.09 0.043 6.73 2.51 10.19
5/19/2021 1:30:00 PM 15.3 59.54 0.043 6.74 2.57 10.13
5/19/2021 1:45:00 PM 15.52 59.936 0.043 6.74 2.66 10.07
5/19/2021 2:00:00 PM 15.73 60.314 0.043 6.73 2.58 10.03
5/19/2021 2:15:00 PM 15.9 60.62 0.043 6.73 2.62 9.98
5/19/2021 2:30:00 PM 16.05 60.89 0.043 6.73 2.65 9.93
5/19/2021 2:45:00 PM 16.18 61.124 0.043 6.73 2.53 9.88
5/19/2021 3:00:00 PM 16.28 61.304 0.043 6.73 2.54 9.86
5/19/2021 3:15:00 PM 16.36 61.448 0.043 6.72 2.61 9.82
5/19/2021 3:30:00 PM 16.42 61.556 0.043 6.7 2.68 9.79
5/19/2021 3:45:00 PM 16.46 61.628 0.043 6.69 2.7 9.76
5/19/2021 4:00:00 PM 16.47 61.646 0.043 6.69 2.78 9.73
5/19/2021 4:15:00 PM 16.39 61.502 0.043 6.67 2.72 9.7
5/19/2021 4:30:00 PM 16.42 61.556 0.043 6.68 2.63 9.7
5/19/2021 4:45:00 PM 16.37 61.466 0.043 6.66 2.61 9.7
5/19/2021 5:00:00 PM 16.32 61.376 0.043 6.66 2.64 9.68
5/19/2021 5:15:00 PM 16.31 61.358 0.043 6.64 2.73 9.65
5/19/2021 5:30:00 PM 16.26 61.268 0.043 6.62 2.74 9.62
5/19/2021 5:45:00 PM 16.2 61.16 0.043 6.62 2.65 9.6
5/19/2021 6:00:00 PM 16.15 61.07 0.043 6.61 2.54 9.59
5/19/2021 6:15:00 PM 16.12 61.016 0.043 6.6 2.72 9.58
5/19/2021 6:30:00 PM 16.07 60.926 0.043 6.6 2.74 9.6
5/19/2021 6:45:00 PM 16.04 60.872 0.043 6.59 2.74 9.6
5/19/2021 7:00:00 PM 16.04 60.872 0.043 6.59 2.64 9.59
5/19/2021 7:15:00 PM 16.04 60.872 0.043 6.59 2.64 9.57
5/19/2021 7:30:00 PM 15.99 60.782 0.043 6.57 2.58 9.54
5/19/2021 7:45:00 PM 15.93 60.674 0.043 6.55 2.77 9.51
5/19/2021 8:00:00 PM 15.86 60.548 0.044 6.54 2.71 9.46
5/19/2021 8:15:00 PM 15.78 60.404 0.044 6.52 2.85 9.42
5/19/2021 8:30:00 PM 15.7 60.26 0.044 6.51 2.77 9.4
5/19/2021 8:45:00 PM 15.61 60.098 0.044 6.5 2.66 9.39
5/19/2021 9:00:00 PM 15.52 59.936 0.044 6.49 2.71 9.38
5/19/2021 9:15:00 PM 15.43 59.774 0.044 6.48 2.66 9.38
5/19/2021 9:30:00 PM 15.32 59.576 0.044 6.48 2.87 9.41
5/19/2021 9:45:00 PM 15.21 59.378 0.044 6.47 2.71 9.43
5/19/2021 10:00:00 PM 15.1 59.18 0.044 6.47 2.7 9.45
5/19/2021 10:15:00 PM 14.99 58.982 0.044 6.46 2.76 9.48
5/19/2021 10:30:00 PM 14.88 58.784 0.044 6.46 2.71 9.48
5/19/2021 10:45:00 PM 14.78 58.604 0.044 6.46 2.74 9.51
5/19/2021 11:00:00 PM 14.68 58.424 0.044 6.46 2.83 9.54
5/19/2021 11:15:00 PM 14.58 58.244 0.044 6.46 2.8 9.56
5/19/2021 11:30:00 PM 14.48 58.064 0.044 6.46 2.79 9.59
5/19/2021 11:45:00 PM 14.38 57.884 0.044 6.46 2.8 9.61
5/20/2021 12:00:00 AM 14.29 57.722 0.045 6.45 2.82 9.62
5/20/2021 12:15:00 AM 14.2 57.56 0.044 6.46 2.82 9.63
5/20/2021 12:30:00 AM 14.1 57.38 0.045 6.45 2.84 9.66
5/20/2021 12:45:00 AM 14.02 57.236 0.045 6.46 2.99 9.69
5/20/2021 1:00:00 AM 13.93 57.074 0.045 6.46 2.83 9.71
5/20/2021 1:15:00 AM 13.84 56.912 0.045 6.46 2.85 9.73
5/20/2021 1:30:00 AM 13.76 56.768 0.045 6.46 2.73 9.75
5/20/2021 1:45:00 AM 13.67 56.606 0.045 6.46 2.67 9.77
5/20/2021 2:00:00 AM 13.59 56.462 0.045 6.46 2.76 9.77
5/20/2021 2:15:00 AM 13.5 56.3 0.045 6.46 2.94 9.79
5/20/2021 2:30:00 AM 13.41 56.138 0.045 6.46 2.72 9.82
5/20/2021 2:45:00 AM 13.33 55.994 0.045 6.46 2.83 9.85
5/20/2021 3:00:00 AM 13.25 55.85 0.045 6.46 2.72 9.87
5/20/2021 3:15:00 AM 13.18 55.724 0.045 6.47 2.83 9.89
5/20/2021 3:30:00 AM 13.1 55.58 0.045 6.47 2.87 9.91
5/20/2021 3:45:00 AM 13.03 55.454 0.045 6.46 2.9 9.92
5/20/2021 4:00:00 AM 12.97 55.346 0.045 6.46 2.92 9.93
5/20/2021 4:15:00 AM 12.9 55.22 0.045 6.46 2.84 9.94
5/20/2021 4:30:00 AM 12.84 55.112 0.045 6.46 2.96 9.97
5/20/2021 4:45:00 AM 12.78 55.004 0.045 6.46 2.92 9.98
5/20/2021 5:00:00 AM 12.72 54.896 0.045 6.46 2.77 10.01
5/20/2021 5:15:00 AM 12.67 54.806 0.045 6.46 2.78 10.02
5/20/2021 5:30:00 AM 12.61 54.698 0.045 6.46 2.81 10.03
5/20/2021 5:45:00 AM 12.56 54.608 0.045 6.46 2.75 10.05
5/20/2021 6:00:00 AM 12.5 54.5 0.045 6.47 2.84 10.08
5/20/2021 6:15:00 AM 12.45 54.41 0.045 6.47 3.05 10.11
5/20/2021 6:30:00 AM 12.4 54.32 0.045 6.47 2.77 10.15
5/20/2021 6:45:00 AM 12.35 54.23 0.045 6.48 2.78 10.2
5/20/2021 7:00:00 AM 12.32 54.176 0.045 6.49 2.75 10.24
5/20/2021 7:15:00 AM 12.3 54.14 0.045 6.51 2.79 10.3
5/20/2021 7:30:00 AM 12.3 54.14 0.045 6.53 2.74 10.38
5/20/2021 7:45:00 AM 12.33 54.194 0.045 6.54 2.68 10.43
5/20/2021 8:00:00 AM 12.35 54.23 0.045 6.55 2.69 10.46
5/20/2021 8:15:00 AM 12.4 54.32 0.044 6.57 2.68 10.48
5/20/2021 8:30:00 AM 12.45 54.41 0.044 6.58 2.75 10.5
5/20/2021 8:45:00 AM 12.51 54.518 0.044 6.59 2.62 10.51
5/20/2021 9:00:00 AM 12.62 54.716 0.044 6.61 2.67 10.52
5/20/2021 9:15:00 AM 12.71 54.878 0.044 6.62 2.68 10.53
5/20/2021 9:30:00 AM 12.84 55.112 0.044 6.63 2.69 10.52
5/20/2021 9:45:00 AM 12.98 55.364 0.044 6.64 2.6 10.51
5/20/2021 10:00:00 AM 13.11 55.598 0.044 6.65 2.65 10.5
5/20/2021 10:15:00 AM 13.27 55.886 0.044 6.66 2.6 10.49
5/20/2021 10:30:00 AM 13.46 56.228 0.044 6.68 2.65 10.46
5/20/2021 10:45:00 AM 13.68 56.624 0.044 6.69 2.58 10.44
5/20/2021 11:00:00 AM 13.92 57.056 0.044 6.69 2.53 10.41
5/20/2021 11:15:00 AM 14.2 57.56 0.044 6.7 2.53 10.35
5/20/2021 11:30:00 AM 14.48 58.064 0.044 6.72 2.55 10.32
5/20/2021 11:45:00 AM 14.77 58.586 0.044 6.73 2.56 10.26
5/20/2021 12:00:00 PM 14.99 58.982 0.044 6.73 2.67 10.2
5/20/2021 12:15:00 PM 15.24 59.432 0.044 6.75 2.48 10.16
5/20/2021 12:30:00 PM 15.58 60.044 0.044 6.77 2.65 10.1
5/20/2021 12:45:00 PM 15.83 60.494 0.044 6.79 2.45 10.06
5/20/2021 1:00:00 PM 16.13 61.034 0.044 6.81 2.46 9.99
5/20/2021 1:15:00 PM 16.41 61.538 0.044 6.81 2.52 9.95
5/20/2021 1:30:00 PM 16.66 61.988 0.044 6.82 2.49 9.9
5/20/2021 1:45:00 PM 16.89 62.402 0.044 6.83 2.51 9.85
5/20/2021 2:00:00 PM 17.1 62.78 0.044 6.82 2.47 9.81
5/20/2021 2:15:00 PM 17.09 62.762 0.044 6.8 2.62 9.74
5/20/2021 2:30:00 PM 17 62.6 0.044 6.8 2.54 9.71
5/20/2021 2:45:00 PM 17.03 62.654 0.044 6.77 2.43 9.69
5/20/2021 3:00:00 PM 16.98 62.564 0.044 6.78 2.49 9.69
5/20/2021 3:15:00 PM 17.04 62.672 0.044 6.78 2.59 9.69
5/20/2021 3:30:00 PM 17.36 63.248 0.044 6.81 2.49 9.66
5/20/2021 3:45:00 PM 17.35 63.23 0.044 6.79 2.63 9.63
5/20/2021 4:00:00 PM 17.27 63.086 0.044 6.79 2.51 9.63
5/20/2021 4:15:00 PM 17.29 63.122 0.044 6.78 2.59 9.63
5/20/2021 4:30:00 PM 17.22 62.996 0.044 6.77 2.54 9.62
5/20/2021 4:45:00 PM 17.19 62.942 0.044 6.75 2.54 9.6
5/20/2021 5:00:00 PM 17.11 62.798 0.044 6.72 2.49 9.55
5/20/2021 5:15:00 PM 17.09 62.762 0.044 6.71 2.56 9.53
5/20/2021 5:30:00 PM 16.99 62.582 0.044 6.68 2.46 9.47
5/20/2021 5:45:00 PM 16.9 62.42 0.044 6.66 2.46 9.43
5/20/2021 6:00:00 PM 16.88 62.384 0.044 6.64 2.52 9.4
5/20/2021 6:15:00 PM 16.82 62.276 0.044 6.63 2.43 9.38
5/20/2021 6:30:00 PM 16.77 62.186 0.044 6.62 2.45 9.38
5/20/2021 6:45:00 PM 16.72 62.096 0.044 6.61 2.48 9.35
5/20/2021 7:00:00 PM 16.67 62.006 0.044 6.6 2.56 9.34
5/20/2021 7:15:00 PM 16.63 61.934 0.044 6.59 2.64 9.34
5/20/2021 7:30:00 PM 16.56 61.808 0.044 6.58 2.51 9.33
5/20/2021 7:45:00 PM 16.48 61.664 0.045 6.57 2.56 9.32
5/20/2021 8:00:00 PM 16.4 61.52 0.045 6.57 2.62 9.32
5/20/2021 8:15:00 PM 16.3 61.34 0.045 6.55 2.44 9.31
5/20/2021 8:30:00 PM 16.2 61.16 0.045 6.54 2.49 9.29
5/20/2021 8:45:00 PM 16.09 60.962 0.045 6.53 2.63 9.28
5/20/2021 9:00:00 PM 15.98 60.764 0.045 6.53 2.55 9.29
5/20/2021 9:15:00 PM 15.87 60.566 0.045 6.52 2.63 9.31
5/20/2021 9:30:00 PM 15.75 60.35 0.045 6.51 2.71 9.32
5/20/2021 9:45:00 PM 15.63 60.134 0.045 6.52 2.62 9.34
5/20/2021 10:00:00 PM 15.51 59.918 0.045 6.51 2.76 9.36
5/20/2021 10:15:00 PM 15.39 59.702 0.045 6.51 2.62 9.38
5/20/2021 10:30:00 PM 15.28 59.504 0.045 6.51 2.77 9.42
5/20/2021 10:45:00 PM 15.16 59.288 0.045 6.51 2.52 9.44
5/20/2021 11:00:00 PM 15.04 59.072 0.045 6.51 4.74 9.47
5/20/2021 11:15:00 PM 14.93 58.874 0.045 6.51 2.68 9.49
5/20/2021 11:30:00 PM 14.82 58.676 0.045 6.51 2.64 9.5
5/20/2021 11:45:00 PM 14.72 58.496 0.045 6.51 2.73 9.53
5/21/2021 12:00:00 AM 14.63 58.334 0.045 6.51 2.83 9.55
5/21/2021 12:15:00 AM 14.54 58.172 0.046 6.51 2.68 9.57
5/21/2021 12:30:00 AM 14.45 58.01 0.046 6.51 2.71 9.6
5/21/2021 12:45:00 AM 14.36 57.848 0.046 6.51 2.69 9.62
5/21/2021 1:00:00 AM 14.28 57.704 0.046 6.51 2.61 9.63
5/21/2021 1:15:00 AM 14.2 57.56 0.046 6.51 2.98 9.65
5/21/2021 1:30:00 AM 14.13 57.434 0.046 6.51 3.22 9.66
5/21/2021 1:45:00 AM 14.05 57.29 0.046 6.51 2.68 9.69
5/21/2021 2:00:00 AM 13.98 57.164 0.046 6.51 2.7 9.7
5/21/2021 2:15:00 AM 13.91 57.038 0.046 6.51 2.9 9.72
5/21/2021 2:30:00 AM 13.84 56.912 0.046 6.51 2.73 9.74
5/21/2021 2:45:00 AM 13.77 56.786 0.046 6.51 2.88 9.75
5/21/2021 3:00:00 AM 13.7 56.66 0.046 6.51 2.66 9.78
5/21/2021 3:15:00 AM 13.63 56.534 0.046 6.51 2.73 9.79
5/21/2021 3:30:00 AM 13.56 56.408 0.046 6.51 2.74 9.79
5/21/2021 3:45:00 AM 13.49 56.282 0.046 6.52 2.77 9.81
5/21/2021 4:00:00 AM 13.43 56.174 0.046 6.52 2.72 9.83
5/21/2021 4:15:00 AM 13.36 56.048 0.046 6.52 2.7 9.86
5/21/2021 4:30:00 AM 13.3 55.94 0.046 6.52 2.79 9.87
5/21/2021 4:45:00 AM 13.23 55.814 0.046 6.52 2.82 9.89
5/21/2021 5:00:00 AM 13.16 55.688 0.046 6.52 2.72 9.9
5/21/2021 5:15:00 AM 13.1 55.58 0.046 6.52 2.98 9.92
5/21/2021 5:30:00 AM 13.03 55.454 0.046 6.52 2.78 9.94
5/21/2021 5:45:00 AM 12.97 55.346 0.046 6.52 2.76 9.95
5/21/2021 6:00:00 AM 12.9 55.22 0.046 6.52 2.7 9.98
5/21/2021 6:15:00 AM 12.84 55.112 0.046 6.53 2.66 10.01
5/21/2021 6:30:00 AM 12.79 55.022 0.046 6.54 2.64 10.07
5/21/2021 6:45:00 AM 12.75 54.95 0.046 6.55 2.68 10.13
5/21/2021 7:00:00 AM 12.71 54.878 0.046 6.56 2.63 10.18
5/21/2021 7:15:00 AM 12.68 54.824 0.046 6.57 2.61 10.24
5/21/2021 7:30:00 AM 12.65 54.77 0.046 6.58 2.63 10.29
5/21/2021 7:45:00 AM 12.64 54.752 0.046 6.59 2.72 10.33
5/21/2021 8:00:00 AM 12.65 54.77 0.046 6.61 2.54 10.37
5/21/2021 8:15:00 AM 12.7 54.86 0.046 6.62 2.65 10.41
5/21/2021 8:30:00 AM 12.75 54.95 0.046 6.64 3.16 10.42
5/21/2021 8:45:00 AM 12.83 55.094 0.046 6.65 2.51 10.44
5/21/2021 9:00:00 AM 12.91 55.238 0.046 6.66 2.58 10.45
5/21/2021 9:15:00 AM 13 55.4 0.046 6.67 2.63 10.46
5/21/2021 9:30:00 AM 13.12 55.616 0.046 6.69 2.59 10.47
5/21/2021 9:45:00 AM 13.25 55.85 0.046 6.7 2.59 10.47
5/21/2021 10:00:00 AM 13.4 56.12 0.046 6.71 2.54 10.46
5/21/2021 10:15:00 AM 13.57 56.426 0.045 6.73 2.53 10.44
5/21/2021 10:30:00 AM 13.76 56.768 0.046 6.73 2.42 10.43
5/21/2021 10:45:00 AM 13.97 57.146 0.045 6.74 2.56 10.4
5/21/2021 11:00:00 AM 14.21 57.578 0.045 6.76 2.6 10.35
5/21/2021 11:15:00 AM 14.46 58.028 0.045 6.77 2.55 10.33
5/21/2021 11:30:00 AM 14.74 58.532 0.045 6.78 2.5 10.28
5/21/2021 11:45:00 AM 15.03 59.054 0.045 6.79 2.53 10.24
5/21/2021 12:00:00 PM 15.35 59.63 0.045 6.81 2.45 10.18
5/21/2021 12:15:00 PM 15.68 60.224 0.045 6.82 2.49 10.12
5/21/2021 12:30:00 PM 16 60.8 0.045 6.83 2.47 10.07
5/21/2021 12:45:00 PM 16.31 61.358 0.045 6.86 2.57 10
5/21/2021 1:00:00 PM 16.6 61.88 0.045 6.87 2.46 9.95
5/21/2021 1:15:00 PM 16.87 62.366 0.045 6.88 2.51 9.88
5/21/2021 1:30:00 PM 17.12 62.816 0.045 6.89 2.45 9.85
5/21/2021 1:45:00 PM 17.37 63.266 0.045 6.9 2.6 9.78
5/21/2021 2:00:00 PM 17.48 63.464 0.045 6.85 2.44 9.7
5/21/2021 2:15:00 PM 17.36 63.248 0.045 6.82 2.41 9.63
5/21/2021 2:30:00 PM 17.38 63.284 0.045 6.8 2.31 9.61
5/21/2021 2:45:00 PM 17.3 63.14 0.045 6.78 2.44 9.58
5/21/2021 3:00:00 PM 17.44 63.392 0.045 6.83 2.44 9.62
5/21/2021 3:15:00 PM 17.41 63.338 0.045 6.82 2.42 9.59
5/21/2021 3:30:00 PM 17.29 63.122 0.045 6.79 2.4 9.57
5/21/2021 3:45:00 PM 17.41 63.338 0.045 6.8 2.4 9.55
5/21/2021 4:00:00 PM 17.3 63.14 0.045 6.76 2.54 9.53
5/21/2021 4:15:00 PM 17.21 62.978 0.045 6.73 2.5 9.51
5/21/2021 4:30:00 PM 17.12 62.816 0.045 6.73 2.4 9.53
5/21/2021 4:45:00 PM 17.09 62.762 0.045 6.76 2.37 9.56
5/21/2021 5:00:00 PM 17 62.6 0.046 6.75 2.46 9.55
5/21/2021 5:15:00 PM 16.92 62.456 0.046 6.72 2.38 9.5
5/21/2021 5:30:00 PM 16.98 62.564 0.046 6.71 2.44 9.47
5/21/2021 5:45:00 PM 16.95 62.51 0.046 6.7 2.43 9.46
5/21/2021 6:00:00 PM 16.86 62.348 0.046 6.69 2.47 9.45
5/21/2021 6:15:00 PM 16.79 62.222 0.046 6.69 2.54 9.44
5/21/2021 6:30:00 PM 16.75 62.15 0.046 6.68 2.5 9.43
5/21/2021 6:45:00 PM 16.73 62.114 0.046 6.68 2.41 9.43
5/21/2021 7:00:00 PM 16.71 62.078 0.046 6.66 2.65 9.4
5/21/2021 7:15:00 PM 16.71 62.078 0.046 6.65 2.5 9.37
5/21/2021 7:30:00 PM 16.7 62.06 0.046 6.64 2.54 9.35
5/21/2021 7:45:00 PM 16.68 62.024 0.046 6.64 2.39 9.33
5/21/2021 8:00:00 PM 16.64 61.952 0.046 6.62 2.51 9.29
5/21/2021 8:15:00 PM 16.61 61.898 0.046 6.6 2.4 9.25
5/21/2021 8:30:00 PM 16.56 61.808 0.046 6.59 2.44 9.21
5/21/2021 8:45:00 PM 16.51 61.718 0.046 6.57 2.51 9.18
5/21/2021 9:00:00 PM 16.46 61.628 0.046 6.57 2.52 9.17
5/21/2021 9:15:00 PM 16.39 61.502 0.046 6.55 2.56 9.15
5/21/2021 9:30:00 PM 16.32 61.376 0.046 6.54 2.51 9.16
5/21/2021 9:45:00 PM 16.24 61.232 0.047 6.54 2.59 9.16
5/21/2021 10:00:00 PM 16.16 61.088 0.047 6.54 2.56 9.17
5/21/2021 10:15:00 PM 16.07 60.926 0.047 6.53 2.59 9.19
5/21/2021 10:30:00 PM 15.98 60.764 0.047 6.53 2.61 9.21
5/21/2021 10:45:00 PM 15.89 60.602 0.046 6.53 2.62 9.23
5/21/2021 11:00:00 PM 15.8 60.44 0.046 6.52 2.5 9.26
5/21/2021 11:15:00 PM 15.71 60.278 0.046 6.52 2.67 9.27
5/21/2021 11:30:00 PM 15.63 60.134 0.047 6.53 2.72 9.29
5/21/2021 11:45:00 PM 15.54 59.972 0.047 6.52 2.62 9.3
5/22/2021 12:00:00 AM 15.46 59.828 0.047 6.52 2.45 9.31
5/22/2021 12:15:00 AM 15.38 59.684 0.047 6.52 2.57 9.33
5/22/2021 12:30:00 AM 15.3 59.54 0.047 6.53 2.54 9.35
5/22/2021 12:45:00 AM 15.23 59.414 0.047 6.53 2.6 9.37
5/22/2021 1:00:00 AM 15.15 59.27 0.047 6.53 2.62 9.39
5/22/2021 1:15:00 AM 15.09 59.162 0.047 6.52 2.66 9.4
5/22/2021 1:30:00 AM 15.02 59.036 0.047 6.53 2.55 9.42
5/22/2021 1:45:00 AM 14.95 58.91 0.047 6.52 2.7 9.41
5/22/2021 2:00:00 AM 14.9 58.82 0.047 6.52 2.67 9.42
5/22/2021 2:15:00 AM 14.84 58.712 0.047 6.52 2.61 9.42
5/22/2021 2:30:00 AM 14.78 58.604 0.047 6.51 2.75 9.44
5/22/2021 2:45:00 AM 14.72 58.496 0.048 6.51 2.56 9.45
5/22/2021 3:00:00 AM 14.67 58.406 0.047 6.52 2.63 9.46
5/22/2021 3:15:00 AM 14.63 58.334 0.048 6.52 2.69 9.48
5/22/2021 3:30:00 AM 14.59 58.262 0.048 6.52 2.72 9.5
5/22/2021 3:45:00 AM 14.55 58.19 0.048 6.52 2.62 9.5
5/22/2021 4:00:00 AM 14.51 58.118 0.047 6.52 2.58 9.52
5/22/2021 4:15:00 AM 14.46 58.028 0.048 6.52 2.56 9.53
5/22/2021 4:30:00 AM 14.42 57.956 0.048 6.51 2.68 9.52
5/22/2021 4:45:00 AM 14.37 57.866 0.048 6.52 2.61 9.55
5/22/2021 5:00:00 AM 14.33 57.794 0.048 6.51 2.61 9.53
5/22/2021 5:15:00 AM 14.28 57.704 0.048 6.51 2.5 9.55
5/22/2021 5:30:00 AM 14.22 57.596 0.048 6.51 2.71 9.55
5/22/2021 5:45:00 AM 14.17 57.506 0.048 6.51 2.56 9.58
5/22/2021 6:00:00 AM 14.12 57.416 0.048 6.51 2.63 9.6
5/22/2021 6:15:00 AM 14.07 57.326 0.048 6.52 2.54 9.65
5/22/2021 6:30:00 AM 14.03 57.254 0.048 6.53 2.6 9.71
5/22/2021 6:45:00 AM 14 57.2 0.048 6.54 2.58 9.77
5/22/2021 7:00:00 AM 13.96 57.128 0.048 6.55 2.54 9.82
5/22/2021 7:15:00 AM 13.94 57.092 0.047 6.57 2.5 9.88
5/22/2021 7:30:00 AM 13.92 57.056 0.047 6.58 2.41 9.93
5/22/2021 7:45:00 AM 13.93 57.074 0.047 6.6 2.54 9.98
5/22/2021 8:00:00 AM 13.94 57.092 0.047 6.61 2.42 10.05
5/22/2021 8:15:00 AM 13.96 57.128 0.047 6.62 2.43 10.1
5/22/2021 8:30:00 AM 14.01 57.218 0.047 6.64 2.36 10.11
5/22/2021 8:45:00 AM 14.05 57.29 0.047 6.65 2.45 10.14
5/22/2021 9:00:00 AM 14.1 57.38 0.047 6.66 2.55 10.16
5/22/2021 9:15:00 AM 14.13 57.434 0.047 6.66 2.39 10.16
5/22/2021 9:30:00 AM 14.22 57.596 0.047 6.67 2.45 10.18
5/22/2021 9:45:00 AM 14.31 57.758 0.047 6.69 2.39 10.18
5/22/2021 10:00:00 AM 14.39 57.902 0.047 6.7 2.45 10.18
5/22/2021 10:15:00 AM 14.45 58.01 0.047 6.71 2.42 10.17
5/22/2021 10:30:00 AM 14.57 58.226 0.047 6.72 2.46 10.17
5/22/2021 10:45:00 AM 14.69 58.442 0.047 6.73 2.4 10.15
5/22/2021 11:00:00 AM 14.74 58.532 0.047 6.74 2.31 10.13
5/22/2021 11:15:00 AM 14.88 58.784 0.047 6.75 2.44 10.12
5/22/2021 11:30:00 AM 15.05 59.09 0.047 6.76 2.31 10.12
5/22/2021 11:45:00 AM 15.09 59.162 0.047 6.75 2.28 10.07
5/22/2021 12:00:00 PM 15.16 59.288 0.047 6.76 2.35 10.05
5/22/2021 12:15:00 PM 15.27 59.486 0.047 6.77 2.4 10.05
5/22/2021 12:30:00 PM 15.4 59.72 0.047 6.78 2.34 10.03
5/22/2021 12:45:00 PM 15.56 60.008 0.047 6.8 2.33 10.01
5/22/2021 1:00:00 PM 15.76 60.368 0.047 6.82 2.31 10.01
5/22/2021 1:15:00 PM 15.89 60.602 0.047 6.81 2.38 9.97
5/22/2021 1:30:00 PM 15.99 60.782 0.047 6.82 2.33 9.94
5/22/2021 1:45:00 PM 16.06 60.908 0.047 6.8 2.31 9.89
5/22/2021 2:00:00 PM 16.11 60.998 0.047 6.8 2.37 9.87
5/22/2021 2:15:00 PM 16.18 61.124 0.047 6.8 2.29 9.86
5/22/2021 2:30:00 PM 16.32 61.376 0.047 6.82 2.33 9.8
5/22/2021 2:45:00 PM 16.44 61.592 0.047 6.81 2.33 9.81
5/22/2021 3:00:00 PM 16.54 61.772 0.046 6.8 2.29 9.77
5/22/2021 3:15:00 PM 16.58 61.844 0.046 6.79 2.36 9.73
5/22/2021 3:30:00 PM 16.67 62.006 0.046 6.8 2.28 9.72
5/22/2021 3:45:00 PM 16.72 62.096 0.047 6.79 2.32 9.69
5/22/2021 4:00:00 PM 16.71 62.078 0.047 6.78 2.27 9.65
5/22/2021 4:15:00 PM 16.71 62.078 0.047 6.77 2.28 9.64
5/22/2021 4:30:00 PM 16.72 62.096 0.047 6.77 2.29 9.62
5/22/2021 4:45:00 PM 16.72 62.096 0.047 6.77 2.39 9.62
5/22/2021 5:00:00 PM 16.72 62.096 0.047 6.77 2.22 9.6
5/22/2021 5:15:00 PM 16.77 62.186 0.047 6.77 2.27 9.58
5/22/2021 5:30:00 PM 16.76 62.168 0.047 6.76 2.37 9.56
5/22/2021 5:45:00 PM 16.76 62.168 0.047 6.75 2.2 9.54
5/22/2021 6:00:00 PM 16.73 62.114 0.047 6.75 2.25 9.51
5/22/2021 6:15:00 PM 16.68 62.024 0.047 6.74 2.22 9.48
5/22/2021 6:30:00 PM 16.62 61.916 0.047 6.71 2.38 9.43
5/22/2021 6:45:00 PM 16.57 61.826 0.047 6.7 2.28 9.39
5/22/2021 7:00:00 PM 16.54 61.772 0.047 6.69 2.29 9.38
5/22/2021 7:15:00 PM 16.5 61.7 0.047 6.67 2.28 9.39
5/22/2021 7:30:00 PM 16.48 61.664 0.047 6.67 2.26 9.37
5/22/2021 7:45:00 PM 16.44 61.592 0.047 6.66 2.33 9.32
5/22/2021 8:00:00 PM 16.41 61.538 0.047 6.65 2.28 9.29
5/22/2021 8:15:00 PM 16.36 61.448 0.048 6.63 2.37 9.24
5/22/2021 8:30:00 PM 16.3 61.34 0.048 6.62 2.53 9.19
5/22/2021 8:45:00 PM 16.24 61.232 0.048 6.61 2.43 9.16
5/22/2021 9:00:00 PM 16.18 61.124 0.048 6.61 2.29 9.12
5/22/2021 9:15:00 PM 16.13 61.034 0.048 6.6 2.33 9.12
5/22/2021 9:30:00 PM 16.08 60.944 0.048 6.6 2.28 9.11
5/22/2021 9:45:00 PM 16.03 60.854 0.048 6.61 2.4 9.13
5/22/2021 10:00:00 PM 15.97 60.746 0.048 6.59 2.33 9.13
5/22/2021 10:15:00 PM 15.92 60.656 0.048 6.58 2.39 9.14
5/22/2021 10:30:00 PM 15.86 60.548 0.048 6.57 2.47 9.14
5/22/2021 10:45:00 PM 15.8 60.44 0.048 6.56 2.44 9.15
5/22/2021 11:00:00 PM 15.75 60.35 0.048 6.57 2.33 9.17
5/22/2021 11:15:00 PM 15.7 60.26 0.049 6.57 2.48 9.17
5/22/2021 11:30:00 PM 15.65 60.17 0.049 6.57 2.38 9.18
5/22/2021 11:45:00 PM 15.59 60.062 0.049 6.57 2.45 9.2
5/23/2021 12:00:00 AM 15.54 59.972 0.049 6.57 2.41 9.2
5/23/2021 12:15:00 AM 15.49 59.882 0.049 6.57 2.43 9.21
5/23/2021 12:30:00 AM 15.45 59.81 0.049 6.57 2.42 9.22
5/23/2021 12:45:00 AM 15.4 59.72 0.049 6.58 2.43 9.23
5/23/2021 1:00:00 AM 15.36 59.648 0.049 6.58 2.71 9.23
5/23/2021 1:15:00 AM 15.33 59.594 0.049 6.57 2.49 9.25
5/23/2021 1:30:00 AM 15.28 59.504 0.049 6.57 2.29 9.27
5/23/2021 1:45:00 AM 15.23 59.414 0.049 6.57 2.37 9.28
5/23/2021 2:00:00 AM 15.19 59.342 0.049 6.57 2.48 9.27
5/23/2021 2:15:00 AM 15.14 59.252 0.049 6.57 2.5 9.29
5/23/2021 2:30:00 AM 15.09 59.162 0.049 6.56 2.48 9.29
5/23/2021 2:45:00 AM 15.05 59.09 0.049 6.56 2.48 9.3
5/23/2021 3:00:00 AM 15 59 0.049 6.56 2.5 9.31
5/23/2021 3:15:00 AM 14.96 58.928 0.049 6.57 2.53 9.32
5/23/2021 3:30:00 AM 14.92 58.856 0.049 6.57 2.41 9.32
5/23/2021 3:45:00 AM 14.87 58.766 0.049 6.57 2.48 9.33
5/23/2021 4:00:00 AM 14.82 58.676 0.049 6.56 2.38 9.33
5/23/2021 4:15:00 AM 14.77 58.586 0.049 6.57 2.39 9.35
5/23/2021 4:30:00 AM 14.72 58.496 0.049 6.57 2.56 9.37
5/23/2021 4:45:00 AM 14.66 58.388 0.049 6.57 2.46 9.37
5/23/2021 5:00:00 AM 14.62 58.316 0.049 6.57 2.47 9.39
5/23/2021 5:15:00 AM 14.57 58.226 0.049 6.57 2.49 9.38
5/23/2021 5:30:00 AM 14.52 58.136 0.049 6.57 2.44 9.41
5/23/2021 5:45:00 AM 14.47 58.046 0.049 6.57 2.33 9.42
5/23/2021 6:00:00 AM 14.43 57.974 0.049 6.58 2.36 9.47
5/23/2021 6:15:00 AM 14.41 57.938 0.049 6.58 2.44 9.52
5/23/2021 6:30:00 AM 14.41 57.938 0.049 6.6 2.36 9.6
5/23/2021 6:45:00 AM 14.37 57.866 0.049 6.6 2.2 9.6
5/23/2021 7:00:00 AM 14.35 57.83 0.049 6.61 2.35 9.63
5/23/2021 7:15:00 AM 14.34 57.812 0.049 6.62 2.2 9.7
5/23/2021 7:30:00 AM 14.36 57.848 0.049 6.64 2.35 9.78
5/23/2021 7:45:00 AM 14.37 57.866 0.049 6.66 2.41 9.83
5/23/2021 8:00:00 AM 14.37 57.866 0.049 6.67 2.48 9.85
5/23/2021 8:15:00 AM 14.42 57.956 0.049 6.69 2.39 9.91
5/23/2021 8:30:00 AM 14.47 58.046 0.049 6.71 2.34 9.94
5/23/2021 8:45:00 AM 14.52 58.136 0.049 6.73 2.34 9.95
5/23/2021 9:00:00 AM 14.63 58.334 0.049 6.74 2.18 9.97
5/23/2021 9:15:00 AM 14.76 58.568 0.049 6.76 2.19 9.95
5/23/2021 9:30:00 AM 14.9 58.82 0.049 6.76 2.22 9.92
5/23/2021 9:45:00 AM 15.08 59.144 0.049 6.78 2.3 9.95
5/23/2021 10:00:00 AM 15.22 59.396 0.049 6.79 2.31 9.95
5/23/2021 10:15:00 AM 15.38 59.684 0.049 6.81 2.27 9.95
5/23/2021 10:30:00 AM 15.58 60.044 0.049 6.83 2.3 9.92
5/23/2021 10:45:00 AM 15.8 60.44 0.049 6.84 2.3 9.92
5/23/2021 11:00:00 AM 16.04 60.872 0.049 6.85 2.27 9.91
5/23/2021 11:15:00 AM 16.14 61.052 0.049 6.84 2.39 9.82
5/23/2021 11:30:00 AM 16.31 61.358 0.049 6.85 2.26 9.77
5/23/2021 11:45:00 AM 16.44 61.592 0.049 6.86 2.39 9.77
5/23/2021 12:00:00 PM 16.7 62.06 0.048 6.86 2.21 9.7
5/23/2021 12:15:00 PM 16.92 62.456 0.048 6.87 2.23 9.67
5/23/2021 12:30:00 PM 17.09 62.762 0.048 6.87 2.39 9.64
5/23/2021 12:45:00 PM 17.21 62.978 0.048 6.86 2.23 9.54
5/23/2021 1:00:00 PM 17.41 63.338 0.048 6.89 2.27 9.55
5/23/2021 1:15:00 PM 17.68 63.824 0.048 6.9 2.31 9.55
5/23/2021 1:30:00 PM 17.9 64.22 0.048 6.91 2.33 9.51
5/23/2021 1:45:00 PM 18.07 64.526 0.048 6.91 2.24 9.49
5/23/2021 2:00:00 PM 18.13 64.634 0.048 6.9 2.2 9.38
5/23/2021 2:15:00 PM 18.42 65.156 0.048 6.9 2.15 9.43
5/23/2021 2:30:00 PM 18.47 65.246 0.048 6.92 2.29 9.38
5/23/2021 2:45:00 PM 18.46 65.228 0.048 6.92 2.23 9.38
5/23/2021 3:00:00 PM 18.7 65.66 0.048 6.92 2.21 9.36
5/23/2021 3:15:00 PM 18.85 65.93 0.048 6.93 2.27 9.32
5/23/2021 3:30:00 PM 18.94 66.092 0.048 6.93 2.18 9.31
5/23/2021 3:45:00 PM 18.89 66.002 0.048 6.92 2.5 9.25
5/23/2021 4:00:00 PM 18.91 66.038 0.048 6.91 2.26 9.24
5/23/2021 4:15:00 PM 18.87 65.966 0.048 6.9 2.27 9.2
5/23/2021 4:30:00 PM 18.86 65.948 0.048 6.9 2.21 9.2
5/23/2021 4:45:00 PM 18.91 66.038 0.048 6.91 2.34 9.18
5/23/2021 5:00:00 PM 18.94 66.092 0.048 6.9 2.15 9.13
5/23/2021 5:15:00 PM 19 66.2 0.048 6.91 2.2 9.14
5/23/2021 5:30:00 PM 18.95 66.11 0.048 6.89 2.14 9.09
5/23/2021 5:45:00 PM 18.86 65.948 0.048 6.88 2.11 9.09
5/23/2021 6:00:00 PM 18.77 65.786 0.048 6.87 2.14 9.05
5/23/2021 6:15:00 PM 18.66 65.588 0.048 6.86 2.23 9.04
5/23/2021 6:30:00 PM 18.56 65.408 0.048 6.84 2.18 9
5/23/2021 6:45:00 PM 18.47 65.246 0.048 6.83 2.27 9.02
5/23/2021 7:00:00 PM 18.39 65.102 0.048 6.82 2.2 9.02
5/23/2021 7:15:00 PM 18.29 64.922 0.048 6.81 2.15 8.96
5/23/2021 7:30:00 PM 18.19 64.742 0.049 6.78 2.25 8.9
5/23/2021 7:45:00 PM 18.11 64.598 0.049 6.78 2.33 8.89
5/23/2021 8:00:00 PM 18.01 64.418 0.049 6.77 2.3 8.88
5/23/2021 8:15:00 PM 17.92 64.256 0.049 6.77 2.22 8.86
5/23/2021 8:30:00 PM 17.81 64.058 0.049 6.74 2.16 8.81
5/23/2021 8:45:00 PM 17.72 63.896 0.049 6.73 2.26 8.78
5/23/2021 9:00:00 PM 17.61 63.698 0.049 6.73 2.3 8.78
5/23/2021 9:15:00 PM 17.49 63.482 0.049 6.72 2.23 8.79
5/23/2021 9:30:00 PM 17.38 63.284 0.049 6.71 2.35 8.75
5/23/2021 9:45:00 PM 17.27 63.086 0.049 6.71 2.34 8.79
5/23/2021 10:00:00 PM 17.16 62.888 0.049 6.71 2.41 8.82
5/23/2021 10:15:00 PM 17.04 62.672 0.049 6.7 2.42 8.83
5/23/2021 10:30:00 PM 16.92 62.456 0.05 6.7 2.38 8.84
5/23/2021 10:45:00 PM 16.8 62.24 0.05 6.7 2.37 8.88
5/23/2021 11:00:00 PM 16.69 62.042 0.05 6.7 2.27 8.9
5/23/2021 11:15:00 PM 16.58 61.844 0.05 6.7 2.43 8.94
5/23/2021 11:30:00 PM 16.46 61.628 0.05 6.7 2.36 8.97
5/23/2021 11:45:00 PM 16.36 61.448 0.05 6.71 2.48 8.99
5/24/2021 12:00:00 AM 16.25 61.25 0.05 6.7 2.66 9.01
5/24/2021 12:15:00 AM 16.15 61.07 0.05 6.7 2.51 9.03
5/24/2021 12:30:00 AM 16.05 60.89 0.05 6.71 2.56 9.06
5/24/2021 12:45:00 AM 15.94 60.692 0.05 6.7 2.41 9.06
5/24/2021 1:00:00 AM 15.84 60.512 0.05 6.71 2.38 9.11
5/24/2021 1:15:00 AM 15.76 60.368 0.05 6.7 2.4 9.12
5/24/2021 1:30:00 AM 15.66 60.188 0.05 6.7 2.55 9.14
5/24/2021 1:45:00 AM 15.57 60.026 0.05 6.7 2.45 9.17
5/24/2021 2:00:00 AM 15.49 59.882 0.05 6.7 2.51 9.17
5/24/2021 2:15:00 AM 15.39 59.702 0.05 6.69 2.5 9.19
5/24/2021 2:30:00 AM 15.3 59.54 0.05 6.69 2.38 9.21
5/24/2021 2:45:00 AM 15.23 59.414 0.05 6.69 2.42 9.24
5/24/2021 3:00:00 AM 15.15 59.27 0.05 6.69 2.38 9.24
5/24/2021 3:15:00 AM 15.07 59.126 0.05 6.69 2.41 9.27
5/24/2021 3:30:00 AM 14.99 58.982 0.05 6.69 2.55 9.29
5/24/2021 3:45:00 AM 14.91 58.838 0.05 6.69 2.54 9.3
5/24/2021 4:00:00 AM 14.83 58.694 0.05 6.69 2.53 9.31
5/24/2021 4:15:00 AM 14.77 58.586 0.05 6.69 2.49 9.33
5/24/2021 4:30:00 AM 14.69 58.442 0.05 6.69 2.47 9.35
5/24/2021 4:45:00 AM 14.61 58.298 0.05 6.69 2.4 9.37
5/24/2021 5:00:00 AM 14.54 58.172 0.05 6.69 2.44 9.4
5/24/2021 5:15:00 AM 14.47 58.046 0.05 6.68 2.44 9.41
5/24/2021 5:30:00 AM 14.41 57.938 0.05 6.68 2.5 9.42
5/24/2021 5:45:00 AM 14.35 57.83 0.05 6.68 2.36 9.45
5/24/2021 6:00:00 AM 14.29 57.722 0.05 6.69 2.45 9.49
5/24/2021 6:15:00 AM 14.23 57.614 0.05 6.69 2.47 9.51
5/24/2021 6:30:00 AM 14.19 57.542 0.05 6.7 2.33 9.58
5/24/2021 6:45:00 AM 14.16 57.488 0.05 6.71 2.48 9.64
5/24/2021 7:00:00 AM 14.14 57.452 0.05 6.73 2.62 9.74
5/24/2021 7:15:00 AM 14.12 57.416 0.05 6.74 2.59 9.79
5/24/2021 7:30:00 AM 14.1 57.38 0.05 6.76 2.28 9.87
5/24/2021 7:45:00 AM 14.11 57.398 0.05 6.78 2.53 9.93
5/24/2021 8:00:00 AM 14.12 57.416 0.049 6.79 2.37 10
5/24/2021 8:15:00 AM 14.17 57.506 0.049 6.81 2.48 10.08
5/24/2021 8:30:00 AM 14.21 57.578 0.049 6.83 2.31 10.12
5/24/2021 8:45:00 AM 14.27 57.686 0.049 6.85 3.03 10.14
5/24/2021 9:00:00 AM 14.33 57.794 0.049 6.85 2.37 10.15
5/24/2021 9:15:00 AM 14.4 57.92 0.049 6.87 2.3 10.15
5/24/2021 9:30:00 AM 14.42 57.956 0.049 6.87 2.39 10.16
5/24/2021 9:45:00 AM 14.52 58.136 0.049 6.89 3.25 10.18
5/24/2021 10:00:00 AM 14.58 58.244 0.049 6.9 2.18 10.19
5/24/2021 10:15:00 AM 14.61 58.298 0.049 6.91 2.23 10.2
5/24/2021 10:30:00 AM 14.68 58.424 0.049 6.91 2.34 10.21
5/24/2021 10:45:00 AM 14.81 58.658 0.049 6.93 14.07 10.2
5/24/2021 11:00:00 AM 14.92 58.856 0.049 6.93 2.56 10.18
5/24/2021 11:15:00 AM 15.04 59.072 0.049 6.94 2.29 10.18
5/24/2021 11:30:00 AM 15.36 59.648 0.049 6.96 2.23 10.17
5/24/2021 11:45:00 AM 15.7 60.26 0.049 6.97 2.25 10.13
5/24/2021 12:00:00 PM 15.93 60.674 0.049 6.97 2.23 10.08
5/24/2021 12:15:00 PM 16.17 61.106 0.049 6.99 2.3 10.02
5/24/2021 12:30:00 PM 16.16 61.088 0.049 6.98 2.17 9.99
5/24/2021 12:45:00 PM 16.1 60.98 0.049 6.98 2.2 9.98
5/24/2021 1:00:00 PM 16.04 60.872 0.049 6.96 2.17 9.93
5/24/2021 1:15:00 PM 16.01 60.818 0.049 6.94 2.23 9.91
5/24/2021 1:30:00 PM 16 60.8 0.049 6.93 2.21 9.88
5/24/2021 1:45:00 PM 15.96 60.728 0.049 6.92 2.23 9.83
5/24/2021 2:00:00 PM 15.93 60.674 0.049 6.91 2.18 9.83
5/24/2021 2:15:00 PM 15.92 60.656 0.049 6.91 2.09 9.84
5/24/2021 2:30:00 PM 15.91 60.638 0.049 6.93 2.13 9.87
5/24/2021 2:45:00 PM 15.9 60.62 0.049 6.93 2.2 9.89
5/24/2021 3:00:00 PM 15.86 60.548 0.049 6.92 2.13 9.88
5/24/2021 3:15:00 PM 15.79 60.422 0.049 6.91 2.2 9.87
5/24/2021 3:30:00 PM 15.72 60.296 0.049 6.9 2.17 9.85
5/24/2021 3:45:00 PM 15.65 60.17 0.049 6.88 2.2 9.81
5/24/2021 4:00:00 PM 15.58 60.044 0.049 6.88 2.28 9.81
5/24/2021 4:15:00 PM 15.51 59.918 0.049 6.87 2.23 9.82
5/24/2021 4:30:00 PM 15.44 59.792 0.049 6.87 2.32 9.81
5/24/2021 4:45:00 PM 15.38 59.684 0.049 6.86 2.16 9.78
5/24/2021 5:00:00 PM 15.32 59.576 0.049 6.84 2.1 9.77
5/24/2021 5:15:00 PM 15.26 59.468 0.049 6.83 2.22 9.73
5/24/2021 5:30:00 PM 15.2 59.36 0.049 6.82 2.26 9.71
5/24/2021 5:45:00 PM 15.15 59.27 0.049 6.81 2.25 9.69
5/24/2021 6:00:00 PM 15.09 59.162 0.049 6.8 2.18 9.66
5/24/2021 6:15:00 PM 15.03 59.054 0.049 6.79 2.3 9.62
5/24/2021 6:30:00 PM 14.97 58.946 0.049 6.78 2.24 9.6
5/24/2021 6:45:00 PM 14.91 58.838 0.049 6.77 2.25 9.58
5/24/2021 7:00:00 PM 14.85 58.73 0.049 6.76 2.28 9.56
5/24/2021 7:15:00 PM 14.79 58.622 0.049 6.75 2.26 9.56
5/24/2021 7:30:00 PM 14.73 58.514 0.049 6.75 2.2 9.54
5/24/2021 7:45:00 PM 14.67 58.406 0.05 6.74 2.3 9.52
5/24/2021 8:00:00 PM 14.62 58.316 0.05 6.74 2.25 9.51
5/24/2021 8:15:00 PM 14.57 58.226 0.05 6.72 2.27 9.5
5/24/2021 8:30:00 PM 14.52 58.136 0.05 6.72 2.32 9.49
5/24/2021 8:45:00 PM 14.47 58.046 0.05 6.71 2.18 9.48
5/24/2021 9:00:00 PM 14.42 57.956 0.05 6.71 2.22 9.48
5/24/2021 9:15:00 PM 14.38 57.884 0.05 6.71 2.36 9.48
5/24/2021 9:30:00 PM 14.34 57.812 0.05 6.7 2.28 9.49
5/24/2021 9:45:00 PM 14.3 57.74 0.05 6.7 2.22 9.49
5/24/2021 10:00:00 PM 14.26 57.668 0.05 6.7 2.26 9.49
5/24/2021 10:15:00 PM 14.22 57.596 0.05 6.7 2.33 9.49
5/24/2021 10:30:00 PM 14.18 57.524 0.05 6.7 2.16 9.5
5/24/2021 10:45:00 PM 14.14 57.452 0.05 6.7 2.34 9.51
5/24/2021 11:00:00 PM 14.1 57.38 0.05 6.7 2.22 9.53
5/24/2021 11:15:00 PM 14.06 57.308 0.05 6.7 2.27 9.54
5/24/2021 11:30:00 PM 14.03 57.254 0.05 6.69 2.26 9.54
5/24/2021 11:45:00 PM 13.99 57.182 0.05 6.69 2.2 9.55
5/25/2021 12:00:00 AM 13.96 57.128 0.05 6.7 2.31 9.57
5/25/2021 12:15:00 AM 13.92 57.056 0.05 6.7 2.23 9.59
5/25/2021 12:30:00 AM 13.89 57.002 0.05 6.69 2.29 9.57
5/25/2021 12:45:00 AM 13.85 56.93 0.05 6.7 2.27 9.6
5/25/2021 1:00:00 AM 13.81 56.858 0.05 6.7 2.31 9.59
5/25/2021 1:15:00 AM 13.78 56.804 0.05 6.7 2.3 9.61
5/25/2021 1:30:00 AM 13.74 56.732 0.05 6.69 2.27 9.61
5/25/2021 1:45:00 AM 13.7 56.66 0.05 6.7 2.27 9.63
5/25/2021 2:00:00 AM 13.66 56.588 0.05 6.69 2.28 9.63
5/25/2021 2:15:00 AM 13.63 56.534 0.05 6.69 2.3 9.62
5/25/2021 2:30:00 AM 13.59 56.462 0.05 6.69 2.31 9.63
5/25/2021 2:45:00 AM 13.55 56.39 0.05 6.69 2.43 9.65
5/25/2021 3:00:00 AM 13.52 56.336 0.05 6.7 2.33 9.65
5/25/2021 3:15:00 AM 13.48 56.264 0.05 6.7 2.33 9.67
5/25/2021 3:30:00 AM 13.45 56.21 0.05 6.69 2.15 9.67
5/25/2021 3:45:00 AM 13.41 56.138 0.05 6.69 2.28 9.68
5/25/2021 4:00:00 AM 13.38 56.084 0.05 6.7 2.24 9.7
5/25/2021 4:15:00 AM 13.35 56.03 0.05 6.69 2.28 9.7
5/25/2021 4:30:00 AM 13.32 55.976 0.05 6.69 2.4 9.71
5/25/2021 4:45:00 AM 13.28 55.904 0.05 6.69 2.27 9.7
5/25/2021 5:00:00 AM 13.25 55.85 0.05 6.69 2.33 9.73
5/25/2021 5:15:00 AM 13.23 55.814 0.05 6.69 2.1 9.73
5/25/2021 5:30:00 AM 13.2 55.76 0.05 6.69 2.57 9.75
5/25/2021 5:45:00 AM 13.17 55.706 0.05 6.69 2.27 9.75
5/25/2021 6:00:00 AM 13.14 55.652 0.05 6.7 2.23 9.78
5/25/2021 6:15:00 AM 13.12 55.616 0.05 6.72 2.2 9.8
5/25/2021 6:30:00 AM 13.09 55.562 0.05 6.72 2.14 9.8
5/25/2021 6:45:00 AM 13.07 55.526 0.05 6.72 2.18 9.86
5/25/2021 7:00:00 AM 13.06 55.508 0.05 6.72 2.11 9.9
5/25/2021 7:15:00 AM 13.05 55.49 0.05 6.73 2.17 9.93
5/25/2021 7:30:00 AM 13.04 55.472 0.05 6.73 2.21 9.98
5/25/2021 7:45:00 AM 13.04 55.472 0.05 6.75 2.11 10.07
5/25/2021 8:00:00 AM 13.05 55.49 0.05 6.77 2.14 10.13
5/25/2021 8:15:00 AM 13.07 55.526 0.05 6.79 2.24 10.21
5/25/2021 8:30:00 AM 13.1 55.58 0.05 6.81 2.02 10.24
5/25/2021 8:45:00 AM 13.16 55.688 0.05 6.82 2.06 10.34
5/25/2021 9:00:00 AM 13.23 55.814 0.05 6.85 2.19 10.35
5/25/2021 9:15:00 AM 13.31 55.958 0.05 6.87 2.11 10.42
5/25/2021 9:30:00 AM 13.4 56.12 0.05 6.88 2.09 10.42
5/25/2021 9:45:00 AM 13.49 56.282 0.049 6.89 2.12 10.43
5/25/2021 10:00:00 AM 13.58 56.444 0.049 6.91 2.16 10.44
5/25/2021 10:15:00 AM 13.75 56.75 0.049 6.93 2.07 10.42
5/25/2021 10:30:00 AM 13.86 56.948 0.049 6.94 2.28 10.44
5/25/2021 10:45:00 AM 13.99 57.182 0.049 6.95 2.06 10.43
5/25/2021 11:00:00 AM 14.22 57.596 0.049 6.97 1.97 10.4
5/25/2021 11:15:00 AM 14.34 57.812 0.049 6.97 2.09 10.39
5/25/2021 11:30:00 AM 14.4 57.92 0.049 6.97 2.18 10.36
5/25/2021 11:45:00 AM 14.4 57.92 0.049 6.96 2.13 10.34
5/25/2021 12:00:00 PM 14.46 58.028 0.049 6.97 16.73 10.32
5/25/2021 12:15:00 PM 14.61 58.298 0.049 6.98 2.17 10.32
5/25/2021 12:30:00 PM 14.95 58.91 0.049 7.01 2.05 10.28
5/25/2021 12:45:00 PM 15.49 59.882 0.049 7.02 2.07 10.22
5/25/2021 1:00:00 PM 15.92 60.656 0.049 7.02 2.02 10.13
5/25/2021 1:15:00 PM 16.12 61.016 0.049 7.01 2.03 10.08
5/25/2021 1:30:00 PM 16.18 61.124 0.049 7.01 2.06 10.05
5/25/2021 1:45:00 PM 16.23 61.214 0.049 7 2 10.05
5/25/2021 2:00:00 PM 16.41 61.538 0.049 6.99 1.99 10.03
5/25/2021 2:15:00 PM 16.61 61.898 0.049 6.99 2.04 9.97
5/25/2021 2:30:00 PM 16.81 62.258 0.049 6.99 1.94 9.89
5/25/2021 2:45:00 PM 17.08 62.744 0.049 6.99 2.03 9.82
5/25/2021 3:00:00 PM 17.34 63.212 0.049 7 2.02 9.78
5/25/2021 3:15:00 PM 17.52 63.536 0.049 7 2.04 9.71
5/25/2021 3:30:00 PM 17.62 63.716 0.049 6.99 1.96 9.67
5/25/2021 3:45:00 PM 17.67 63.806 0.049 6.98 2.03 9.64
5/25/2021 4:00:00 PM 17.74 63.932 0.049 6.98 2.09 9.59
5/25/2021 4:15:00 PM 17.77 63.986 0.049 6.97 1.99 9.54
5/25/2021 4:30:00 PM 17.8 64.04 0.049 6.96 1.93 9.51
5/25/2021 4:45:00 PM 17.81 64.058 0.049 6.96 1.99 9.47
5/25/2021 5:00:00 PM 17.81 64.058 0.049 6.95 2.05 9.44
5/25/2021 5:15:00 PM 17.8 64.04 0.049 6.93 2.04 9.4
5/25/2021 5:30:00 PM 17.75 63.95 0.049 6.92 2.17 9.36
5/25/2021 5:45:00 PM 17.68 63.824 0.049 6.91 2.05 9.33
5/25/2021 6:00:00 PM 17.61 63.698 0.05 6.89 2.08 9.31
5/25/2021 6:15:00 PM 17.52 63.536 0.05 6.89 2.05 9.31
5/25/2021 6:30:00 PM 17.42 63.356 0.05 6.88 2.06 9.29
5/25/2021 6:45:00 PM 17.28 63.104 0.05 6.86 1.96 9.27
5/25/2021 7:00:00 PM 17.17 62.906 0.05 6.85 2.11 9.27
5/25/2021 7:15:00 PM 17.05 62.69 0.05 6.83 2.23 9.24
5/25/2021 7:30:00 PM 16.93 62.474 0.05 6.82 1.96 9.22
5/25/2021 7:45:00 PM 16.82 62.276 0.05 6.8 2.13 9.19
5/25/2021 8:00:00 PM 16.72 62.096 0.05 6.79 2.13 9.13
5/25/2021 8:15:00 PM 16.63 61.934 0.05 6.77 2.06 9.1
5/25/2021 8:30:00 PM 16.55 61.79 0.05 6.75 2.15 9.04
5/25/2021 8:45:00 PM 16.48 61.664 0.05 6.75 2.05 9.05
5/25/2021 9:00:00 PM 16.42 61.556 0.05 6.73 2.12 9.02
5/25/2021 9:15:00 PM 16.38 61.484 0.05 6.72 2.14 9
5/25/2021 9:30:00 PM 16.34 61.412 0.05 6.73 2.06 9
5/25/2021 9:45:00 PM 16.3 61.34 0.05 6.73 2.17 9.01
5/25/2021 10:00:00 PM 16.25 61.25 0.051 6.72 2.1 8.99
5/25/2021 10:15:00 PM 16.21 61.178 0.05 6.73 2.22 9.03
5/25/2021 10:30:00 PM 16.15 61.07 0.051 6.72 2.12 9.02
5/25/2021 10:45:00 PM 16.1 60.98 0.051 6.72 2.11 9.02
5/25/2021 11:00:00 PM 16.04 60.872 0.051 6.72 2.2 9.04
5/25/2021 11:15:00 PM 15.98 60.764 0.051 6.71 2.19 9.03
5/25/2021 11:30:00 PM 15.91 60.638 0.051 6.71 2.45 9.06
5/25/2021 11:45:00 PM 15.85 60.53 0.051 6.71 14.04 9.08
5/26/2021 12:00:00 AM 15.78 60.404 0.051 6.71 2.49 9.08
5/26/2021 12:15:00 AM 15.72 60.296 0.051 6.7 2.14 9.1
5/26/2021 12:30:00 AM 15.67 60.206 0.051 6.71 2.29 9.12
5/26/2021 12:45:00 AM 15.61 60.098 0.051 6.7 2.25 9.12
5/26/2021 1:00:00 AM 15.55 59.99 0.051 6.7 2.06 9.14
5/26/2021 1:15:00 AM 15.49 59.882 0.051 6.69 2.16 9.14
5/26/2021 1:30:00 AM 15.43 59.774 0.051 6.69 2.4 9.16
5/26/2021 1:45:00 AM 15.37 59.666 0.051 6.69 2.21 9.16
5/26/2021 2:00:00 AM 15.31 59.558 0.051 6.68 2.2 9.19
5/26/2021 2:15:00 AM 15.26 59.468 0.051 6.68 2.54 9.19
5/26/2021 2:30:00 AM 15.2 59.36 0.051 6.68 2.19 9.22
5/26/2021 2:45:00 AM 15.15 59.27 0.051 6.68 2.13 9.23
5/26/2021 3:00:00 AM 15.09 59.162 0.051 6.68 2.57 9.23
5/26/2021 3:15:00 AM 15.04 59.072 0.051 6.68 2.42 9.23
5/26/2021 3:30:00 AM 14.98 58.964 0.051 6.68 2.14 9.26
5/26/2021 3:45:00 AM 14.92 58.856 0.051 6.68 2.3 9.23
5/26/2021 4:00:00 AM 14.87 58.766 0.051 6.68 2.37 9.26
5/26/2021 4:15:00 AM 14.82 58.676 0.051 6.68 2.15 9.28
5/26/2021 4:30:00 AM 14.76 58.568 0.051 6.68 2.93 9.29
5/26/2021 4:45:00 AM 14.71 58.478 0.051 6.68 2.2 9.3
5/26/2021 5:00:00 AM 14.66 58.388 0.051 6.67 2.12 9.31
5/26/2021 5:15:00 AM 14.6 58.28 0.051 6.68 2.27 9.33
5/26/2021 5:30:00 AM 14.55 58.19 0.051 6.67 2.13 9.33
5/26/2021 5:45:00 AM 14.5 58.1 0.051 6.67 2.13 9.36
5/26/2021 6:00:00 AM 14.45 58.01 0.051 6.67 2.05 9.39
5/26/2021 6:15:00 AM 14.41 57.938 0.051 6.68 2.13 9.44
5/26/2021 6:30:00 AM 14.37 57.866 0.051 6.69 2.11 9.51
5/26/2021 6:45:00 AM 14.35 57.83 0.051 6.7 2.09 9.58
5/26/2021 7:00:00 AM 14.34 57.812 0.051 6.72 2.16 9.67
5/26/2021 7:15:00 AM 14.32 57.776 0.05 6.74 3 9.74
5/26/2021 7:30:00 AM 14.33 57.794 0.05 6.75 2.04 9.82
5/26/2021 7:45:00 AM 14.36 57.848 0.05 6.78 2.02 9.88
5/26/2021 8:00:00 AM 14.42 57.956 0.05 6.81 2.05 9.97
5/26/2021 8:15:00 AM 14.51 58.118 0.05 6.84 2.06 10.06
5/26/2021 8:30:00 AM 14.6 58.28 0.05 6.85 2.23 10.1
5/26/2021 8:45:00 AM 14.65 58.37 0.05 6.86 2.05 10.09
5/26/2021 9:00:00 AM 14.81 58.658 0.05 6.88 2.05 10.1
5/26/2021 9:15:00 AM 14.92 58.856 0.05 6.9 1.99 10.11
5/26/2021 9:30:00 AM 15.04 59.072 0.05 6.93 2.11 10.15
5/26/2021 9:45:00 AM 15.13 59.234 0.05 6.95 2.06 10.14
5/26/2021 10:00:00 AM 15.28 59.504 0.05 6.97 2.23 10.15
5/26/2021 10:15:00 AM 15.46 59.828 0.05 7 1.92 10.12
5/26/2021 10:30:00 AM 15.6 60.08 0.05 6.99 1.95 10.07
5/26/2021 10:45:00 AM 15.9 60.62 0.05 7.01 2.08 10.09
5/26/2021 11:00:00 AM 16.08 60.944 0.05 7.03 1.98 10.05
5/26/2021 11:15:00 AM 16.12 61.016 0.05 7.03 2.06 9.98
5/26/2021 11:30:00 AM 16.26 61.268 0.05 7.04 2.16 9.95
5/26/2021 11:45:00 AM 16.44 61.592 0.05 7.05 1.99 9.94
5/26/2021 12:00:00 PM 16.85 62.33 0.05 7.08 1.98 9.94
5/26/2021 12:15:00 PM 17.25 63.05 0.05 7.09 1.88 9.87
5/26/2021 12:30:00 PM 17.59 63.662 0.05 7.09 2.02 9.81
5/26/2021 12:45:00 PM 17.95 64.31 0.05 7.1 2.02 9.74
5/26/2021 1:00:00 PM 18.31 64.958 0.05 7.1 1.99 9.7
5/26/2021 1:15:00 PM 18.58 65.444 0.05 7.12 2.15 9.65
5/26/2021 1:30:00 PM 18.83 65.894 0.05 7.12 2.18 9.55
5/26/2021 1:45:00 PM 19.06 66.308 0.05 7.12 1.98 9.55
5/26/2021 2:00:00 PM 19.24 66.632 0.05 7.1 1.96 9.49
5/26/2021 2:15:00 PM 19.46 67.028 0.05 7.11 2.02 9.41
5/26/2021 2:30:00 PM 19.59 67.262 0.05 7.1 3.95 9.36
5/26/2021 2:45:00 PM 19.78 67.604 0.05 7.12 2.09 9.34
5/26/2021 3:00:00 PM 19.66 67.388 0.05 7.05 2.35 9.15
5/26/2021 3:15:00 PM 19.51 67.118 0.05 7.01 1.94 9.04
5/26/2021 3:30:00 PM 19.52 67.136 0.05 7 1.94 9.04
5/26/2021 3:45:00 PM 19.66 67.388 0.05 7.02 2.66 9.11
5/26/2021 4:00:00 PM 19.43 66.974 0.05 6.99 6.81 9.02
5/26/2021 4:15:00 PM 19.3 66.74 0.05 6.95 3.02 8.89
5/26/2021 4:30:00 PM 19.19 66.542 0.051 6.91 2.55 8.83
5/26/2021 4:45:00 PM 19.1 66.38 0.05 6.91 2.36 8.88
5/26/2021 5:00:00 PM 19.1 66.38 0.05 6.94 2.26 9.05
5/26/2021 5:15:00 PM 19.02 66.236 0.05 6.96 2.37 9.11
5/26/2021 5:30:00 PM 18.9 66.02 0.05 6.95 2.28 9.12
5/26/2021 5:45:00 PM 18.85 65.93 0.05 6.95 2.22 9.06
5/26/2021 6:00:00 PM 18.8 65.84 0.051 6.93 2.1 9
5/26/2021 6:15:00 PM 18.74 65.732 0.051 6.92 2.29 9.02
5/26/2021 6:30:00 PM 18.67 65.606 0.051 6.92 2.25 9.04
5/26/2021 6:45:00 PM 18.62 65.516 0.051 6.93 2.23 9.04
5/26/2021 7:00:00 PM 18.5 65.3 0.051 6.9 2.12 8.96
5/26/2021 7:15:00 PM 18.42 65.156 0.051 6.87 2.22 8.84
5/26/2021 7:30:00 PM 18.33 64.994 0.052 6.85 2.17 8.74
5/26/2021 7:45:00 PM 18.25 64.85 0.052 6.83 2.16 8.68
5/26/2021 8:00:00 PM 18.18 64.724 0.052 6.82 2.21 8.69
5/26/2021 8:15:00 PM 18.11 64.598 0.052 6.82 2.21 8.68
5/26/2021 8:30:00 PM 18.05 64.49 0.053 6.81 2.09 8.63
5/26/2021 8:45:00 PM 17.99 64.382 0.053 6.8 2.34 8.6
5/26/2021 9:00:00 PM 17.93 64.274 0.054 6.79 2.2 8.58
5/26/2021 9:15:00 PM 17.86 64.148 0.056 6.78 2.26 8.59
5/26/2021 9:30:00 PM 17.79 64.022 0.056 6.78 2.34 8.6
5/26/2021 9:45:00 PM 17.71 63.878 0.056 6.77 2.24 8.61
5/26/2021 10:00:00 PM 17.63 63.734 0.055 6.76 2.27 8.63
5/26/2021 10:15:00 PM 17.56 63.608 0.054 6.75 2.36 8.63
5/26/2021 10:30:00 PM 17.48 63.464 0.054 6.74 2.31 8.61
5/26/2021 10:45:00 PM 17.41 63.338 0.054 6.74 2.27 8.64
5/26/2021 11:00:00 PM 17.35 63.23 0.054 6.74 2.33 8.66
5/26/2021 11:15:00 PM 17.28 63.104 0.054 6.74 2.15 8.69
5/26/2021 11:30:00 PM 17.21 62.978 0.054 6.74 2.29 8.7
5/26/2021 11:45:00 PM 17.14 62.852 0.054 6.74 2.89 8.7
5/27/2021 12:00:00 AM 17.08 62.744 0.055 6.74 2.38 8.72
5/27/2021 12:15:00 AM 17.01 62.618 0.055 6.74 2.51 8.75
5/27/2021 12:30:00 AM 16.94 62.492 0.055 6.74 2.53 8.76
5/27/2021 12:45:00 AM 16.86 62.348 0.055 6.74 2.46 8.78
5/27/2021 1:00:00 AM 16.78 62.204 0.054 6.74 2.43 8.78
5/27/2021 1:15:00 AM 16.7 62.06 0.054 6.75 2.6 8.81
5/27/2021 1:30:00 AM 16.61 61.898 0.054 6.75 2.36 8.84
5/27/2021 1:45:00 AM 16.53 61.754 0.054 6.76 2.43 8.88
5/27/2021 2:00:00 AM 16.44 61.592 0.054 6.76 2.63 8.89
5/27/2021 2:15:00 AM 16.36 61.448 0.054 6.76 2.54 8.9
5/27/2021 2:30:00 AM 16.27 61.286 0.054 6.76 2.65 8.93
5/27/2021 2:45:00 AM 16.18 61.124 0.054 6.76 2.7 8.94
5/27/2021 3:00:00 AM 16.09 60.962 0.055 6.76 2.82 8.96
5/27/2021 3:15:00 AM 16 60.8 0.055 6.76 2.64 9
5/27/2021 3:30:00 AM 15.91 60.638 0.055 6.76 2.59 9.01
5/27/2021 3:45:00 AM 15.82 60.476 0.054 6.76 2.54 9.05
5/27/2021 4:00:00 AM 15.73 60.314 0.054 6.76 2.56 9.06
5/27/2021 4:15:00 AM 15.65 60.17 0.054 6.75 2.46 9.08
5/27/2021 4:30:00 AM 15.56 60.008 0.054 6.76 2.83 9.11
5/27/2021 4:45:00 AM 15.48 59.864 0.054 6.75 2.56 9.12
5/27/2021 5:00:00 AM 15.4 59.72 0.054 6.76 2.6 9.14
5/27/2021 5:15:00 AM 15.32 59.576 0.054 6.76 2.62 9.15
5/27/2021 5:30:00 AM 15.25 59.45 0.053 6.76 2.57 9.18
5/27/2021 5:45:00 AM 15.18 59.324 0.053 6.76 2.56 9.21
5/27/2021 6:00:00 AM 15.11 59.198 0.053 6.76 2.52 9.23
5/27/2021 6:15:00 AM 15.04 59.072 0.053 6.77 2.52 9.31
5/27/2021 6:30:00 AM 14.98 58.964 0.053 6.78 2.46 9.37
5/27/2021 6:45:00 AM 14.92 58.856 0.053 6.78 2.49 9.43
5/27/2021 7:00:00 AM 14.87 58.766 0.053 6.8 2.45 9.5
5/27/2021 7:15:00 AM 14.83 58.694 0.053 6.8 2.37 9.55
5/27/2021 7:30:00 AM 14.79 58.622 0.052 6.82 2.41 9.62
5/27/2021 7:45:00 AM 14.76 58.568 0.052 6.83 2.69 9.65
5/27/2021 8:00:00 AM 14.75 58.55 0.052 6.84 2.39 9.71
5/27/2021 8:15:00 AM 14.77 58.586 0.052 6.85 2.53 9.76
5/27/2021 8:30:00 AM 14.82 58.676 0.052 6.87 2.38 9.83
5/27/2021 8:45:00 AM 14.84 58.712 0.052 6.88 2.43 9.84
5/27/2021 9:00:00 AM 14.86 58.748 0.051 6.89 2.38 9.86
5/27/2021 9:15:00 AM 14.93 58.874 0.051 6.91 2.34 9.92
5/27/2021 9:30:00 AM 14.94 58.892 0.051 6.92 2.52 9.95
5/27/2021 9:45:00 AM 14.99 58.982 0.051 6.93 2.32 9.95
5/27/2021 10:00:00 AM 15.13 59.234 0.051 6.95 2.28 9.99
5/27/2021 10:15:00 AM 15.35 59.63 0.051 6.96 2.19 9.96
5/27/2021 10:30:00 AM 15.56 60.008 0.051 6.98 2.38 9.97
5/27/2021 10:45:00 AM 15.79 60.422 0.051 6.99 2.23 9.95
5/27/2021 11:00:00 AM 16.04 60.872 0.05 7.02 2.31 9.95
5/27/2021 11:15:00 AM 16.34 61.412 0.05 7.03 2.18 9.94
5/27/2021 11:30:00 AM 16.65 61.97 0.05 7.05 2.28 9.88
5/27/2021 11:45:00 AM 16.92 62.456 0.05 7.06 2.21 9.84
5/27/2021 12:00:00 PM 17.2 62.96 0.05 7.07 2.16 9.8
5/27/2021 12:15:00 PM 17.49 63.482 0.05 7.08 2.29 9.74
5/27/2021 12:30:00 PM 17.79 64.022 0.05 7.1 2.18 9.71
5/27/2021 12:45:00 PM 18.07 64.526 0.05 7.1 2.16 9.65
5/27/2021 1:00:00 PM 18.33 64.994 0.05 7.11 2.24 9.61
5/27/2021 1:15:00 PM 18.59 65.462 0.05 7.13 2.18 9.57
5/27/2021 1:30:00 PM 18.82 65.876 0.05 7.12 2.18 9.51
5/27/2021 1:45:00 PM 19.04 66.272 0.05 7.12 2.15 9.48
5/27/2021 2:00:00 PM 19.19 66.542 0.05 7.1 2.11 9.45
5/27/2021 2:15:00 PM 19.36 66.848 0.05 7.1 2.14 9.4
5/27/2021 2:30:00 PM 19.49 67.082 0.05 7.1 2.13 9.34
5/27/2021 2:45:00 PM 19.58 67.244 0.05 7.1 2.13 9.3
5/27/2021 3:00:00 PM 19.64 67.352 0.05 7.09 2.11 9.28
5/27/2021 3:15:00 PM 19.69 67.442 0.05 7.09 2.17 9.24
5/27/2021 3:30:00 PM 19.68 67.424 0.05 7.09 2.21 9.22
5/27/2021 3:45:00 PM 19.67 67.406 0.05 7.09 2.16 9.2
5/27/2021 4:00:00 PM 19.62 67.316 0.05 7.1 2.18 9.15
5/27/2021 4:15:00 PM 19.49 67.082 0.05 7.06 2.13 9.11
5/27/2021 4:30:00 PM 19.35 66.83 0.05 7.07 2.09 9.11
5/27/2021 4:45:00 PM 19.28 66.704 0.05 7.05 2.09 9.15
5/27/2021 5:00:00 PM 19.14 66.452 0.05 7.03 2.07 9.11
5/27/2021 5:15:00 PM 18.95 66.11 0.05 7 2.15 9.05
5/27/2021 5:30:00 PM 18.78 65.804 0.05 6.96 2.12 9
5/27/2021 5:45:00 PM 18.65 65.57 0.05 6.95 2.12 8.99
5/27/2021 6:00:00 PM 18.5 65.3 0.05 6.94 2.1 9.02
5/27/2021 6:15:00 PM 18.39 65.102 0.05 6.95 2.2 9.12
5/27/2021 6:30:00 PM 18.22 64.796 0.05 6.95 2.18 9.1
5/27/2021 6:45:00 PM 18 64.4 0.05 6.93 2.13 9.03
5/27/2021 7:00:00 PM 17.84 64.112 0.05 6.9 2.13 9.01
5/27/2021 7:15:00 PM 17.71 63.878 0.05 6.88 2.07 9
5/27/2021 7:30:00 PM 17.57 63.626 0.05 6.87 2.11 8.98
5/27/2021 7:45:00 PM 17.44 63.392 0.05 6.86 2.09 8.94
5/27/2021 8:00:00 PM 17.31 63.158 0.05 6.84 2.17 8.91
5/27/2021 8:15:00 PM 17.2 62.96 0.051 6.83 2.16 8.9
5/27/2021 8:30:00 PM 17.1 62.78 0.051 6.82 2.14 8.89
5/27/2021 8:45:00 PM 17 62.6 0.051 6.8 2.26 8.88
5/27/2021 9:00:00 PM 16.91 62.438 0.051 6.79 2.13 8.84
5/27/2021 9:15:00 PM 16.81 62.258 0.051 6.78 2.12 8.86
5/27/2021 9:30:00 PM 16.71 62.078 0.051 6.78 2.13 8.86
5/27/2021 9:45:00 PM 16.6 61.88 0.051 6.77 2.08 8.87
5/27/2021 10:00:00 PM 16.5 61.7 0.051 6.77 2.13 8.9
5/27/2021 10:15:00 PM 16.39 61.502 0.051 6.77 2.02 8.91
5/27/2021 10:30:00 PM 16.28 61.304 0.051 6.77 2.13 8.93
5/27/2021 10:45:00 PM 16.16 61.088 0.051 6.77 2.27 8.97
5/27/2021 11:00:00 PM 16.05 60.89 0.051 6.78 2.15 8.98
5/27/2021 11:15:00 PM 15.94 60.692 0.051 6.79 2.19 9.02
5/27/2021 11:30:00 PM 15.83 60.494 0.051 6.78 2.22 9.02
5/27/2021 11:45:00 PM 15.71 60.278 0.051 6.79 2.18 9.07
5/28/2021 12:00:00 AM 15.6 60.08 0.051 6.78 2.1 9.09
5/28/2021 12:15:00 AM 15.48 59.864 0.051 6.76 2.23 9.1
5/28/2021 12:30:00 AM 15.37 59.666 0.051 6.75 2.14 9.12
5/28/2021 12:45:00 AM 15.25 59.45 0.051 6.75 2.18 9.14
5/28/2021 1:00:00 AM 15.15 59.27 0.051 6.75 2.15 9.17
5/28/2021 1:15:00 AM 15.05 59.09 0.051 6.75 2.09 9.21
5/28/2021 1:30:00 AM 14.96 58.928 0.052 6.74 2.13 9.21
5/28/2021 1:45:00 AM 14.86 58.748 0.052 6.74 2.11 9.24
5/28/2021 2:00:00 AM 14.77 58.586 0.052 6.75 2.24 9.27
5/28/2021 2:15:00 AM 14.67 58.406 0.052 6.74 2.05 9.27
5/28/2021 2:30:00 AM 14.57 58.226 0.052 6.74 2.12 9.29
5/28/2021 2:45:00 AM 14.47 58.046 0.052 6.74 2.13 9.31
5/28/2021 3:00:00 AM 14.39 57.902 0.052 6.74 2.68 9.32
5/28/2021 3:15:00 AM 14.3 57.74 0.052 6.74 2.3 9.34
5/28/2021 3:30:00 AM 14.23 57.614 0.052 6.74 2.18 9.36
5/28/2021 3:45:00 AM 14.15 57.47 0.052 6.74 2.16 9.39
5/28/2021 4:00:00 AM 14.09 57.362 0.052 6.74 2.18 9.39
5/28/2021 4:15:00 AM 14.02 57.236 0.052 6.74 2.22 9.41
5/28/2021 4:30:00 AM 13.95 57.11 0.052 6.74 2.15 9.42
5/28/2021 4:45:00 AM 14.04 57.272 0.052 6.74 2.09 9.38
5/28/2021 5:00:00 AM 13.95 57.11 0.051 6.74 2.07 9.42
5/28/2021 5:15:00 AM 13.88 56.984 0.051 6.73 2.13 9.43
5/28/2021 5:30:00 AM 13.81 56.858 0.052 6.73 2.21 9.44
5/28/2021 5:45:00 AM 13.73 56.714 0.052 6.73 2.5 9.47
5/28/2021 6:00:00 AM 13.65 56.57 0.052 6.74 2.15 9.51
5/28/2021 6:15:00 AM 13.57 56.426 0.052 6.74 2.11 9.55
5/28/2021 6:30:00 AM 13.5 56.3 0.051 6.76 2.04 9.64
5/28/2021 6:45:00 AM 13.48 56.264 0.051 6.77 2.13 9.76
5/28/2021 7:00:00 AM 13.43 56.174 0.051 6.79 2.12 9.87
5/28/2021 7:15:00 AM 13.4 56.12 0.051 6.82 2.01 9.93
5/28/2021 7:30:00 AM 13.38 56.084 0.051 6.83 2.11 10.03
5/28/2021 7:45:00 AM 13.37 56.066 0.051 6.85 2.14 10.07
5/28/2021 8:00:00 AM 13.37 56.066 0.051 6.87 2.08 10.15
5/28/2021 8:15:00 AM 13.37 56.066 0.051 6.88 2.13 10.18
5/28/2021 8:30:00 AM 13.36 56.048 0.051 6.89 2.01 10.19
5/28/2021 8:45:00 AM 13.35 56.03 0.051 6.89 1.99 10.2
5/28/2021 9:00:00 AM 13.35 56.03 0.051 6.91 2.05 10.25
5/28/2021 9:15:00 AM 13.37 56.066 0.051 6.92 2.09 10.28
5/28/2021 9:30:00 AM 13.38 56.084 0.051 6.94 2.07 10.31
5/28/2021 9:45:00 AM 13.39 56.102 0.051 6.94 2 10.32
5/28/2021 10:00:00 AM 13.41 56.138 0.051 6.94 2.06 10.31
5/28/2021 10:15:00 AM 13.44 56.192 0.051 6.96 1.99